<?xml version="1.0" encoding="UTF-8" standalone="no" ?>
<gpx xmlns="http://www.topografix.com/GPX/1/1" xmlns:xsi="http://www.w3.org/2001/XMLSchema-instance" xsi:schemaLocation="http://www.topografix.com/GPX/1/1 http://www.topografix.com/GPX/1/1/gpx.xsd" version="1.1" creator="VisuGPX - https://www.visugpx.com">
  <metadata>
    <name>Colline de la revanche à Elancourt (78) Point culminant de la région IDF</name>
    <desc><![CDATA[Randonnée de 18 km en boucle à partir du parking de l'église d’Élancourt]]></desc>
  </metadata>
  <wpt lat="48.77708" lon="1.92073">
    <ele>113.83984375</ele>
    <name><![CDATA[Fontaine Saint-Sauveur]]></name>
    <type><![CDATA[user]]></type>
  </wpt>
  <wpt lat="48.78834" lon="1.96755">
    <ele>224.22265625</ele>
    <name><![CDATA[La Revanche]]></name>
    <type><![CDATA[user]]></type>
  </wpt>
  <wpt lat="48.78329" lon="1.96544">
    <ele>132.24609375</ele>
    <name><![CDATA[Source de Tartriot]]></name>
    <type><![CDATA[user]]></type>
  </wpt>
  <wpt lat="48.77255" lon="1.92054">
    <ele>157.68359375</ele>
    <name><![CDATA[Vestiges Archéologiques1]]></name>
    <type><![CDATA[user]]></type>
  </wpt>
  <trk>
    <name><![CDATA[Elancourt- Maurepas_R]]></name>
    <trkseg>
      <trkpt lat="48.78346" lon="1.9602">
        <ele>124.32</ele>
        <time>2018-01-07T08:33:29Z</time>
      </trkpt>
      <trkpt lat="48.78345" lon="1.96018">
        <ele>123.16</ele>
        <time>2018-01-07T08:33:50Z</time>
      </trkpt>
      <trkpt lat="48.78345" lon="1.96019">
        <ele>124.08</ele>
        <time>2018-01-07T08:34:08Z</time>
      </trkpt>
      <trkpt lat="48.78346" lon="1.9602">
        <ele>123.32</ele>
        <time>2018-01-07T08:34:17Z</time>
      </trkpt>
      <trkpt lat="48.78349" lon="1.96023">
        <ele>122.99</ele>
        <time>2018-01-07T08:34:34Z</time>
      </trkpt>
      <trkpt lat="48.78341" lon="1.96018">
        <ele>124.72</ele>
        <time>2018-01-07T08:34:50Z</time>
      </trkpt>
      <trkpt lat="48.7834" lon="1.96016">
        <ele>124.25</ele>
        <time>2018-01-07T08:35:05Z</time>
      </trkpt>
      <trkpt lat="48.7834" lon="1.96016">
        <ele>124.2</ele>
        <time>2018-01-07T08:35:22Z</time>
      </trkpt>
      <trkpt lat="48.78339" lon="1.96017">
        <ele>124.13</ele>
        <time>2018-01-07T08:35:49Z</time>
      </trkpt>
      <trkpt lat="48.78347" lon="1.96017">
        <ele>123.93</ele>
        <time>2018-01-07T08:36:07Z</time>
      </trkpt>
      <trkpt lat="48.78349" lon="1.96019">
        <ele>124.13</ele>
        <time>2018-01-07T08:36:23Z</time>
      </trkpt>
      <trkpt lat="48.78344" lon="1.96018">
        <ele>124.17</ele>
        <time>2018-01-07T08:36:37Z</time>
      </trkpt>
      <trkpt lat="48.78347" lon="1.96023">
        <ele>124.15</ele>
        <time>2018-01-07T08:36:59Z</time>
      </trkpt>
      <trkpt lat="48.78351" lon="1.96024">
        <ele>123.84</ele>
        <time>2018-01-07T08:37:13Z</time>
      </trkpt>
      <trkpt lat="48.78342" lon="1.96022">
        <ele>124.21</ele>
        <time>2018-01-07T08:37:30Z</time>
      </trkpt>
      <trkpt lat="48.78342" lon="1.96018">
        <ele>123.55</ele>
        <time>2018-01-07T08:37:48Z</time>
      </trkpt>
      <trkpt lat="48.78344" lon="1.96017">
        <ele>124.47</ele>
        <time>2018-01-07T08:38:04Z</time>
      </trkpt>
      <trkpt lat="48.78344" lon="1.96017">
        <ele>123.9</ele>
        <time>2018-01-07T08:38:23Z</time>
      </trkpt>
      <trkpt lat="48.78342" lon="1.96016">
        <ele>124.57</ele>
        <time>2018-01-07T08:38:39Z</time>
      </trkpt>
      <trkpt lat="48.78341" lon="1.96016">
        <ele>123.92</ele>
        <time>2018-01-07T08:38:59Z</time>
      </trkpt>
      <trkpt lat="48.78342" lon="1.96015">
        <ele>123.07</ele>
        <time>2018-01-07T08:39:19Z</time>
      </trkpt>
      <trkpt lat="48.78342" lon="1.96016">
        <ele>123.55</ele>
        <time>2018-01-07T08:39:41Z</time>
      </trkpt>
      <trkpt lat="48.78341" lon="1.96015">
        <ele>123.54</ele>
        <time>2018-01-07T08:39:58Z</time>
      </trkpt>
      <trkpt lat="48.78341" lon="1.96016">
        <ele>123.15</ele>
        <time>2018-01-07T08:40:14Z</time>
      </trkpt>
      <trkpt lat="48.78341" lon="1.96016">
        <ele>123.12</ele>
        <time>2018-01-07T08:40:41Z</time>
      </trkpt>
      <trkpt lat="48.78342" lon="1.96016">
        <ele>123.58</ele>
        <time>2018-01-07T08:41:01Z</time>
      </trkpt>
      <trkpt lat="48.78342" lon="1.96016">
        <ele>123.18</ele>
        <time>2018-01-07T08:41:14Z</time>
      </trkpt>
      <trkpt lat="48.78342" lon="1.96017">
        <ele>122.36</ele>
        <time>2018-01-07T08:41:32Z</time>
      </trkpt>
      <trkpt lat="48.78342" lon="1.96017">
        <ele>122</ele>
        <time>2018-01-07T08:41:38Z</time>
      </trkpt>
      <trkpt lat="48.78343" lon="1.96017">
        <ele>122.48</ele>
        <time>2018-01-07T08:41:57Z</time>
      </trkpt>
      <trkpt lat="48.78342" lon="1.96017">
        <ele>122.73</ele>
        <time>2018-01-07T08:42:17Z</time>
      </trkpt>
      <trkpt lat="48.78342" lon="1.96017">
        <ele>122.61</ele>
        <time>2018-01-07T08:42:37Z</time>
      </trkpt>
      <trkpt lat="48.78342" lon="1.96017">
        <ele>123.38</ele>
        <time>2018-01-07T08:42:57Z</time>
      </trkpt>
      <trkpt lat="48.78341" lon="1.96016">
        <ele>123.03</ele>
        <time>2018-01-07T08:43:15Z</time>
      </trkpt>
      <trkpt lat="48.78341" lon="1.96017">
        <ele>122.62</ele>
        <time>2018-01-07T08:43:34Z</time>
      </trkpt>
      <trkpt lat="48.7834" lon="1.96016">
        <ele>122.89</ele>
        <time>2018-01-07T08:44:02Z</time>
      </trkpt>
      <trkpt lat="48.78342" lon="1.96019">
        <ele>122.54</ele>
        <time>2018-01-07T08:44:28Z</time>
      </trkpt>
      <trkpt lat="48.78346" lon="1.96023">
        <ele>120.68</ele>
        <time>2018-01-07T08:44:36Z</time>
      </trkpt>
      <trkpt lat="48.78347" lon="1.96025">
        <ele>121.57</ele>
        <time>2018-01-07T08:44:39Z</time>
      </trkpt>
      <trkpt lat="48.78349" lon="1.96032">
        <ele>122.97</ele>
        <time>2018-01-07T08:44:43Z</time>
      </trkpt>
      <trkpt lat="48.78348" lon="1.96039">
        <ele>121.39</ele>
        <time>2018-01-07T08:44:48Z</time>
      </trkpt>
      <trkpt lat="48.78345" lon="1.96058">
        <ele>122.02</ele>
        <time>2018-01-07T08:45:04Z</time>
      </trkpt>
      <trkpt lat="48.78341" lon="1.9607">
        <ele>121.82</ele>
        <time>2018-01-07T08:45:12Z</time>
      </trkpt>
      <trkpt lat="48.78338" lon="1.96097">
        <ele>121.3</ele>
        <time>2018-01-07T08:45:28Z</time>
      </trkpt>
      <trkpt lat="48.78327" lon="1.9612">
        <ele>121.32</ele>
        <time>2018-01-07T08:45:42Z</time>
      </trkpt>
      <trkpt lat="48.78326" lon="1.96127">
        <ele>121.46</ele>
        <time>2018-01-07T08:45:46Z</time>
      </trkpt>
      <trkpt lat="48.78322" lon="1.96148">
        <ele>121.45</ele>
        <time>2018-01-07T08:46:01Z</time>
      </trkpt>
      <trkpt lat="48.78318" lon="1.96166">
        <ele>120.55</ele>
        <time>2018-01-07T08:46:15Z</time>
      </trkpt>
      <trkpt lat="48.78318" lon="1.9617">
        <ele>120.78</ele>
        <time>2018-01-07T08:46:17Z</time>
      </trkpt>
      <trkpt lat="48.78317" lon="1.96174">
        <ele>121.43</ele>
        <time>2018-01-07T08:46:19Z</time>
      </trkpt>
      <trkpt lat="48.78317" lon="1.96198">
        <ele>122.21</ele>
        <time>2018-01-07T08:46:32Z</time>
      </trkpt>
      <trkpt lat="48.78319" lon="1.96211">
        <ele>121.6</ele>
        <time>2018-01-07T08:46:45Z</time>
      </trkpt>
      <trkpt lat="48.78318" lon="1.96214">
        <ele>121.95</ele>
        <time>2018-01-07T08:46:47Z</time>
      </trkpt>
      <trkpt lat="48.78317" lon="1.9622">
        <ele>120.83</ele>
        <time>2018-01-07T08:46:52Z</time>
      </trkpt>
      <trkpt lat="48.78315" lon="1.96235">
        <ele>120.86</ele>
        <time>2018-01-07T08:47:01Z</time>
      </trkpt>
      <trkpt lat="48.78319" lon="1.96249">
        <ele>120.94</ele>
        <time>2018-01-07T08:47:11Z</time>
      </trkpt>
      <trkpt lat="48.78328" lon="1.96266">
        <ele>122.47</ele>
        <time>2018-01-07T08:47:24Z</time>
      </trkpt>
      <trkpt lat="48.78339" lon="1.96285">
        <ele>122.27</ele>
        <time>2018-01-07T08:47:39Z</time>
      </trkpt>
      <trkpt lat="48.78348" lon="1.96299">
        <ele>122.53</ele>
        <time>2018-01-07T08:47:51Z</time>
      </trkpt>
      <trkpt lat="48.7836" lon="1.96319">
        <ele>123.57</ele>
        <time>2018-01-07T08:48:08Z</time>
      </trkpt>
      <trkpt lat="48.78372" lon="1.96338">
        <ele>124.9</ele>
        <time>2018-01-07T08:48:24Z</time>
      </trkpt>
      <trkpt lat="48.78378" lon="1.96344">
        <ele>125.32</ele>
        <time>2018-01-07T08:48:32Z</time>
      </trkpt>
      <trkpt lat="48.78397" lon="1.9636">
        <ele>125.64</ele>
        <time>2018-01-07T08:48:49Z</time>
      </trkpt>
      <trkpt lat="48.7841" lon="1.9636">
        <ele>126.29</ele>
        <time>2018-01-07T08:49:00Z</time>
      </trkpt>
      <trkpt lat="48.7841" lon="1.96382">
        <ele>125.17</ele>
        <time>2018-01-07T08:49:17Z</time>
      </trkpt>
      <trkpt lat="48.78407" lon="1.96396">
        <ele>126.35</ele>
        <time>2018-01-07T08:49:36Z</time>
      </trkpt>
      <trkpt lat="48.78404" lon="1.96398">
        <ele>125.83</ele>
        <time>2018-01-07T08:50:01Z</time>
      </trkpt>
      <trkpt lat="48.78404" lon="1.96398">
        <ele>125.74</ele>
        <time>2018-01-07T08:50:02Z</time>
      </trkpt>
      <trkpt lat="48.78403" lon="1.96414">
        <ele>126.45</ele>
        <time>2018-01-07T08:50:21Z</time>
      </trkpt>
      <trkpt lat="48.78397" lon="1.96444">
        <ele>127.38</ele>
        <time>2018-01-07T08:50:39Z</time>
      </trkpt>
      <trkpt lat="48.78391" lon="1.96463">
        <ele>127.72</ele>
        <time>2018-01-07T08:50:54Z</time>
      </trkpt>
      <trkpt lat="48.78389" lon="1.96485">
        <ele>130</ele>
        <time>2018-01-07T08:51:08Z</time>
      </trkpt>
      <trkpt lat="48.7839" lon="1.96498">
        <ele>130.67</ele>
        <time>2018-01-07T08:51:16Z</time>
      </trkpt>
      <trkpt lat="48.78391" lon="1.96522">
        <ele>132.43</ele>
        <time>2018-01-07T08:51:31Z</time>
      </trkpt>
      <trkpt lat="48.78391" lon="1.96524">
        <ele>132.12</ele>
        <time>2018-01-07T08:51:32Z</time>
      </trkpt>
      <trkpt lat="48.78391" lon="1.96548">
        <ele>133.38</ele>
        <time>2018-01-07T08:51:46Z</time>
      </trkpt>
      <trkpt lat="48.78389" lon="1.96572">
        <ele>134.75</ele>
        <time>2018-01-07T08:52:00Z</time>
      </trkpt>
      <trkpt lat="48.7839" lon="1.96596">
        <ele>135.77</ele>
        <time>2018-01-07T08:52:14Z</time>
      </trkpt>
      <trkpt lat="48.78391" lon="1.96618">
        <ele>137.3</ele>
        <time>2018-01-07T08:52:28Z</time>
      </trkpt>
      <trkpt lat="48.78391" lon="1.96642">
        <ele>138.47</ele>
        <time>2018-01-07T08:52:46Z</time>
      </trkpt>
      <trkpt lat="48.78393" lon="1.96662">
        <ele>141.56</ele>
        <time>2018-01-07T08:53:02Z</time>
      </trkpt>
      <trkpt lat="48.78383" lon="1.96675">
        <ele>143.94</ele>
        <time>2018-01-07T08:53:25Z</time>
      </trkpt>
      <trkpt lat="48.78379" lon="1.96683">
        <ele>145.58</ele>
        <time>2018-01-07T08:53:41Z</time>
      </trkpt>
      <trkpt lat="48.78368" lon="1.96702">
        <ele>148.53</ele>
        <time>2018-01-07T08:54:02Z</time>
      </trkpt>
      <trkpt lat="48.7836" lon="1.96718">
        <ele>151.08</ele>
        <time>2018-01-07T08:54:21Z</time>
      </trkpt>
      <trkpt lat="48.7836" lon="1.96747">
        <ele>153.42</ele>
        <time>2018-01-07T08:54:42Z</time>
      </trkpt>
      <trkpt lat="48.7836" lon="1.96786">
        <ele>155.12</ele>
        <time>2018-01-07T08:55:01Z</time>
      </trkpt>
      <trkpt lat="48.7836" lon="1.96804">
        <ele>156.78</ele>
        <time>2018-01-07T08:55:20Z</time>
      </trkpt>
      <trkpt lat="48.78363" lon="1.96808">
        <ele>156.27</ele>
        <time>2018-01-07T08:55:34Z</time>
      </trkpt>
      <trkpt lat="48.7836" lon="1.96801">
        <ele>156.27</ele>
        <time>2018-01-07T08:55:55Z</time>
      </trkpt>
      <trkpt lat="48.78357" lon="1.96799">
        <ele>157.57</ele>
        <time>2018-01-07T08:56:21Z</time>
      </trkpt>
      <trkpt lat="48.78354" lon="1.96797">
        <ele>157.42</ele>
        <time>2018-01-07T08:56:52Z</time>
      </trkpt>
      <trkpt lat="48.78354" lon="1.96789">
        <ele>158.21</ele>
        <time>2018-01-07T08:57:19Z</time>
      </trkpt>
      <trkpt lat="48.78355" lon="1.96783">
        <ele>161.03</ele>
        <time>2018-01-07T08:57:25Z</time>
      </trkpt>
      <trkpt lat="48.78357" lon="1.96776">
        <ele>159.42</ele>
        <time>2018-01-07T08:57:32Z</time>
      </trkpt>
      <trkpt lat="48.78357" lon="1.96764">
        <ele>159.45</ele>
        <time>2018-01-07T08:57:50Z</time>
      </trkpt>
      <trkpt lat="48.78364" lon="1.96745">
        <ele>159.04</ele>
        <time>2018-01-07T08:58:10Z</time>
      </trkpt>
      <trkpt lat="48.78377" lon="1.96732">
        <ele>160.75</ele>
        <time>2018-01-07T08:58:26Z</time>
      </trkpt>
      <trkpt lat="48.7839" lon="1.96715">
        <ele>160.14</ele>
        <time>2018-01-07T08:58:46Z</time>
      </trkpt>
      <trkpt lat="48.78397" lon="1.96707">
        <ele>160.03</ele>
        <time>2018-01-07T08:58:53Z</time>
      </trkpt>
      <trkpt lat="48.78408" lon="1.96694">
        <ele>159.1</ele>
        <time>2018-01-07T08:59:09Z</time>
      </trkpt>
      <trkpt lat="48.78418" lon="1.96691">
        <ele>160.03</ele>
        <time>2018-01-07T08:59:28Z</time>
      </trkpt>
      <trkpt lat="48.7842" lon="1.96696">
        <ele>160.07</ele>
        <time>2018-01-07T08:59:35Z</time>
      </trkpt>
      <trkpt lat="48.7843" lon="1.96717">
        <ele>160.47</ele>
        <time>2018-01-07T08:59:56Z</time>
      </trkpt>
      <trkpt lat="48.78432" lon="1.96735">
        <ele>161.03</ele>
        <time>2018-01-07T09:00:09Z</time>
      </trkpt>
      <trkpt lat="48.78443" lon="1.9676">
        <ele>162.45</ele>
        <time>2018-01-07T09:00:26Z</time>
      </trkpt>
      <trkpt lat="48.78446" lon="1.96758">
        <ele>162.35</ele>
        <time>2018-01-07T09:00:42Z</time>
      </trkpt>
      <trkpt lat="48.78451" lon="1.96753">
        <ele>162.59</ele>
        <time>2018-01-07T09:01:02Z</time>
      </trkpt>
      <trkpt lat="48.78449" lon="1.96754">
        <ele>162.23</ele>
        <time>2018-01-07T09:01:19Z</time>
      </trkpt>
      <trkpt lat="48.78449" lon="1.96756">
        <ele>162.47</ele>
        <time>2018-01-07T09:01:39Z</time>
      </trkpt>
      <trkpt lat="48.78448" lon="1.96757">
        <ele>162.45</ele>
        <time>2018-01-07T09:02:05Z</time>
      </trkpt>
      <trkpt lat="48.78448" lon="1.96757">
        <ele>162.6</ele>
        <time>2018-01-07T09:02:28Z</time>
      </trkpt>
      <trkpt lat="48.78447" lon="1.96758">
        <ele>161.52</ele>
        <time>2018-01-07T09:02:59Z</time>
      </trkpt>
      <trkpt lat="48.78447" lon="1.96759">
        <ele>162.73</ele>
        <time>2018-01-07T09:03:18Z</time>
      </trkpt>
      <trkpt lat="48.78448" lon="1.96758">
        <ele>162.38</ele>
        <time>2018-01-07T09:03:37Z</time>
      </trkpt>
      <trkpt lat="48.7845" lon="1.96755">
        <ele>162.18</ele>
        <time>2018-01-07T09:03:57Z</time>
      </trkpt>
      <trkpt lat="48.78455" lon="1.9675">
        <ele>162.18</ele>
        <time>2018-01-07T09:04:05Z</time>
      </trkpt>
      <trkpt lat="48.7847" lon="1.96733">
        <ele>163.73</ele>
        <time>2018-01-07T09:04:23Z</time>
      </trkpt>
      <trkpt lat="48.78483" lon="1.9672">
        <ele>163.94</ele>
        <time>2018-01-07T09:04:38Z</time>
      </trkpt>
      <trkpt lat="48.78495" lon="1.9671">
        <ele>165.33</ele>
        <time>2018-01-07T09:04:52Z</time>
      </trkpt>
      <trkpt lat="48.78507" lon="1.96695">
        <ele>166.7</ele>
        <time>2018-01-07T09:05:09Z</time>
      </trkpt>
      <trkpt lat="48.78519" lon="1.96681">
        <ele>167.71</ele>
        <time>2018-01-07T09:05:23Z</time>
      </trkpt>
      <trkpt lat="48.78528" lon="1.96664">
        <ele>169.11</ele>
        <time>2018-01-07T09:05:38Z</time>
      </trkpt>
      <trkpt lat="48.78535" lon="1.96651">
        <ele>169.54</ele>
        <time>2018-01-07T09:05:48Z</time>
      </trkpt>
      <trkpt lat="48.78547" lon="1.96629">
        <ele>168.69</ele>
        <time>2018-01-07T09:06:07Z</time>
      </trkpt>
      <trkpt lat="48.7856" lon="1.96608">
        <ele>167.37</ele>
        <time>2018-01-07T09:06:25Z</time>
      </trkpt>
      <trkpt lat="48.78572" lon="1.96603">
        <ele>165.68</ele>
        <time>2018-01-07T09:06:41Z</time>
      </trkpt>
      <trkpt lat="48.78585" lon="1.96604">
        <ele>164.12</ele>
        <time>2018-01-07T09:06:59Z</time>
      </trkpt>
      <trkpt lat="48.78588" lon="1.96602">
        <ele>164.04</ele>
        <time>2018-01-07T09:07:05Z</time>
      </trkpt>
      <trkpt lat="48.7859" lon="1.96599">
        <ele>162.96</ele>
        <time>2018-01-07T09:07:14Z</time>
      </trkpt>
      <trkpt lat="48.78592" lon="1.96601">
        <ele>163.01</ele>
        <time>2018-01-07T09:07:32Z</time>
      </trkpt>
      <trkpt lat="48.78593" lon="1.96603">
        <ele>163.17</ele>
        <time>2018-01-07T09:07:34Z</time>
      </trkpt>
      <trkpt lat="48.78604" lon="1.96603">
        <ele>165.69</ele>
        <time>2018-01-07T09:07:47Z</time>
      </trkpt>
      <trkpt lat="48.78615" lon="1.96606">
        <ele>169.33</ele>
        <time>2018-01-07T09:08:02Z</time>
      </trkpt>
      <trkpt lat="48.78624" lon="1.96607">
        <ele>172.52</ele>
        <time>2018-01-07T09:08:19Z</time>
      </trkpt>
      <trkpt lat="48.7863" lon="1.96607">
        <ele>174.3</ele>
        <time>2018-01-07T09:08:37Z</time>
      </trkpt>
      <trkpt lat="48.78641" lon="1.96607">
        <ele>177.35</ele>
        <time>2018-01-07T09:08:55Z</time>
      </trkpt>
      <trkpt lat="48.78649" lon="1.96607">
        <ele>179.08</ele>
        <time>2018-01-07T09:09:13Z</time>
      </trkpt>
      <trkpt lat="48.78656" lon="1.96607">
        <ele>182.47</ele>
        <time>2018-01-07T09:09:26Z</time>
      </trkpt>
      <trkpt lat="48.78657" lon="1.96607">
        <ele>182.72</ele>
        <time>2018-01-07T09:09:27Z</time>
      </trkpt>
      <trkpt lat="48.78659" lon="1.96604">
        <ele>181.84</ele>
        <time>2018-01-07T09:09:44Z</time>
      </trkpt>
      <trkpt lat="48.7866" lon="1.96603">
        <ele>181.95</ele>
        <time>2018-01-07T09:10:01Z</time>
      </trkpt>
      <trkpt lat="48.78662" lon="1.96597">
        <ele>181.74</ele>
        <time>2018-01-07T09:10:30Z</time>
      </trkpt>
      <trkpt lat="48.78669" lon="1.96592">
        <ele>182.04</ele>
        <time>2018-01-07T09:10:45Z</time>
      </trkpt>
      <trkpt lat="48.78673" lon="1.96593">
        <ele>182.55</ele>
        <time>2018-01-07T09:11:08Z</time>
      </trkpt>
      <trkpt lat="48.78677" lon="1.96596">
        <ele>185.99</ele>
        <time>2018-01-07T09:11:30Z</time>
      </trkpt>
      <trkpt lat="48.78685" lon="1.96602">
        <ele>189.26</ele>
        <time>2018-01-07T09:11:43Z</time>
      </trkpt>
      <trkpt lat="48.78695" lon="1.96605">
        <ele>192.3</ele>
        <time>2018-01-07T09:12:00Z</time>
      </trkpt>
      <trkpt lat="48.78704" lon="1.96611">
        <ele>195.51</ele>
        <time>2018-01-07T09:12:17Z</time>
      </trkpt>
      <trkpt lat="48.78714" lon="1.96628">
        <ele>198.9</ele>
        <time>2018-01-07T09:12:38Z</time>
      </trkpt>
      <trkpt lat="48.78716" lon="1.96633">
        <ele>200.16</ele>
        <time>2018-01-07T09:12:54Z</time>
      </trkpt>
      <trkpt lat="48.78716" lon="1.96632">
        <ele>199.58</ele>
        <time>2018-01-07T09:13:17Z</time>
      </trkpt>
      <trkpt lat="48.78722" lon="1.96641">
        <ele>201.38</ele>
        <time>2018-01-07T09:13:39Z</time>
      </trkpt>
      <trkpt lat="48.78729" lon="1.96652">
        <ele>204.51</ele>
        <time>2018-01-07T09:13:52Z</time>
      </trkpt>
      <trkpt lat="48.78736" lon="1.96664">
        <ele>205.79</ele>
        <time>2018-01-07T09:14:08Z</time>
      </trkpt>
      <trkpt lat="48.78742" lon="1.96674">
        <ele>207.1</ele>
        <time>2018-01-07T09:14:28Z</time>
      </trkpt>
      <trkpt lat="48.78751" lon="1.96687">
        <ele>210.24</ele>
        <time>2018-01-07T09:14:46Z</time>
      </trkpt>
      <trkpt lat="48.78759" lon="1.96696">
        <ele>211.62</ele>
        <time>2018-01-07T09:15:00Z</time>
      </trkpt>
      <trkpt lat="48.78768" lon="1.96707">
        <ele>211.98</ele>
        <time>2018-01-07T09:15:15Z</time>
      </trkpt>
      <trkpt lat="48.78769" lon="1.96709">
        <ele>214.36</ele>
        <time>2018-01-07T09:15:18Z</time>
      </trkpt>
      <trkpt lat="48.78778" lon="1.96723">
        <ele>215.62</ele>
        <time>2018-01-07T09:15:35Z</time>
      </trkpt>
      <trkpt lat="48.78787" lon="1.96735">
        <ele>217.36</ele>
        <time>2018-01-07T09:15:49Z</time>
      </trkpt>
      <trkpt lat="48.78798" lon="1.96752">
        <ele>219.83</ele>
        <time>2018-01-07T09:16:05Z</time>
      </trkpt>
      <trkpt lat="48.78799" lon="1.96753">
        <ele>219.69</ele>
        <time>2018-01-07T09:16:06Z</time>
      </trkpt>
      <trkpt lat="48.78811" lon="1.96773">
        <ele>220.42</ele>
        <time>2018-01-07T09:16:22Z</time>
      </trkpt>
      <trkpt lat="48.78814" lon="1.96779">
        <ele>221.05</ele>
        <time>2018-01-07T09:16:27Z</time>
      </trkpt>
      <trkpt lat="48.78821" lon="1.96784">
        <ele>222.79</ele>
        <time>2018-01-07T09:16:35Z</time>
      </trkpt>
      <trkpt lat="48.78826" lon="1.96795">
        <ele>221.58</ele>
        <time>2018-01-07T09:16:49Z</time>
      </trkpt>
      <trkpt lat="48.78842" lon="1.96816">
        <ele>221.17</ele>
        <time>2018-01-07T09:17:07Z</time>
      </trkpt>
      <trkpt lat="48.78848" lon="1.96822">
        <ele>223.02</ele>
        <time>2018-01-07T09:20:07Z</time>
      </trkpt>
      <trkpt lat="48.78848" lon="1.96821">
        <ele>222.66</ele>
        <time>2018-01-07T09:20:13Z</time>
      </trkpt>
      <trkpt lat="48.78854" lon="1.96825">
        <ele>222.22</ele>
        <time>2018-01-07T09:20:19Z</time>
      </trkpt>
      <trkpt lat="48.78857" lon="1.96824">
        <ele>222.81</ele>
        <time>2018-01-07T09:20:23Z</time>
      </trkpt>
      <trkpt lat="48.78858" lon="1.96821">
        <ele>224.21</ele>
        <time>2018-01-07T09:20:25Z</time>
      </trkpt>
      <trkpt lat="48.78866" lon="1.96804">
        <ele>220.55</ele>
        <time>2018-01-07T09:21:08Z</time>
      </trkpt>
      <trkpt lat="48.78869" lon="1.96802">
        <ele>219.26</ele>
        <time>2018-01-07T09:21:18Z</time>
      </trkpt>
      <trkpt lat="48.78871" lon="1.96801">
        <ele>219.25</ele>
        <time>2018-01-07T09:21:47Z</time>
      </trkpt>
      <trkpt lat="48.78877" lon="1.96798">
        <ele>217.06</ele>
        <time>2018-01-07T09:22:02Z</time>
      </trkpt>
      <trkpt lat="48.78882" lon="1.968">
        <ele>214.8</ele>
        <time>2018-01-07T09:22:20Z</time>
      </trkpt>
      <trkpt lat="48.78882" lon="1.96799">
        <ele>215.16</ele>
        <time>2018-01-07T09:22:40Z</time>
      </trkpt>
      <trkpt lat="48.78882" lon="1.96799">
        <ele>214.75</ele>
        <time>2018-01-07T09:22:56Z</time>
      </trkpt>
      <trkpt lat="48.78884" lon="1.96799">
        <ele>213.32</ele>
        <time>2018-01-07T09:23:11Z</time>
      </trkpt>
      <trkpt lat="48.78886" lon="1.96798">
        <ele>212.64</ele>
        <time>2018-01-07T09:23:33Z</time>
      </trkpt>
      <trkpt lat="48.78891" lon="1.96792">
        <ele>210.51</ele>
        <time>2018-01-07T09:24:45Z</time>
      </trkpt>
      <trkpt lat="48.78893" lon="1.96791">
        <ele>210.96</ele>
        <time>2018-01-07T09:25:56Z</time>
      </trkpt>
      <trkpt lat="48.78898" lon="1.96791">
        <ele>206.56</ele>
        <time>2018-01-07T09:28:46Z</time>
      </trkpt>
      <trkpt lat="48.78903" lon="1.9679">
        <ele>204.8</ele>
        <time>2018-01-07T09:29:06Z</time>
      </trkpt>
      <trkpt lat="48.78905" lon="1.9679">
        <ele>205.76</ele>
        <time>2018-01-07T09:30:21Z</time>
      </trkpt>
      <trkpt lat="48.78907" lon="1.9679">
        <ele>205.15</ele>
        <time>2018-01-07T09:30:49Z</time>
      </trkpt>
      <trkpt lat="48.78913" lon="1.96787">
        <ele>203.36</ele>
        <time>2018-01-07T09:31:16Z</time>
      </trkpt>
      <trkpt lat="48.78914" lon="1.96787">
        <ele>201.29</ele>
        <time>2018-01-07T09:31:35Z</time>
      </trkpt>
      <trkpt lat="48.7892" lon="1.96785">
        <ele>201.09</ele>
        <time>2018-01-07T09:31:54Z</time>
      </trkpt>
      <trkpt lat="48.7892" lon="1.96783">
        <ele>200.81</ele>
        <time>2018-01-07T09:32:13Z</time>
      </trkpt>
      <trkpt lat="48.78922" lon="1.96777">
        <ele>201</ele>
        <time>2018-01-07T09:32:29Z</time>
      </trkpt>
      <trkpt lat="48.78917" lon="1.96752">
        <ele>201.05</ele>
        <time>2018-01-07T09:32:47Z</time>
      </trkpt>
      <trkpt lat="48.78913" lon="1.9674">
        <ele>201.13</ele>
        <time>2018-01-07T09:33:01Z</time>
      </trkpt>
      <trkpt lat="48.78912" lon="1.96738">
        <ele>201.18</ele>
        <time>2018-01-07T09:33:02Z</time>
      </trkpt>
      <trkpt lat="48.78908" lon="1.96732">
        <ele>200.9</ele>
        <time>2018-01-07T09:33:09Z</time>
      </trkpt>
      <trkpt lat="48.789" lon="1.96722">
        <ele>200.26</ele>
        <time>2018-01-07T09:33:25Z</time>
      </trkpt>
      <trkpt lat="48.78901" lon="1.96716">
        <ele>200.31</ele>
        <time>2018-01-07T09:33:49Z</time>
      </trkpt>
      <trkpt lat="48.78905" lon="1.9671">
        <ele>197.64</ele>
        <time>2018-01-07T09:34:05Z</time>
      </trkpt>
      <trkpt lat="48.78907" lon="1.96706">
        <ele>196.58</ele>
        <time>2018-01-07T09:34:28Z</time>
      </trkpt>
      <trkpt lat="48.78913" lon="1.96699">
        <ele>194.39</ele>
        <time>2018-01-07T09:34:54Z</time>
      </trkpt>
      <trkpt lat="48.78912" lon="1.9669">
        <ele>193.23</ele>
        <time>2018-01-07T09:35:14Z</time>
      </trkpt>
      <trkpt lat="48.78911" lon="1.96685">
        <ele>192.53</ele>
        <time>2018-01-07T09:35:37Z</time>
      </trkpt>
      <trkpt lat="48.78915" lon="1.96676">
        <ele>192.83</ele>
        <time>2018-01-07T09:36:01Z</time>
      </trkpt>
      <trkpt lat="48.78917" lon="1.96673">
        <ele>191.25</ele>
        <time>2018-01-07T09:36:23Z</time>
      </trkpt>
      <trkpt lat="48.78921" lon="1.96665">
        <ele>187.9</ele>
        <time>2018-01-07T09:36:43Z</time>
      </trkpt>
      <trkpt lat="48.78922" lon="1.96663">
        <ele>187.24</ele>
        <time>2018-01-07T09:36:45Z</time>
      </trkpt>
      <trkpt lat="48.78926" lon="1.96654">
        <ele>183.54</ele>
        <time>2018-01-07T09:37:05Z</time>
      </trkpt>
      <trkpt lat="48.78928" lon="1.96653">
        <ele>183.3</ele>
        <time>2018-01-07T09:37:26Z</time>
      </trkpt>
      <trkpt lat="48.7893" lon="1.96651">
        <ele>183.19</ele>
        <time>2018-01-07T09:37:54Z</time>
      </trkpt>
      <trkpt lat="48.78935" lon="1.96643">
        <ele>180.2</ele>
        <time>2018-01-07T09:38:16Z</time>
      </trkpt>
      <trkpt lat="48.78941" lon="1.9663">
        <ele>177.06</ele>
        <time>2018-01-07T09:38:33Z</time>
      </trkpt>
      <trkpt lat="48.78944" lon="1.96627">
        <ele>176.55</ele>
        <time>2018-01-07T09:38:53Z</time>
      </trkpt>
      <trkpt lat="48.78946" lon="1.96623">
        <ele>175.17</ele>
        <time>2018-01-07T09:39:13Z</time>
      </trkpt>
      <trkpt lat="48.7895" lon="1.96614">
        <ele>171.96</ele>
        <time>2018-01-07T09:39:28Z</time>
      </trkpt>
      <trkpt lat="48.78958" lon="1.96612">
        <ele>169.89</ele>
        <time>2018-01-07T09:39:46Z</time>
      </trkpt>
      <trkpt lat="48.78959" lon="1.96612">
        <ele>170.05</ele>
        <time>2018-01-07T09:39:55Z</time>
      </trkpt>
      <trkpt lat="48.78965" lon="1.9661">
        <ele>166.91</ele>
        <time>2018-01-07T09:40:19Z</time>
      </trkpt>
      <trkpt lat="48.78969" lon="1.96612">
        <ele>166.45</ele>
        <time>2018-01-07T09:40:38Z</time>
      </trkpt>
      <trkpt lat="48.78975" lon="1.96617">
        <ele>163.38</ele>
        <time>2018-01-07T09:40:55Z</time>
      </trkpt>
      <trkpt lat="48.78984" lon="1.96618">
        <ele>163.07</ele>
        <time>2018-01-07T09:41:06Z</time>
      </trkpt>
      <trkpt lat="48.78985" lon="1.96618">
        <ele>161.89</ele>
        <time>2018-01-07T09:41:19Z</time>
      </trkpt>
      <trkpt lat="48.78986" lon="1.9662">
        <ele>162.98</ele>
        <time>2018-01-07T09:41:34Z</time>
      </trkpt>
      <trkpt lat="48.78987" lon="1.9662">
        <ele>162.17</ele>
        <time>2018-01-07T09:42:04Z</time>
      </trkpt>
      <trkpt lat="48.78986" lon="1.96619">
        <ele>162.32</ele>
        <time>2018-01-07T09:42:34Z</time>
      </trkpt>
      <trkpt lat="48.78986" lon="1.96621">
        <ele>162.9</ele>
        <time>2018-01-07T09:42:50Z</time>
      </trkpt>
      <trkpt lat="48.78986" lon="1.96617">
        <ele>162.57</ele>
        <time>2018-01-07T09:42:55Z</time>
      </trkpt>
      <trkpt lat="48.78984" lon="1.96601">
        <ele>161.87</ele>
        <time>2018-01-07T09:43:07Z</time>
      </trkpt>
      <trkpt lat="48.7898" lon="1.96586">
        <ele>161.4</ele>
        <time>2018-01-07T09:43:16Z</time>
      </trkpt>
      <trkpt lat="48.78975" lon="1.96571">
        <ele>161.29</ele>
        <time>2018-01-07T09:43:28Z</time>
      </trkpt>
      <trkpt lat="48.7897" lon="1.96565">
        <ele>160.96</ele>
        <time>2018-01-07T09:43:33Z</time>
      </trkpt>
      <trkpt lat="48.78968" lon="1.96562">
        <ele>161.11</ele>
        <time>2018-01-07T09:43:38Z</time>
      </trkpt>
      <trkpt lat="48.78964" lon="1.96559">
        <ele>160.49</ele>
        <time>2018-01-07T09:43:43Z</time>
      </trkpt>
      <trkpt lat="48.78961" lon="1.96556">
        <ele>160.68</ele>
        <time>2018-01-07T09:43:46Z</time>
      </trkpt>
      <trkpt lat="48.78955" lon="1.96551">
        <ele>160.99</ele>
        <time>2018-01-07T09:43:52Z</time>
      </trkpt>
      <trkpt lat="48.78949" lon="1.96545">
        <ele>160.97</ele>
        <time>2018-01-07T09:43:59Z</time>
      </trkpt>
      <trkpt lat="48.78951" lon="1.9654">
        <ele>159.35</ele>
        <time>2018-01-07T09:44:03Z</time>
      </trkpt>
      <trkpt lat="48.78946" lon="1.96533">
        <ele>160.11</ele>
        <time>2018-01-07T09:44:12Z</time>
      </trkpt>
      <trkpt lat="48.78941" lon="1.9652">
        <ele>159.93</ele>
        <time>2018-01-07T09:44:22Z</time>
      </trkpt>
      <trkpt lat="48.78942" lon="1.96516">
        <ele>159.28</ele>
        <time>2018-01-07T09:44:25Z</time>
      </trkpt>
      <trkpt lat="48.7894" lon="1.96512">
        <ele>160.13</ele>
        <time>2018-01-07T09:44:29Z</time>
      </trkpt>
      <trkpt lat="48.78933" lon="1.965">
        <ele>159.95</ele>
        <time>2018-01-07T09:44:42Z</time>
      </trkpt>
      <trkpt lat="48.7893" lon="1.96498">
        <ele>161.55</ele>
        <time>2018-01-07T09:44:46Z</time>
      </trkpt>
      <trkpt lat="48.78928" lon="1.96497">
        <ele>160.06</ele>
        <time>2018-01-07T09:44:48Z</time>
      </trkpt>
      <trkpt lat="48.78922" lon="1.96493">
        <ele>160.55</ele>
        <time>2018-01-07T09:44:56Z</time>
      </trkpt>
      <trkpt lat="48.78915" lon="1.96492">
        <ele>159.96</ele>
        <time>2018-01-07T09:45:03Z</time>
      </trkpt>
      <trkpt lat="48.78913" lon="1.96491">
        <ele>159.82</ele>
        <time>2018-01-07T09:45:05Z</time>
      </trkpt>
      <trkpt lat="48.78909" lon="1.96488">
        <ele>159.52</ele>
        <time>2018-01-07T09:45:12Z</time>
      </trkpt>
      <trkpt lat="48.78903" lon="1.96485">
        <ele>159.06</ele>
        <time>2018-01-07T09:45:18Z</time>
      </trkpt>
      <trkpt lat="48.78894" lon="1.96476">
        <ele>158.63</ele>
        <time>2018-01-07T09:45:30Z</time>
      </trkpt>
      <trkpt lat="48.78892" lon="1.96471">
        <ele>159.79</ele>
        <time>2018-01-07T09:45:34Z</time>
      </trkpt>
      <trkpt lat="48.7889" lon="1.96468">
        <ele>158.88</ele>
        <time>2018-01-07T09:45:36Z</time>
      </trkpt>
      <trkpt lat="48.78885" lon="1.96458">
        <ele>157.91</ele>
        <time>2018-01-07T09:45:47Z</time>
      </trkpt>
      <trkpt lat="48.78886" lon="1.96457">
        <ele>157.95</ele>
        <time>2018-01-07T09:45:49Z</time>
      </trkpt>
      <trkpt lat="48.78887" lon="1.96453">
        <ele>158.78</ele>
        <time>2018-01-07T09:45:53Z</time>
      </trkpt>
      <trkpt lat="48.7889" lon="1.96437">
        <ele>159.62</ele>
        <time>2018-01-07T09:46:08Z</time>
      </trkpt>
      <trkpt lat="48.78895" lon="1.96424">
        <ele>157.6</ele>
        <time>2018-01-07T09:46:20Z</time>
      </trkpt>
      <trkpt lat="48.78894" lon="1.96419">
        <ele>159</ele>
        <time>2018-01-07T09:46:23Z</time>
      </trkpt>
      <trkpt lat="48.78899" lon="1.96397">
        <ele>157.29</ele>
        <time>2018-01-07T09:46:41Z</time>
      </trkpt>
      <trkpt lat="48.78905" lon="1.96368">
        <ele>157.88</ele>
        <time>2018-01-07T09:46:58Z</time>
      </trkpt>
      <trkpt lat="48.78906" lon="1.9636">
        <ele>158.58</ele>
        <time>2018-01-07T09:47:02Z</time>
      </trkpt>
      <trkpt lat="48.7891" lon="1.96341">
        <ele>158.45</ele>
        <time>2018-01-07T09:47:20Z</time>
      </trkpt>
      <trkpt lat="48.78913" lon="1.96331">
        <ele>158.65</ele>
        <time>2018-01-07T09:47:28Z</time>
      </trkpt>
      <trkpt lat="48.78918" lon="1.96311">
        <ele>158.15</ele>
        <time>2018-01-07T09:47:41Z</time>
      </trkpt>
      <trkpt lat="48.7892" lon="1.96288">
        <ele>157.26</ele>
        <time>2018-01-07T09:47:59Z</time>
      </trkpt>
      <trkpt lat="48.78925" lon="1.96265">
        <ele>157.41</ele>
        <time>2018-01-07T09:48:14Z</time>
      </trkpt>
      <trkpt lat="48.78925" lon="1.96259">
        <ele>158.42</ele>
        <time>2018-01-07T09:48:19Z</time>
      </trkpt>
      <trkpt lat="48.78931" lon="1.96244">
        <ele>156.86</ele>
        <time>2018-01-07T09:48:38Z</time>
      </trkpt>
      <trkpt lat="48.78932" lon="1.96238">
        <ele>157.13</ele>
        <time>2018-01-07T09:48:51Z</time>
      </trkpt>
      <trkpt lat="48.78935" lon="1.96221">
        <ele>156.58</ele>
        <time>2018-01-07T09:49:06Z</time>
      </trkpt>
      <trkpt lat="48.78942" lon="1.96196">
        <ele>155.86</ele>
        <time>2018-01-07T09:49:21Z</time>
      </trkpt>
      <trkpt lat="48.78945" lon="1.96185">
        <ele>155.8</ele>
        <time>2018-01-07T09:49:28Z</time>
      </trkpt>
      <trkpt lat="48.78948" lon="1.96163">
        <ele>155.22</ele>
        <time>2018-01-07T09:49:45Z</time>
      </trkpt>
      <trkpt lat="48.78954" lon="1.96145">
        <ele>154.73</ele>
        <time>2018-01-07T09:49:57Z</time>
      </trkpt>
      <trkpt lat="48.78954" lon="1.96141">
        <ele>155.56</ele>
        <time>2018-01-07T09:49:59Z</time>
      </trkpt>
      <trkpt lat="48.78955" lon="1.96123">
        <ele>154.8</ele>
        <time>2018-01-07T09:50:09Z</time>
      </trkpt>
      <trkpt lat="48.78962" lon="1.96096">
        <ele>154.89</ele>
        <time>2018-01-07T09:50:25Z</time>
      </trkpt>
      <trkpt lat="48.78977" lon="1.96069">
        <ele>154.8</ele>
        <time>2018-01-07T09:50:40Z</time>
      </trkpt>
      <trkpt lat="48.78984" lon="1.96041">
        <ele>154.09</ele>
        <time>2018-01-07T09:50:55Z</time>
      </trkpt>
      <trkpt lat="48.78989" lon="1.96032">
        <ele>154.31</ele>
        <time>2018-01-07T09:51:02Z</time>
      </trkpt>
      <trkpt lat="48.78994" lon="1.96027">
        <ele>154.92</ele>
        <time>2018-01-07T09:51:19Z</time>
      </trkpt>
      <trkpt lat="48.78993" lon="1.96026">
        <ele>155.1</ele>
        <time>2018-01-07T09:51:35Z</time>
      </trkpt>
      <trkpt lat="48.78992" lon="1.96024">
        <ele>153.91</ele>
        <time>2018-01-07T09:51:39Z</time>
      </trkpt>
      <trkpt lat="48.78989" lon="1.96015">
        <ele>154.57</ele>
        <time>2018-01-07T09:51:44Z</time>
      </trkpt>
      <trkpt lat="48.78991" lon="1.95999">
        <ele>155.38</ele>
        <time>2018-01-07T09:51:56Z</time>
      </trkpt>
      <trkpt lat="48.78987" lon="1.96017">
        <ele>154.82</ele>
        <time>2018-01-07T09:52:12Z</time>
      </trkpt>
      <trkpt lat="48.78988" lon="1.96016">
        <ele>154.66</ele>
        <time>2018-01-07T09:52:21Z</time>
      </trkpt>
      <trkpt lat="48.78989" lon="1.96006">
        <ele>154.11</ele>
        <time>2018-01-07T09:52:27Z</time>
      </trkpt>
      <trkpt lat="48.78986" lon="1.95995">
        <ele>154.03</ele>
        <time>2018-01-07T09:52:34Z</time>
      </trkpt>
      <trkpt lat="48.7898" lon="1.95987">
        <ele>153.65</ele>
        <time>2018-01-07T09:52:49Z</time>
      </trkpt>
      <trkpt lat="48.78968" lon="1.95982">
        <ele>152.16</ele>
        <time>2018-01-07T09:53:05Z</time>
      </trkpt>
      <trkpt lat="48.78952" lon="1.95977">
        <ele>152.62</ele>
        <time>2018-01-07T09:53:24Z</time>
      </trkpt>
      <trkpt lat="48.78951" lon="1.95977">
        <ele>152.62</ele>
        <time>2018-01-07T09:53:25Z</time>
      </trkpt>
      <trkpt lat="48.78945" lon="1.95973">
        <ele>151.26</ele>
        <time>2018-01-07T09:53:31Z</time>
      </trkpt>
      <trkpt lat="48.7893" lon="1.95967">
        <ele>149.46</ele>
        <time>2018-01-07T09:53:49Z</time>
      </trkpt>
      <trkpt lat="48.78916" lon="1.95955">
        <ele>148.63</ele>
        <time>2018-01-07T09:54:07Z</time>
      </trkpt>
      <trkpt lat="48.78912" lon="1.95945">
        <ele>146.16</ele>
        <time>2018-01-07T09:54:26Z</time>
      </trkpt>
      <trkpt lat="48.7891" lon="1.95936">
        <ele>143.02</ele>
        <time>2018-01-07T09:54:37Z</time>
      </trkpt>
      <trkpt lat="48.78905" lon="1.95929">
        <ele>139.85</ele>
        <time>2018-01-07T09:54:50Z</time>
      </trkpt>
      <trkpt lat="48.78899" lon="1.95919">
        <ele>136.67</ele>
        <time>2018-01-07T09:55:10Z</time>
      </trkpt>
      <trkpt lat="48.78893" lon="1.95919">
        <ele>137.12</ele>
        <time>2018-01-07T09:55:33Z</time>
      </trkpt>
      <trkpt lat="48.78891" lon="1.95919">
        <ele>135.33</ele>
        <time>2018-01-07T09:55:37Z</time>
      </trkpt>
      <trkpt lat="48.78884" lon="1.95925">
        <ele>132.02</ele>
        <time>2018-01-07T09:55:55Z</time>
      </trkpt>
      <trkpt lat="48.78876" lon="1.95926">
        <ele>130.22</ele>
        <time>2018-01-07T09:56:15Z</time>
      </trkpt>
      <trkpt lat="48.78865" lon="1.9593">
        <ele>126.84</ele>
        <time>2018-01-07T09:56:34Z</time>
      </trkpt>
      <trkpt lat="48.78856" lon="1.95931">
        <ele>124.56</ele>
        <time>2018-01-07T09:56:51Z</time>
      </trkpt>
      <trkpt lat="48.78848" lon="1.95928">
        <ele>122.48</ele>
        <time>2018-01-07T09:57:06Z</time>
      </trkpt>
      <trkpt lat="48.78841" lon="1.95928">
        <ele>121.02</ele>
        <time>2018-01-07T09:57:19Z</time>
      </trkpt>
      <trkpt lat="48.78832" lon="1.9593">
        <ele>117.89</ele>
        <time>2018-01-07T09:57:29Z</time>
      </trkpt>
      <trkpt lat="48.78828" lon="1.95931">
        <ele>117.95</ele>
        <time>2018-01-07T09:57:46Z</time>
      </trkpt>
      <trkpt lat="48.7882" lon="1.95931">
        <ele>114.62</ele>
        <time>2018-01-07T09:57:57Z</time>
      </trkpt>
      <trkpt lat="48.78806" lon="1.95927">
        <ele>111.27</ele>
        <time>2018-01-07T09:58:11Z</time>
      </trkpt>
      <trkpt lat="48.7879" lon="1.95924">
        <ele>108.94</ele>
        <time>2018-01-07T09:58:27Z</time>
      </trkpt>
      <trkpt lat="48.78782" lon="1.95924">
        <ele>109.38</ele>
        <time>2018-01-07T09:58:33Z</time>
      </trkpt>
      <trkpt lat="48.78768" lon="1.95924">
        <ele>107.74</ele>
        <time>2018-01-07T09:58:49Z</time>
      </trkpt>
      <trkpt lat="48.78763" lon="1.95923">
        <ele>108.55</ele>
        <time>2018-01-07T09:58:57Z</time>
      </trkpt>
      <trkpt lat="48.78751" lon="1.95914">
        <ele>107.35</ele>
        <time>2018-01-07T09:59:13Z</time>
      </trkpt>
      <trkpt lat="48.78749" lon="1.95912">
        <ele>106.48</ele>
        <time>2018-01-07T09:59:16Z</time>
      </trkpt>
      <trkpt lat="48.78745" lon="1.95906">
        <ele>107.29</ele>
        <time>2018-01-07T09:59:30Z</time>
      </trkpt>
      <trkpt lat="48.78741" lon="1.95899">
        <ele>106.82</ele>
        <time>2018-01-07T09:59:46Z</time>
      </trkpt>
      <trkpt lat="48.78738" lon="1.95898">
        <ele>105.92</ele>
        <time>2018-01-07T09:59:50Z</time>
      </trkpt>
      <trkpt lat="48.78727" lon="1.959">
        <ele>106.14</ele>
        <time>2018-01-07T09:59:59Z</time>
      </trkpt>
      <trkpt lat="48.78719" lon="1.95905">
        <ele>106.81</ele>
        <time>2018-01-07T10:00:12Z</time>
      </trkpt>
      <trkpt lat="48.78717" lon="1.95906">
        <ele>106.84</ele>
        <time>2018-01-07T10:00:14Z</time>
      </trkpt>
      <trkpt lat="48.78713" lon="1.95906">
        <ele>106.7</ele>
        <time>2018-01-07T10:00:18Z</time>
      </trkpt>
      <trkpt lat="48.7871" lon="1.95907">
        <ele>106.44</ele>
        <time>2018-01-07T10:00:20Z</time>
      </trkpt>
      <trkpt lat="48.78692" lon="1.95913">
        <ele>106.57</ele>
        <time>2018-01-07T10:00:36Z</time>
      </trkpt>
      <trkpt lat="48.78691" lon="1.95913">
        <ele>106.48</ele>
        <time>2018-01-07T10:00:37Z</time>
      </trkpt>
      <trkpt lat="48.78689" lon="1.95914">
        <ele>106.18</ele>
        <time>2018-01-07T10:00:39Z</time>
      </trkpt>
      <trkpt lat="48.78673" lon="1.95919">
        <ele>106.76</ele>
        <time>2018-01-07T10:00:54Z</time>
      </trkpt>
      <trkpt lat="48.78658" lon="1.95921">
        <ele>106.05</ele>
        <time>2018-01-07T10:01:11Z</time>
      </trkpt>
      <trkpt lat="48.78655" lon="1.95921">
        <ele>105.21</ele>
        <time>2018-01-07T10:01:15Z</time>
      </trkpt>
      <trkpt lat="48.78653" lon="1.95921">
        <ele>105.33</ele>
        <time>2018-01-07T10:01:17Z</time>
      </trkpt>
      <trkpt lat="48.78634" lon="1.95913">
        <ele>104.85</ele>
        <time>2018-01-07T10:01:34Z</time>
      </trkpt>
      <trkpt lat="48.7863" lon="1.95912">
        <ele>104.89</ele>
        <time>2018-01-07T10:01:40Z</time>
      </trkpt>
      <trkpt lat="48.78628" lon="1.95913">
        <ele>104.74</ele>
        <time>2018-01-07T10:01:42Z</time>
      </trkpt>
      <trkpt lat="48.78618" lon="1.95916">
        <ele>104.84</ele>
        <time>2018-01-07T10:01:58Z</time>
      </trkpt>
      <trkpt lat="48.78607" lon="1.95923">
        <ele>104.68</ele>
        <time>2018-01-07T10:02:16Z</time>
      </trkpt>
      <trkpt lat="48.78595" lon="1.95934">
        <ele>104.46</ele>
        <time>2018-01-07T10:02:35Z</time>
      </trkpt>
      <trkpt lat="48.78589" lon="1.9594">
        <ele>104.92</ele>
        <time>2018-01-07T10:02:42Z</time>
      </trkpt>
      <trkpt lat="48.78583" lon="1.95944">
        <ele>104.93</ele>
        <time>2018-01-07T10:02:47Z</time>
      </trkpt>
      <trkpt lat="48.78578" lon="1.95948">
        <ele>105.54</ele>
        <time>2018-01-07T10:02:52Z</time>
      </trkpt>
      <trkpt lat="48.78558" lon="1.9596">
        <ele>104.69</ele>
        <time>2018-01-07T10:03:09Z</time>
      </trkpt>
      <trkpt lat="48.78556" lon="1.95962">
        <ele>104.73</ele>
        <time>2018-01-07T10:03:11Z</time>
      </trkpt>
      <trkpt lat="48.78547" lon="1.95967">
        <ele>104.83</ele>
        <time>2018-01-07T10:03:18Z</time>
      </trkpt>
      <trkpt lat="48.78533" lon="1.95965">
        <ele>104.49</ele>
        <time>2018-01-07T10:03:32Z</time>
      </trkpt>
      <trkpt lat="48.78512" lon="1.95957">
        <ele>104.36</ele>
        <time>2018-01-07T10:03:48Z</time>
      </trkpt>
      <trkpt lat="48.78507" lon="1.95957">
        <ele>104.39</ele>
        <time>2018-01-07T10:03:53Z</time>
      </trkpt>
      <trkpt lat="48.78504" lon="1.95956">
        <ele>104.59</ele>
        <time>2018-01-07T10:03:56Z</time>
      </trkpt>
      <trkpt lat="48.78489" lon="1.95955">
        <ele>104.7</ele>
        <time>2018-01-07T10:04:10Z</time>
      </trkpt>
      <trkpt lat="48.78481" lon="1.9595">
        <ele>104.56</ele>
        <time>2018-01-07T10:04:19Z</time>
      </trkpt>
      <trkpt lat="48.78478" lon="1.9594">
        <ele>105.23</ele>
        <time>2018-01-07T10:04:26Z</time>
      </trkpt>
      <trkpt lat="48.78482" lon="1.95926">
        <ele>105.01</ele>
        <time>2018-01-07T10:04:40Z</time>
      </trkpt>
      <trkpt lat="48.78488" lon="1.9592">
        <ele>103.53</ele>
        <time>2018-01-07T10:05:04Z</time>
      </trkpt>
      <trkpt lat="48.78498" lon="1.95898">
        <ele>103.92</ele>
        <time>2018-01-07T10:05:19Z</time>
      </trkpt>
      <trkpt lat="48.78506" lon="1.95884">
        <ele>104.51</ele>
        <time>2018-01-07T10:05:29Z</time>
      </trkpt>
      <trkpt lat="48.78516" lon="1.9586">
        <ele>105.39</ele>
        <time>2018-01-07T10:05:44Z</time>
      </trkpt>
      <trkpt lat="48.78531" lon="1.9584">
        <ele>104.94</ele>
        <time>2018-01-07T10:05:59Z</time>
      </trkpt>
      <trkpt lat="48.78545" lon="1.95837">
        <ele>104.54</ele>
        <time>2018-01-07T10:06:14Z</time>
      </trkpt>
      <trkpt lat="48.7855" lon="1.95835">
        <ele>104.41</ele>
        <time>2018-01-07T10:06:20Z</time>
      </trkpt>
      <trkpt lat="48.78558" lon="1.95832">
        <ele>105.01</ele>
        <time>2018-01-07T10:06:28Z</time>
      </trkpt>
      <trkpt lat="48.7857" lon="1.95831">
        <ele>103.86</ele>
        <time>2018-01-07T10:06:41Z</time>
      </trkpt>
      <trkpt lat="48.78581" lon="1.95831">
        <ele>103.57</ele>
        <time>2018-01-07T10:06:50Z</time>
      </trkpt>
      <trkpt lat="48.78587" lon="1.95829">
        <ele>104.02</ele>
        <time>2018-01-07T10:06:55Z</time>
      </trkpt>
      <trkpt lat="48.78596" lon="1.95818">
        <ele>104.21</ele>
        <time>2018-01-07T10:07:04Z</time>
      </trkpt>
      <trkpt lat="48.78599" lon="1.95811">
        <ele>103.81</ele>
        <time>2018-01-07T10:07:08Z</time>
      </trkpt>
      <trkpt lat="48.78604" lon="1.95792">
        <ele>103.72</ele>
        <time>2018-01-07T10:07:22Z</time>
      </trkpt>
      <trkpt lat="48.7861" lon="1.9578">
        <ele>103.74</ele>
        <time>2018-01-07T10:07:31Z</time>
      </trkpt>
      <trkpt lat="48.78617" lon="1.95764">
        <ele>104.46</ele>
        <time>2018-01-07T10:07:43Z</time>
      </trkpt>
      <trkpt lat="48.78618" lon="1.95758">
        <ele>104.69</ele>
        <time>2018-01-07T10:08:00Z</time>
      </trkpt>
      <trkpt lat="48.78615" lon="1.95752">
        <ele>105.25</ele>
        <time>2018-01-07T10:08:25Z</time>
      </trkpt>
      <trkpt lat="48.78612" lon="1.95725">
        <ele>106.32</ele>
        <time>2018-01-07T10:08:43Z</time>
      </trkpt>
      <trkpt lat="48.7861" lon="1.95707">
        <ele>104.34</ele>
        <time>2018-01-07T10:09:01Z</time>
      </trkpt>
      <trkpt lat="48.78609" lon="1.95698">
        <ele>101</ele>
        <time>2018-01-07T10:09:11Z</time>
      </trkpt>
      <trkpt lat="48.7861" lon="1.95697">
        <ele>101.3</ele>
        <time>2018-01-07T10:09:12Z</time>
      </trkpt>
      <trkpt lat="48.78621" lon="1.95691">
        <ele>102.38</ele>
        <time>2018-01-07T10:09:29Z</time>
      </trkpt>
      <trkpt lat="48.78624" lon="1.95688">
        <ele>102.04</ele>
        <time>2018-01-07T10:09:38Z</time>
      </trkpt>
      <trkpt lat="48.78629" lon="1.95686">
        <ele>102.42</ele>
        <time>2018-01-07T10:09:57Z</time>
      </trkpt>
      <trkpt lat="48.78638" lon="1.95676">
        <ele>101.55</ele>
        <time>2018-01-07T10:10:07Z</time>
      </trkpt>
      <trkpt lat="48.78646" lon="1.95673">
        <ele>101.62</ele>
        <time>2018-01-07T10:10:23Z</time>
      </trkpt>
      <trkpt lat="48.78646" lon="1.95673">
        <ele>100.66</ele>
        <time>2018-01-07T10:10:29Z</time>
      </trkpt>
      <trkpt lat="48.78649" lon="1.95673">
        <ele>100.65</ele>
        <time>2018-01-07T10:10:43Z</time>
      </trkpt>
      <trkpt lat="48.78663" lon="1.95666">
        <ele>101.42</ele>
        <time>2018-01-07T10:10:59Z</time>
      </trkpt>
      <trkpt lat="48.78681" lon="1.95665">
        <ele>101.64</ele>
        <time>2018-01-07T10:11:17Z</time>
      </trkpt>
      <trkpt lat="48.78682" lon="1.95666">
        <ele>101.62</ele>
        <time>2018-01-07T10:11:35Z</time>
      </trkpt>
      <trkpt lat="48.78698" lon="1.95667">
        <ele>101.35</ele>
        <time>2018-01-07T10:11:50Z</time>
      </trkpt>
      <trkpt lat="48.78716" lon="1.95682">
        <ele>102.43</ele>
        <time>2018-01-07T10:12:08Z</time>
      </trkpt>
      <trkpt lat="48.78729" lon="1.95675">
        <ele>102.72</ele>
        <time>2018-01-07T10:12:22Z</time>
      </trkpt>
      <trkpt lat="48.78733" lon="1.95676">
        <ele>102.86</ele>
        <time>2018-01-07T10:12:42Z</time>
      </trkpt>
      <trkpt lat="48.78736" lon="1.95673">
        <ele>102.1</ele>
        <time>2018-01-07T10:13:02Z</time>
      </trkpt>
      <trkpt lat="48.78738" lon="1.95663">
        <ele>102.84</ele>
        <time>2018-01-07T10:13:21Z</time>
      </trkpt>
      <trkpt lat="48.78738" lon="1.95662">
        <ele>102.38</ele>
        <time>2018-01-07T10:13:52Z</time>
      </trkpt>
      <trkpt lat="48.78741" lon="1.95651">
        <ele>102.06</ele>
        <time>2018-01-07T10:14:10Z</time>
      </trkpt>
      <trkpt lat="48.78742" lon="1.9563">
        <ele>101.61</ele>
        <time>2018-01-07T10:14:26Z</time>
      </trkpt>
      <trkpt lat="48.78742" lon="1.95626">
        <ele>101.52</ele>
        <time>2018-01-07T10:14:28Z</time>
      </trkpt>
      <trkpt lat="48.78742" lon="1.95608">
        <ele>101.92</ele>
        <time>2018-01-07T10:14:38Z</time>
      </trkpt>
      <trkpt lat="48.78746" lon="1.95577">
        <ele>101.4</ele>
        <time>2018-01-07T10:14:56Z</time>
      </trkpt>
      <trkpt lat="48.78748" lon="1.95563">
        <ele>100.74</ele>
        <time>2018-01-07T10:15:03Z</time>
      </trkpt>
      <trkpt lat="48.78753" lon="1.95542">
        <ele>100.84</ele>
        <time>2018-01-07T10:15:16Z</time>
      </trkpt>
      <trkpt lat="48.7876" lon="1.95519">
        <ele>100.43</ele>
        <time>2018-01-07T10:15:30Z</time>
      </trkpt>
      <trkpt lat="48.78766" lon="1.95504">
        <ele>100.61</ele>
        <time>2018-01-07T10:15:41Z</time>
      </trkpt>
      <trkpt lat="48.78773" lon="1.95489">
        <ele>99.82</ele>
        <time>2018-01-07T10:15:51Z</time>
      </trkpt>
      <trkpt lat="48.78779" lon="1.95478">
        <ele>100.4</ele>
        <time>2018-01-07T10:16:00Z</time>
      </trkpt>
      <trkpt lat="48.78782" lon="1.9547">
        <ele>100.64</ele>
        <time>2018-01-07T10:16:05Z</time>
      </trkpt>
      <trkpt lat="48.78781" lon="1.95448">
        <ele>100.55</ele>
        <time>2018-01-07T10:16:19Z</time>
      </trkpt>
      <trkpt lat="48.78778" lon="1.95442">
        <ele>100.07</ele>
        <time>2018-01-07T10:16:24Z</time>
      </trkpt>
      <trkpt lat="48.78768" lon="1.95431">
        <ele>100</ele>
        <time>2018-01-07T10:16:37Z</time>
      </trkpt>
      <trkpt lat="48.78752" lon="1.95418">
        <ele>99.51</ele>
        <time>2018-01-07T10:16:56Z</time>
      </trkpt>
      <trkpt lat="48.78737" lon="1.95399">
        <ele>98.66</ele>
        <time>2018-01-07T10:17:09Z</time>
      </trkpt>
      <trkpt lat="48.78719" lon="1.95385">
        <ele>97.78</ele>
        <time>2018-01-07T10:17:26Z</time>
      </trkpt>
      <trkpt lat="48.78716" lon="1.95382">
        <ele>97.95</ele>
        <time>2018-01-07T10:17:29Z</time>
      </trkpt>
      <trkpt lat="48.78707" lon="1.9537">
        <ele>97.25</ele>
        <time>2018-01-07T10:17:43Z</time>
      </trkpt>
      <trkpt lat="48.78705" lon="1.95366">
        <ele>97.19</ele>
        <time>2018-01-07T10:17:45Z</time>
      </trkpt>
      <trkpt lat="48.78695" lon="1.95352">
        <ele>96.6</ele>
        <time>2018-01-07T10:17:58Z</time>
      </trkpt>
      <trkpt lat="48.78685" lon="1.95332">
        <ele>95.28</ele>
        <time>2018-01-07T10:18:14Z</time>
      </trkpt>
      <trkpt lat="48.78675" lon="1.95308">
        <ele>96.45</ele>
        <time>2018-01-07T10:18:31Z</time>
      </trkpt>
      <trkpt lat="48.78683" lon="1.95291">
        <ele>96.63</ele>
        <time>2018-01-07T10:18:45Z</time>
      </trkpt>
      <trkpt lat="48.7869" lon="1.9527">
        <ele>96.79</ele>
        <time>2018-01-07T10:19:00Z</time>
      </trkpt>
      <trkpt lat="48.78701" lon="1.95251">
        <ele>97.97</ele>
        <time>2018-01-07T10:19:14Z</time>
      </trkpt>
      <trkpt lat="48.78708" lon="1.95235">
        <ele>97.04</ele>
        <time>2018-01-07T10:19:27Z</time>
      </trkpt>
      <trkpt lat="48.78715" lon="1.95224">
        <ele>96.7</ele>
        <time>2018-01-07T10:19:41Z</time>
      </trkpt>
      <trkpt lat="48.78717" lon="1.9522">
        <ele>96.13</ele>
        <time>2018-01-07T10:19:46Z</time>
      </trkpt>
      <trkpt lat="48.78722" lon="1.95216">
        <ele>96.02</ele>
        <time>2018-01-07T10:19:52Z</time>
      </trkpt>
      <trkpt lat="48.78725" lon="1.95213">
        <ele>96.33</ele>
        <time>2018-01-07T10:19:55Z</time>
      </trkpt>
      <trkpt lat="48.78739" lon="1.95193">
        <ele>96.18</ele>
        <time>2018-01-07T10:20:10Z</time>
      </trkpt>
      <trkpt lat="48.78742" lon="1.95189">
        <ele>95.91</ele>
        <time>2018-01-07T10:20:32Z</time>
      </trkpt>
      <trkpt lat="48.78741" lon="1.95191">
        <ele>96.63</ele>
        <time>2018-01-07T10:20:51Z</time>
      </trkpt>
      <trkpt lat="48.78739" lon="1.95191">
        <ele>95.65</ele>
        <time>2018-01-07T10:21:13Z</time>
      </trkpt>
      <trkpt lat="48.78746" lon="1.95177">
        <ele>97.1</ele>
        <time>2018-01-07T10:21:29Z</time>
      </trkpt>
      <trkpt lat="48.78758" lon="1.95157">
        <ele>95.8</ele>
        <time>2018-01-07T10:21:44Z</time>
      </trkpt>
      <trkpt lat="48.78767" lon="1.95139">
        <ele>95.78</ele>
        <time>2018-01-07T10:21:59Z</time>
      </trkpt>
      <trkpt lat="48.78774" lon="1.95124">
        <ele>96.11</ele>
        <time>2018-01-07T10:22:10Z</time>
      </trkpt>
      <trkpt lat="48.78776" lon="1.95121">
        <ele>96.14</ele>
        <time>2018-01-07T10:22:15Z</time>
      </trkpt>
      <trkpt lat="48.78777" lon="1.95119">
        <ele>95.61</ele>
        <time>2018-01-07T10:22:17Z</time>
      </trkpt>
      <trkpt lat="48.78781" lon="1.95111">
        <ele>95.72</ele>
        <time>2018-01-07T10:22:23Z</time>
      </trkpt>
      <trkpt lat="48.78784" lon="1.95107">
        <ele>95.54</ele>
        <time>2018-01-07T10:22:27Z</time>
      </trkpt>
      <trkpt lat="48.78794" lon="1.95088">
        <ele>95.35</ele>
        <time>2018-01-07T10:22:41Z</time>
      </trkpt>
      <trkpt lat="48.78804" lon="1.95071">
        <ele>94.69</ele>
        <time>2018-01-07T10:22:55Z</time>
      </trkpt>
      <trkpt lat="48.7881" lon="1.95058">
        <ele>94.08</ele>
        <time>2018-01-07T10:23:08Z</time>
      </trkpt>
      <trkpt lat="48.78818" lon="1.95052">
        <ele>92.65</ele>
        <time>2018-01-07T10:23:16Z</time>
      </trkpt>
      <trkpt lat="48.78834" lon="1.9506">
        <ele>92.55</ele>
        <time>2018-01-07T10:23:32Z</time>
      </trkpt>
      <trkpt lat="48.78849" lon="1.95068">
        <ele>93.38</ele>
        <time>2018-01-07T10:23:45Z</time>
      </trkpt>
      <trkpt lat="48.78868" lon="1.95082">
        <ele>91.26</ele>
        <time>2018-01-07T10:24:03Z</time>
      </trkpt>
      <trkpt lat="48.78874" lon="1.95085">
        <ele>91.12</ele>
        <time>2018-01-07T10:24:09Z</time>
      </trkpt>
      <trkpt lat="48.7889" lon="1.95094">
        <ele>92.53</ele>
        <time>2018-01-07T10:24:24Z</time>
      </trkpt>
      <trkpt lat="48.78903" lon="1.951">
        <ele>93.2</ele>
        <time>2018-01-07T10:24:41Z</time>
      </trkpt>
      <trkpt lat="48.78923" lon="1.95116">
        <ele>95.56</ele>
        <time>2018-01-07T10:25:00Z</time>
      </trkpt>
      <trkpt lat="48.78929" lon="1.95129">
        <ele>97.47</ele>
        <time>2018-01-07T10:25:17Z</time>
      </trkpt>
      <trkpt lat="48.7893" lon="1.9513">
        <ele>96.53</ele>
        <time>2018-01-07T10:25:40Z</time>
      </trkpt>
      <trkpt lat="48.78937" lon="1.95119">
        <ele>95.91</ele>
        <time>2018-01-07T10:25:57Z</time>
      </trkpt>
      <trkpt lat="48.78949" lon="1.95124">
        <ele>98.6</ele>
        <time>2018-01-07T10:26:15Z</time>
      </trkpt>
      <trkpt lat="48.78957" lon="1.95117">
        <ele>98.64</ele>
        <time>2018-01-07T10:26:36Z</time>
      </trkpt>
      <trkpt lat="48.78968" lon="1.95102">
        <ele>97.72</ele>
        <time>2018-01-07T10:26:54Z</time>
      </trkpt>
      <trkpt lat="48.78978" lon="1.95085">
        <ele>97.56</ele>
        <time>2018-01-07T10:27:13Z</time>
      </trkpt>
      <trkpt lat="48.78991" lon="1.95053">
        <ele>97.25</ele>
        <time>2018-01-07T10:27:35Z</time>
      </trkpt>
      <trkpt lat="48.79" lon="1.95031">
        <ele>96.47</ele>
        <time>2018-01-07T10:27:52Z</time>
      </trkpt>
      <trkpt lat="48.79008" lon="1.95014">
        <ele>96.48</ele>
        <time>2018-01-07T10:28:05Z</time>
      </trkpt>
      <trkpt lat="48.79017" lon="1.94987">
        <ele>96.47</ele>
        <time>2018-01-07T10:28:22Z</time>
      </trkpt>
      <trkpt lat="48.79027" lon="1.94969">
        <ele>96.02</ele>
        <time>2018-01-07T10:28:43Z</time>
      </trkpt>
      <trkpt lat="48.79037" lon="1.9495">
        <ele>96.23</ele>
        <time>2018-01-07T10:29:06Z</time>
      </trkpt>
      <trkpt lat="48.79041" lon="1.94939">
        <ele>95.78</ele>
        <time>2018-01-07T10:29:18Z</time>
      </trkpt>
      <trkpt lat="48.79041" lon="1.94926">
        <ele>96.05</ele>
        <time>2018-01-07T10:29:29Z</time>
      </trkpt>
      <trkpt lat="48.79039" lon="1.94912">
        <ele>95.16</ele>
        <time>2018-01-07T10:29:49Z</time>
      </trkpt>
      <trkpt lat="48.79035" lon="1.94904">
        <ele>95.12</ele>
        <time>2018-01-07T10:30:17Z</time>
      </trkpt>
      <trkpt lat="48.7903" lon="1.94887">
        <ele>95.18</ele>
        <time>2018-01-07T10:30:33Z</time>
      </trkpt>
      <trkpt lat="48.79023" lon="1.94868">
        <ele>94.32</ele>
        <time>2018-01-07T10:30:52Z</time>
      </trkpt>
      <trkpt lat="48.79024" lon="1.94842">
        <ele>94.85</ele>
        <time>2018-01-07T10:31:10Z</time>
      </trkpt>
      <trkpt lat="48.79024" lon="1.94815">
        <ele>94.72</ele>
        <time>2018-01-07T10:31:27Z</time>
      </trkpt>
      <trkpt lat="48.79025" lon="1.94785">
        <ele>94.31</ele>
        <time>2018-01-07T10:31:47Z</time>
      </trkpt>
      <trkpt lat="48.79021" lon="1.94777">
        <ele>94.12</ele>
        <time>2018-01-07T10:32:14Z</time>
      </trkpt>
      <trkpt lat="48.79024" lon="1.94757">
        <ele>93.98</ele>
        <time>2018-01-07T10:32:32Z</time>
      </trkpt>
      <trkpt lat="48.79032" lon="1.94724">
        <ele>94.82</ele>
        <time>2018-01-07T10:32:49Z</time>
      </trkpt>
      <trkpt lat="48.79038" lon="1.94696">
        <ele>94.28</ele>
        <time>2018-01-07T10:33:04Z</time>
      </trkpt>
      <trkpt lat="48.79041" lon="1.94671">
        <ele>93.73</ele>
        <time>2018-01-07T10:33:20Z</time>
      </trkpt>
      <trkpt lat="48.79054" lon="1.94643">
        <ele>93.49</ele>
        <time>2018-01-07T10:33:40Z</time>
      </trkpt>
      <trkpt lat="48.79068" lon="1.9462">
        <ele>94.1</ele>
        <time>2018-01-07T10:34:00Z</time>
      </trkpt>
      <trkpt lat="48.79081" lon="1.94603">
        <ele>93.4</ele>
        <time>2018-01-07T10:34:18Z</time>
      </trkpt>
      <trkpt lat="48.79096" lon="1.94577">
        <ele>93.46</ele>
        <time>2018-01-07T10:34:35Z</time>
      </trkpt>
      <trkpt lat="48.79103" lon="1.94541">
        <ele>93.63</ele>
        <time>2018-01-07T10:34:52Z</time>
      </trkpt>
      <trkpt lat="48.79101" lon="1.94516">
        <ele>93.69</ele>
        <time>2018-01-07T10:35:10Z</time>
      </trkpt>
      <trkpt lat="48.79101" lon="1.94492">
        <ele>92.43</ele>
        <time>2018-01-07T10:35:25Z</time>
      </trkpt>
      <trkpt lat="48.79103" lon="1.94464">
        <ele>92.09</ele>
        <time>2018-01-07T10:35:44Z</time>
      </trkpt>
      <trkpt lat="48.79104" lon="1.94434">
        <ele>90.46</ele>
        <time>2018-01-07T10:36:04Z</time>
      </trkpt>
      <trkpt lat="48.7911" lon="1.94399">
        <ele>91.13</ele>
        <time>2018-01-07T10:36:22Z</time>
      </trkpt>
      <trkpt lat="48.79112" lon="1.94369">
        <ele>90.53</ele>
        <time>2018-01-07T10:36:36Z</time>
      </trkpt>
      <trkpt lat="48.79119" lon="1.94341">
        <ele>91.36</ele>
        <time>2018-01-07T10:36:55Z</time>
      </trkpt>
      <trkpt lat="48.79119" lon="1.94338">
        <ele>91.34</ele>
        <time>2018-01-07T10:36:56Z</time>
      </trkpt>
      <trkpt lat="48.79124" lon="1.94315">
        <ele>89.92</ele>
        <time>2018-01-07T10:37:08Z</time>
      </trkpt>
      <trkpt lat="48.79128" lon="1.94304">
        <ele>89.1</ele>
        <time>2018-01-07T10:37:23Z</time>
      </trkpt>
      <trkpt lat="48.79134" lon="1.94282">
        <ele>89.8</ele>
        <time>2018-01-07T10:37:42Z</time>
      </trkpt>
      <trkpt lat="48.79142" lon="1.94266">
        <ele>90.36</ele>
        <time>2018-01-07T10:37:58Z</time>
      </trkpt>
      <trkpt lat="48.79145" lon="1.94258">
        <ele>89.09</ele>
        <time>2018-01-07T10:38:06Z</time>
      </trkpt>
      <trkpt lat="48.79147" lon="1.94245">
        <ele>89.76</ele>
        <time>2018-01-07T10:38:28Z</time>
      </trkpt>
      <trkpt lat="48.79149" lon="1.9423">
        <ele>89.46</ele>
        <time>2018-01-07T10:38:47Z</time>
      </trkpt>
      <trkpt lat="48.79153" lon="1.9421">
        <ele>89.08</ele>
        <time>2018-01-07T10:39:05Z</time>
      </trkpt>
      <trkpt lat="48.79156" lon="1.94202">
        <ele>88.65</ele>
        <time>2018-01-07T10:39:28Z</time>
      </trkpt>
      <trkpt lat="48.79157" lon="1.9419">
        <ele>89.09</ele>
        <time>2018-01-07T10:39:49Z</time>
      </trkpt>
      <trkpt lat="48.79167" lon="1.94162">
        <ele>88.24</ele>
        <time>2018-01-07T10:40:11Z</time>
      </trkpt>
      <trkpt lat="48.79172" lon="1.94153">
        <ele>87.93</ele>
        <time>2018-01-07T10:40:19Z</time>
      </trkpt>
      <trkpt lat="48.79173" lon="1.94135">
        <ele>87.36</ele>
        <time>2018-01-07T10:40:31Z</time>
      </trkpt>
      <trkpt lat="48.7917" lon="1.94101">
        <ele>87.55</ele>
        <time>2018-01-07T10:40:48Z</time>
      </trkpt>
      <trkpt lat="48.79163" lon="1.9407">
        <ele>87.82</ele>
        <time>2018-01-07T10:41:07Z</time>
      </trkpt>
      <trkpt lat="48.79158" lon="1.94046">
        <ele>86.35</ele>
        <time>2018-01-07T10:41:26Z</time>
      </trkpt>
      <trkpt lat="48.79158" lon="1.94003">
        <ele>85.46</ele>
        <time>2018-01-07T10:41:46Z</time>
      </trkpt>
      <trkpt lat="48.79162" lon="1.93983">
        <ele>84.41</ele>
        <time>2018-01-07T10:42:01Z</time>
      </trkpt>
      <trkpt lat="48.79167" lon="1.93961">
        <ele>85.77</ele>
        <time>2018-01-07T10:42:18Z</time>
      </trkpt>
      <trkpt lat="48.7917" lon="1.93934">
        <ele>82.73</ele>
        <time>2018-01-07T10:42:34Z</time>
      </trkpt>
      <trkpt lat="48.79173" lon="1.93895">
        <ele>83.44</ele>
        <time>2018-01-07T10:42:51Z</time>
      </trkpt>
      <trkpt lat="48.79173" lon="1.9389">
        <ele>83.8</ele>
        <time>2018-01-07T10:42:54Z</time>
      </trkpt>
      <trkpt lat="48.79172" lon="1.93886">
        <ele>83.22</ele>
        <time>2018-01-07T10:42:57Z</time>
      </trkpt>
      <trkpt lat="48.79172" lon="1.93881">
        <ele>83.67</ele>
        <time>2018-01-07T10:43:00Z</time>
      </trkpt>
      <trkpt lat="48.79171" lon="1.93876">
        <ele>82.89</ele>
        <time>2018-01-07T10:43:04Z</time>
      </trkpt>
      <trkpt lat="48.79166" lon="1.93871">
        <ele>82.44</ele>
        <time>2018-01-07T10:43:32Z</time>
      </trkpt>
      <trkpt lat="48.79166" lon="1.93857">
        <ele>83.74</ele>
        <time>2018-01-07T10:50:49Z</time>
      </trkpt>
      <trkpt lat="48.79167" lon="1.93851">
        <ele>83.04</ele>
        <time>2018-01-07T10:50:54Z</time>
      </trkpt>
      <trkpt lat="48.79172" lon="1.93832">
        <ele>83.07</ele>
        <time>2018-01-07T10:51:13Z</time>
      </trkpt>
      <trkpt lat="48.7917" lon="1.93812">
        <ele>83.54</ele>
        <time>2018-01-07T10:51:29Z</time>
      </trkpt>
      <trkpt lat="48.79168" lon="1.93792">
        <ele>84.15</ele>
        <time>2018-01-07T10:51:50Z</time>
      </trkpt>
      <trkpt lat="48.7917" lon="1.93759">
        <ele>85.2</ele>
        <time>2018-01-07T10:52:08Z</time>
      </trkpt>
      <trkpt lat="48.79174" lon="1.93749">
        <ele>83.16</ele>
        <time>2018-01-07T10:52:15Z</time>
      </trkpt>
      <trkpt lat="48.79184" lon="1.93721">
        <ele>83.05</ele>
        <time>2018-01-07T10:52:36Z</time>
      </trkpt>
      <trkpt lat="48.7919" lon="1.93689">
        <ele>82.36</ele>
        <time>2018-01-07T10:52:55Z</time>
      </trkpt>
      <trkpt lat="48.79195" lon="1.93655">
        <ele>82.06</ele>
        <time>2018-01-07T10:53:15Z</time>
      </trkpt>
      <trkpt lat="48.792" lon="1.93626">
        <ele>82.44</ele>
        <time>2018-01-07T10:53:35Z</time>
      </trkpt>
      <trkpt lat="48.79207" lon="1.93587">
        <ele>81.39</ele>
        <time>2018-01-07T10:53:57Z</time>
      </trkpt>
      <trkpt lat="48.79211" lon="1.93554">
        <ele>80.35</ele>
        <time>2018-01-07T10:54:16Z</time>
      </trkpt>
      <trkpt lat="48.79213" lon="1.93523">
        <ele>79.47</ele>
        <time>2018-01-07T10:54:33Z</time>
      </trkpt>
      <trkpt lat="48.79219" lon="1.93493">
        <ele>78.99</ele>
        <time>2018-01-07T10:54:51Z</time>
      </trkpt>
      <trkpt lat="48.79218" lon="1.93456">
        <ele>80.34</ele>
        <time>2018-01-07T10:55:09Z</time>
      </trkpt>
      <trkpt lat="48.79217" lon="1.93451">
        <ele>80.39</ele>
        <time>2018-01-07T10:55:11Z</time>
      </trkpt>
      <trkpt lat="48.79218" lon="1.93423">
        <ele>78.96</ele>
        <time>2018-01-07T10:55:26Z</time>
      </trkpt>
      <trkpt lat="48.7922" lon="1.93413">
        <ele>80.01</ele>
        <time>2018-01-07T10:55:35Z</time>
      </trkpt>
      <trkpt lat="48.79226" lon="1.93384">
        <ele>78.79</ele>
        <time>2018-01-07T10:55:56Z</time>
      </trkpt>
      <trkpt lat="48.79236" lon="1.93354">
        <ele>78.77</ele>
        <time>2018-01-07T10:56:18Z</time>
      </trkpt>
      <trkpt lat="48.79243" lon="1.93331">
        <ele>78.06</ele>
        <time>2018-01-07T10:56:36Z</time>
      </trkpt>
      <trkpt lat="48.79248" lon="1.93308">
        <ele>77.7</ele>
        <time>2018-01-07T10:56:53Z</time>
      </trkpt>
      <trkpt lat="48.79259" lon="1.93284">
        <ele>75.77</ele>
        <time>2018-01-07T10:57:13Z</time>
      </trkpt>
      <trkpt lat="48.79271" lon="1.93251">
        <ele>76.04</ele>
        <time>2018-01-07T10:57:32Z</time>
      </trkpt>
      <trkpt lat="48.79284" lon="1.93229">
        <ele>75</ele>
        <time>2018-01-07T10:57:49Z</time>
      </trkpt>
      <trkpt lat="48.79285" lon="1.93225">
        <ele>74.72</ele>
        <time>2018-01-07T10:57:52Z</time>
      </trkpt>
      <trkpt lat="48.79284" lon="1.93216">
        <ele>73.79</ele>
        <time>2018-01-07T10:58:18Z</time>
      </trkpt>
      <trkpt lat="48.79286" lon="1.93215">
        <ele>74.72</ele>
        <time>2018-01-07T10:58:47Z</time>
      </trkpt>
      <trkpt lat="48.79289" lon="1.9321">
        <ele>73.68</ele>
        <time>2018-01-07T10:59:08Z</time>
      </trkpt>
      <trkpt lat="48.79287" lon="1.932">
        <ele>73.47</ele>
        <time>2018-01-07T10:59:30Z</time>
      </trkpt>
      <trkpt lat="48.79287" lon="1.93191">
        <ele>73.47</ele>
        <time>2018-01-07T10:59:51Z</time>
      </trkpt>
      <trkpt lat="48.79282" lon="1.93194">
        <ele>73.77</ele>
        <time>2018-01-07T11:00:18Z</time>
      </trkpt>
      <trkpt lat="48.79285" lon="1.93184">
        <ele>74.45</ele>
        <time>2018-01-07T11:00:37Z</time>
      </trkpt>
      <trkpt lat="48.79287" lon="1.93181">
        <ele>73.26</ele>
        <time>2018-01-07T11:00:41Z</time>
      </trkpt>
      <trkpt lat="48.79294" lon="1.9315">
        <ele>75.12</ele>
        <time>2018-01-07T11:01:01Z</time>
      </trkpt>
      <trkpt lat="48.79297" lon="1.93123">
        <ele>75.76</ele>
        <time>2018-01-07T11:01:20Z</time>
      </trkpt>
      <trkpt lat="48.79299" lon="1.93105">
        <ele>75.82</ele>
        <time>2018-01-07T11:01:27Z</time>
      </trkpt>
      <trkpt lat="48.79297" lon="1.93086">
        <ele>75.4</ele>
        <time>2018-01-07T11:01:42Z</time>
      </trkpt>
      <trkpt lat="48.79299" lon="1.93079">
        <ele>74.7</ele>
        <time>2018-01-07T11:01:47Z</time>
      </trkpt>
      <trkpt lat="48.79302" lon="1.93057">
        <ele>74.53</ele>
        <time>2018-01-07T11:02:07Z</time>
      </trkpt>
      <trkpt lat="48.79299" lon="1.93029">
        <ele>74.34</ele>
        <time>2018-01-07T11:02:25Z</time>
      </trkpt>
      <trkpt lat="48.79304" lon="1.93008">
        <ele>74.07</ele>
        <time>2018-01-07T11:02:44Z</time>
      </trkpt>
      <trkpt lat="48.79314" lon="1.92987">
        <ele>73.93</ele>
        <time>2018-01-07T11:03:05Z</time>
      </trkpt>
      <trkpt lat="48.79324" lon="1.92962">
        <ele>72.96</ele>
        <time>2018-01-07T11:03:25Z</time>
      </trkpt>
      <trkpt lat="48.79333" lon="1.92943">
        <ele>74.91</ele>
        <time>2018-01-07T11:03:43Z</time>
      </trkpt>
      <trkpt lat="48.79346" lon="1.92939">
        <ele>77.45</ele>
        <time>2018-01-07T11:04:07Z</time>
      </trkpt>
      <trkpt lat="48.7936" lon="1.92945">
        <ele>78.59</ele>
        <time>2018-01-07T11:04:30Z</time>
      </trkpt>
      <trkpt lat="48.79372" lon="1.92942">
        <ele>81.92</ele>
        <time>2018-01-07T11:04:48Z</time>
      </trkpt>
      <trkpt lat="48.79377" lon="1.92938">
        <ele>82.95</ele>
        <time>2018-01-07T11:04:55Z</time>
      </trkpt>
      <trkpt lat="48.79385" lon="1.92934">
        <ele>82.92</ele>
        <time>2018-01-07T11:05:14Z</time>
      </trkpt>
      <trkpt lat="48.79386" lon="1.9294">
        <ele>82.35</ele>
        <time>2018-01-07T11:05:42Z</time>
      </trkpt>
      <trkpt lat="48.79386" lon="1.92938">
        <ele>83.08</ele>
        <time>2018-01-07T11:06:07Z</time>
      </trkpt>
      <trkpt lat="48.79385" lon="1.92935">
        <ele>82.98</ele>
        <time>2018-01-07T11:06:34Z</time>
      </trkpt>
      <trkpt lat="48.79388" lon="1.92925">
        <ele>82.8</ele>
        <time>2018-01-07T11:06:53Z</time>
      </trkpt>
      <trkpt lat="48.7939" lon="1.92903">
        <ele>81.23</ele>
        <time>2018-01-07T11:07:12Z</time>
      </trkpt>
      <trkpt lat="48.7939" lon="1.9288">
        <ele>78.79</ele>
        <time>2018-01-07T11:07:29Z</time>
      </trkpt>
      <trkpt lat="48.7939" lon="1.92868">
        <ele>78.42</ele>
        <time>2018-01-07T11:07:34Z</time>
      </trkpt>
      <trkpt lat="48.79398" lon="1.92841">
        <ele>79.4</ele>
        <time>2018-01-07T11:07:51Z</time>
      </trkpt>
      <trkpt lat="48.79403" lon="1.92825">
        <ele>78.91</ele>
        <time>2018-01-07T11:08:04Z</time>
      </trkpt>
      <trkpt lat="48.79405" lon="1.92818">
        <ele>79.39</ele>
        <time>2018-01-07T11:08:07Z</time>
      </trkpt>
      <trkpt lat="48.79413" lon="1.92796">
        <ele>79.88</ele>
        <time>2018-01-07T11:08:22Z</time>
      </trkpt>
      <trkpt lat="48.79418" lon="1.92774">
        <ele>79.32</ele>
        <time>2018-01-07T11:08:36Z</time>
      </trkpt>
      <trkpt lat="48.79427" lon="1.92745">
        <ele>80.76</ele>
        <time>2018-01-07T11:08:55Z</time>
      </trkpt>
      <trkpt lat="48.79432" lon="1.92716">
        <ele>82.26</ele>
        <time>2018-01-07T11:09:12Z</time>
      </trkpt>
      <trkpt lat="48.79435" lon="1.92691">
        <ele>83.38</ele>
        <time>2018-01-07T11:09:26Z</time>
      </trkpt>
      <trkpt lat="48.7944" lon="1.92671">
        <ele>85.85</ele>
        <time>2018-01-07T11:09:43Z</time>
      </trkpt>
      <trkpt lat="48.79439" lon="1.92649">
        <ele>89.27</ele>
        <time>2018-01-07T11:10:01Z</time>
      </trkpt>
      <trkpt lat="48.7944" lon="1.92634">
        <ele>90.58</ele>
        <time>2018-01-07T11:10:19Z</time>
      </trkpt>
      <trkpt lat="48.7944" lon="1.92604">
        <ele>92.44</ele>
        <time>2018-01-07T11:10:40Z</time>
      </trkpt>
      <trkpt lat="48.79437" lon="1.92582">
        <ele>95.59</ele>
        <time>2018-01-07T11:10:53Z</time>
      </trkpt>
      <trkpt lat="48.79437" lon="1.92562">
        <ele>95.27</ele>
        <time>2018-01-07T11:11:05Z</time>
      </trkpt>
      <trkpt lat="48.79437" lon="1.92552">
        <ele>95.94</ele>
        <time>2018-01-07T11:11:12Z</time>
      </trkpt>
      <trkpt lat="48.7944" lon="1.92531">
        <ele>93.8</ele>
        <time>2018-01-07T11:11:33Z</time>
      </trkpt>
      <trkpt lat="48.79445" lon="1.92518">
        <ele>93.7</ele>
        <time>2018-01-07T11:11:48Z</time>
      </trkpt>
      <trkpt lat="48.79455" lon="1.92503">
        <ele>92.19</ele>
        <time>2018-01-07T11:12:09Z</time>
      </trkpt>
      <trkpt lat="48.79462" lon="1.92484">
        <ele>89.11</ele>
        <time>2018-01-07T11:12:23Z</time>
      </trkpt>
      <trkpt lat="48.79455" lon="1.92473">
        <ele>86.95</ele>
        <time>2018-01-07T11:12:40Z</time>
      </trkpt>
      <trkpt lat="48.79452" lon="1.92467">
        <ele>85.85</ele>
        <time>2018-01-07T11:12:48Z</time>
      </trkpt>
      <trkpt lat="48.7944" lon="1.92454">
        <ele>82.59</ele>
        <time>2018-01-07T11:13:04Z</time>
      </trkpt>
      <trkpt lat="48.79428" lon="1.92436">
        <ele>79.38</ele>
        <time>2018-01-07T11:13:19Z</time>
      </trkpt>
      <trkpt lat="48.79423" lon="1.92427">
        <ele>78.24</ele>
        <time>2018-01-07T11:13:34Z</time>
      </trkpt>
      <trkpt lat="48.79422" lon="1.92423">
        <ele>77.22</ele>
        <time>2018-01-07T11:13:37Z</time>
      </trkpt>
      <trkpt lat="48.79422" lon="1.92415">
        <ele>76.76</ele>
        <time>2018-01-07T11:13:41Z</time>
      </trkpt>
      <trkpt lat="48.79421" lon="1.92399">
        <ele>76.01</ele>
        <time>2018-01-07T11:13:52Z</time>
      </trkpt>
      <trkpt lat="48.79418" lon="1.92373">
        <ele>75.05</ele>
        <time>2018-01-07T11:14:08Z</time>
      </trkpt>
      <trkpt lat="48.79412" lon="1.92348">
        <ele>75.12</ele>
        <time>2018-01-07T11:14:24Z</time>
      </trkpt>
      <trkpt lat="48.79401" lon="1.92327">
        <ele>75.61</ele>
        <time>2018-01-07T11:14:39Z</time>
      </trkpt>
      <trkpt lat="48.79387" lon="1.92307">
        <ele>75.58</ele>
        <time>2018-01-07T11:14:59Z</time>
      </trkpt>
      <trkpt lat="48.79379" lon="1.92279">
        <ele>75.48</ele>
        <time>2018-01-07T11:15:19Z</time>
      </trkpt>
      <trkpt lat="48.79377" lon="1.92242">
        <ele>75.02</ele>
        <time>2018-01-07T11:15:40Z</time>
      </trkpt>
      <trkpt lat="48.79378" lon="1.92227">
        <ele>75.68</ele>
        <time>2018-01-07T11:15:48Z</time>
      </trkpt>
      <trkpt lat="48.79382" lon="1.922">
        <ele>74.72</ele>
        <time>2018-01-07T11:16:05Z</time>
      </trkpt>
      <trkpt lat="48.79386" lon="1.92168">
        <ele>74.48</ele>
        <time>2018-01-07T11:16:23Z</time>
      </trkpt>
      <trkpt lat="48.79388" lon="1.92159">
        <ele>74.05</ele>
        <time>2018-01-07T11:16:27Z</time>
      </trkpt>
      <trkpt lat="48.79385" lon="1.92133">
        <ele>73.23</ele>
        <time>2018-01-07T11:16:41Z</time>
      </trkpt>
      <trkpt lat="48.79387" lon="1.92101">
        <ele>71.34</ele>
        <time>2018-01-07T11:16:58Z</time>
      </trkpt>
      <trkpt lat="48.79387" lon="1.92099">
        <ele>71.86</ele>
        <time>2018-01-07T11:17:20Z</time>
      </trkpt>
      <trkpt lat="48.79386" lon="1.92099">
        <ele>71.71</ele>
        <time>2018-01-07T11:17:39Z</time>
      </trkpt>
      <trkpt lat="48.79382" lon="1.921">
        <ele>71.31</ele>
        <time>2018-01-07T11:17:50Z</time>
      </trkpt>
      <trkpt lat="48.79365" lon="1.921">
        <ele>69.22</ele>
        <time>2018-01-07T11:18:07Z</time>
      </trkpt>
      <trkpt lat="48.79345" lon="1.92097">
        <ele>66.21</ele>
        <time>2018-01-07T11:18:25Z</time>
      </trkpt>
      <trkpt lat="48.79341" lon="1.92093">
        <ele>65.52</ele>
        <time>2018-01-07T11:18:30Z</time>
      </trkpt>
      <trkpt lat="48.79334" lon="1.92093">
        <ele>64.68</ele>
        <time>2018-01-07T11:18:36Z</time>
      </trkpt>
      <trkpt lat="48.79313" lon="1.92091">
        <ele>62.36</ele>
        <time>2018-01-07T11:18:53Z</time>
      </trkpt>
      <trkpt lat="48.79305" lon="1.9209">
        <ele>60.55</ele>
        <time>2018-01-07T11:19:01Z</time>
      </trkpt>
      <trkpt lat="48.793" lon="1.92089">
        <ele>61.38</ele>
        <time>2018-01-07T11:19:09Z</time>
      </trkpt>
      <trkpt lat="48.79278" lon="1.92085">
        <ele>59.56</ele>
        <time>2018-01-07T11:19:27Z</time>
      </trkpt>
      <trkpt lat="48.79274" lon="1.92084">
        <ele>59.63</ele>
        <time>2018-01-07T11:19:31Z</time>
      </trkpt>
      <trkpt lat="48.79263" lon="1.92081">
        <ele>60.1</ele>
        <time>2018-01-07T11:19:47Z</time>
      </trkpt>
      <trkpt lat="48.79261" lon="1.92078">
        <ele>60.15</ele>
        <time>2018-01-07T11:19:50Z</time>
      </trkpt>
      <trkpt lat="48.79259" lon="1.92072">
        <ele>59.7</ele>
        <time>2018-01-07T11:19:54Z</time>
      </trkpt>
      <trkpt lat="48.79261" lon="1.92045">
        <ele>59.91</ele>
        <time>2018-01-07T11:20:13Z</time>
      </trkpt>
      <trkpt lat="48.79261" lon="1.92044">
        <ele>58.72</ele>
        <time>2018-01-07T11:20:15Z</time>
      </trkpt>
      <trkpt lat="48.79265" lon="1.92021">
        <ele>59.47</ele>
        <time>2018-01-07T11:20:30Z</time>
      </trkpt>
      <trkpt lat="48.79272" lon="1.91999">
        <ele>59.8</ele>
        <time>2018-01-07T11:20:44Z</time>
      </trkpt>
      <trkpt lat="48.79274" lon="1.91995">
        <ele>59.62</ele>
        <time>2018-01-07T11:20:46Z</time>
      </trkpt>
      <trkpt lat="48.79278" lon="1.91963">
        <ele>61.09</ele>
        <time>2018-01-07T11:21:06Z</time>
      </trkpt>
      <trkpt lat="48.7928" lon="1.91947">
        <ele>59.86</ele>
        <time>2018-01-07T11:21:16Z</time>
      </trkpt>
      <trkpt lat="48.79284" lon="1.91917">
        <ele>60.34</ele>
        <time>2018-01-07T11:21:32Z</time>
      </trkpt>
      <trkpt lat="48.79286" lon="1.91887">
        <ele>60.59</ele>
        <time>2018-01-07T11:21:50Z</time>
      </trkpt>
      <trkpt lat="48.79291" lon="1.91859">
        <ele>60.83</ele>
        <time>2018-01-07T11:22:07Z</time>
      </trkpt>
      <trkpt lat="48.79299" lon="1.91826">
        <ele>60.48</ele>
        <time>2018-01-07T11:22:25Z</time>
      </trkpt>
      <trkpt lat="48.79304" lon="1.91795">
        <ele>60.45</ele>
        <time>2018-01-07T11:22:42Z</time>
      </trkpt>
      <trkpt lat="48.7931" lon="1.91763">
        <ele>60.29</ele>
        <time>2018-01-07T11:23:00Z</time>
      </trkpt>
      <trkpt lat="48.79315" lon="1.91735">
        <ele>59.47</ele>
        <time>2018-01-07T11:23:15Z</time>
      </trkpt>
      <trkpt lat="48.79319" lon="1.91708">
        <ele>59.65</ele>
        <time>2018-01-07T11:23:29Z</time>
      </trkpt>
      <trkpt lat="48.79324" lon="1.9168">
        <ele>60.2</ele>
        <time>2018-01-07T11:23:46Z</time>
      </trkpt>
      <trkpt lat="48.79325" lon="1.91649">
        <ele>59.2</ele>
        <time>2018-01-07T11:24:03Z</time>
      </trkpt>
      <trkpt lat="48.79325" lon="1.91622">
        <ele>59.87</ele>
        <time>2018-01-07T11:24:19Z</time>
      </trkpt>
      <trkpt lat="48.79322" lon="1.91584">
        <ele>59.81</ele>
        <time>2018-01-07T11:24:39Z</time>
      </trkpt>
      <trkpt lat="48.79317" lon="1.91546">
        <ele>59.31</ele>
        <time>2018-01-07T11:24:59Z</time>
      </trkpt>
      <trkpt lat="48.79313" lon="1.91517">
        <ele>59.64</ele>
        <time>2018-01-07T11:25:14Z</time>
      </trkpt>
      <trkpt lat="48.79306" lon="1.91487">
        <ele>58.19</ele>
        <time>2018-01-07T11:25:31Z</time>
      </trkpt>
      <trkpt lat="48.79304" lon="1.91462">
        <ele>57.83</ele>
        <time>2018-01-07T11:25:45Z</time>
      </trkpt>
      <trkpt lat="48.79303" lon="1.91435">
        <ele>57.62</ele>
        <time>2018-01-07T11:26:00Z</time>
      </trkpt>
      <trkpt lat="48.79302" lon="1.91414">
        <ele>57.72</ele>
        <time>2018-01-07T11:26:12Z</time>
      </trkpt>
      <trkpt lat="48.79299" lon="1.91376">
        <ele>58.1</ele>
        <time>2018-01-07T11:26:30Z</time>
      </trkpt>
      <trkpt lat="48.79297" lon="1.91361">
        <ele>56.98</ele>
        <time>2018-01-07T11:26:45Z</time>
      </trkpt>
      <trkpt lat="48.79299" lon="1.91358">
        <ele>57.54</ele>
        <time>2018-01-07T11:26:59Z</time>
      </trkpt>
      <trkpt lat="48.79299" lon="1.91351">
        <ele>58.09</ele>
        <time>2018-01-07T11:27:20Z</time>
      </trkpt>
      <trkpt lat="48.79297" lon="1.91346">
        <ele>57.7</ele>
        <time>2018-01-07T11:27:41Z</time>
      </trkpt>
      <trkpt lat="48.79299" lon="1.91336">
        <ele>57.49</ele>
        <time>2018-01-07T11:28:06Z</time>
      </trkpt>
      <trkpt lat="48.79305" lon="1.91313">
        <ele>58.22</ele>
        <time>2018-01-07T11:28:27Z</time>
      </trkpt>
      <trkpt lat="48.79307" lon="1.91309">
        <ele>57.87</ele>
        <time>2018-01-07T11:28:30Z</time>
      </trkpt>
      <trkpt lat="48.79313" lon="1.91284">
        <ele>57.86</ele>
        <time>2018-01-07T11:28:46Z</time>
      </trkpt>
      <trkpt lat="48.79324" lon="1.91247">
        <ele>57.96</ele>
        <time>2018-01-07T11:29:10Z</time>
      </trkpt>
      <trkpt lat="48.79329" lon="1.91207">
        <ele>57.19</ele>
        <time>2018-01-07T11:29:33Z</time>
      </trkpt>
      <trkpt lat="48.79333" lon="1.91171">
        <ele>56.48</ele>
        <time>2018-01-07T11:29:52Z</time>
      </trkpt>
      <trkpt lat="48.79339" lon="1.9115">
        <ele>56.27</ele>
        <time>2018-01-07T11:30:02Z</time>
      </trkpt>
      <trkpt lat="48.79352" lon="1.91131">
        <ele>56.17</ele>
        <time>2018-01-07T11:30:19Z</time>
      </trkpt>
      <trkpt lat="48.7936" lon="1.91122">
        <ele>57.16</ele>
        <time>2018-01-07T11:30:40Z</time>
      </trkpt>
      <trkpt lat="48.79378" lon="1.91106">
        <ele>57.03</ele>
        <time>2018-01-07T11:30:59Z</time>
      </trkpt>
      <trkpt lat="48.79387" lon="1.91102">
        <ele>56.19</ele>
        <time>2018-01-07T11:31:14Z</time>
      </trkpt>
      <trkpt lat="48.79392" lon="1.91095">
        <ele>56.25</ele>
        <time>2018-01-07T11:31:23Z</time>
      </trkpt>
      <trkpt lat="48.79397" lon="1.91085">
        <ele>56.95</ele>
        <time>2018-01-07T11:31:37Z</time>
      </trkpt>
      <trkpt lat="48.79403" lon="1.91073">
        <ele>56.76</ele>
        <time>2018-01-07T11:31:52Z</time>
      </trkpt>
      <trkpt lat="48.79407" lon="1.91072">
        <ele>57.45</ele>
        <time>2018-01-07T11:31:55Z</time>
      </trkpt>
      <trkpt lat="48.79427" lon="1.91066">
        <ele>56.98</ele>
        <time>2018-01-07T11:32:11Z</time>
      </trkpt>
      <trkpt lat="48.79431" lon="1.91063">
        <ele>57.42</ele>
        <time>2018-01-07T11:32:15Z</time>
      </trkpt>
      <trkpt lat="48.79437" lon="1.91055">
        <ele>57.64</ele>
        <time>2018-01-07T11:32:22Z</time>
      </trkpt>
      <trkpt lat="48.79441" lon="1.91024">
        <ele>58.32</ele>
        <time>2018-01-07T11:32:42Z</time>
      </trkpt>
      <trkpt lat="48.79441" lon="1.91017">
        <ele>58.25</ele>
        <time>2018-01-07T11:32:47Z</time>
      </trkpt>
      <trkpt lat="48.7944" lon="1.91002">
        <ele>57.71</ele>
        <time>2018-01-07T11:33:00Z</time>
      </trkpt>
      <trkpt lat="48.79438" lon="1.90997">
        <ele>57.85</ele>
        <time>2018-01-07T11:33:04Z</time>
      </trkpt>
      <trkpt lat="48.79431" lon="1.90969">
        <ele>56.65</ele>
        <time>2018-01-07T11:33:20Z</time>
      </trkpt>
      <trkpt lat="48.79431" lon="1.90967">
        <ele>56.67</ele>
        <time>2018-01-07T11:33:21Z</time>
      </trkpt>
      <trkpt lat="48.79425" lon="1.90949">
        <ele>55.74</ele>
        <time>2018-01-07T11:33:31Z</time>
      </trkpt>
      <trkpt lat="48.79416" lon="1.90922">
        <ele>57.06</ele>
        <time>2018-01-07T11:33:47Z</time>
      </trkpt>
      <trkpt lat="48.79412" lon="1.90897">
        <ele>56.2</ele>
        <time>2018-01-07T11:34:03Z</time>
      </trkpt>
      <trkpt lat="48.79414" lon="1.90878">
        <ele>56.94</ele>
        <time>2018-01-07T11:34:18Z</time>
      </trkpt>
      <trkpt lat="48.79413" lon="1.90875">
        <ele>57.05</ele>
        <time>2018-01-07T11:34:36Z</time>
      </trkpt>
      <trkpt lat="48.79409" lon="1.90868">
        <ele>57.05</ele>
        <time>2018-01-07T11:34:56Z</time>
      </trkpt>
      <trkpt lat="48.79406" lon="1.90843">
        <ele>57.89</ele>
        <time>2018-01-07T11:35:12Z</time>
      </trkpt>
      <trkpt lat="48.79404" lon="1.90843">
        <ele>57.71</ele>
        <time>2018-01-07T11:35:26Z</time>
      </trkpt>
      <trkpt lat="48.79403" lon="1.90841">
        <ele>56.86</ele>
        <time>2018-01-07T11:35:38Z</time>
      </trkpt>
      <trkpt lat="48.794" lon="1.90835">
        <ele>56.84</ele>
        <time>2018-01-07T11:35:43Z</time>
      </trkpt>
      <trkpt lat="48.79395" lon="1.9083">
        <ele>56.99</ele>
        <time>2018-01-07T11:35:51Z</time>
      </trkpt>
      <trkpt lat="48.79392" lon="1.90828">
        <ele>56.91</ele>
        <time>2018-01-07T11:35:54Z</time>
      </trkpt>
      <trkpt lat="48.79377" lon="1.90816">
        <ele>57.92</ele>
        <time>2018-01-07T11:36:10Z</time>
      </trkpt>
      <trkpt lat="48.79367" lon="1.9081">
        <ele>57.65</ele>
        <time>2018-01-07T11:36:21Z</time>
      </trkpt>
      <trkpt lat="48.79362" lon="1.90808">
        <ele>58.18</ele>
        <time>2018-01-07T11:36:25Z</time>
      </trkpt>
      <trkpt lat="48.79348" lon="1.90794">
        <ele>58.23</ele>
        <time>2018-01-07T11:36:39Z</time>
      </trkpt>
      <trkpt lat="48.79346" lon="1.90794">
        <ele>58.24</ele>
        <time>2018-01-07T11:36:41Z</time>
      </trkpt>
      <trkpt lat="48.79334" lon="1.90783">
        <ele>59.57</ele>
        <time>2018-01-07T11:36:56Z</time>
      </trkpt>
      <trkpt lat="48.79325" lon="1.90778">
        <ele>59.57</ele>
        <time>2018-01-07T11:37:12Z</time>
      </trkpt>
      <trkpt lat="48.79315" lon="1.90771">
        <ele>60.39</ele>
        <time>2018-01-07T11:37:27Z</time>
      </trkpt>
      <trkpt lat="48.79312" lon="1.90767">
        <ele>61.22</ele>
        <time>2018-01-07T11:37:37Z</time>
      </trkpt>
      <trkpt lat="48.79297" lon="1.90755">
        <ele>60.66</ele>
        <time>2018-01-07T11:37:51Z</time>
      </trkpt>
      <trkpt lat="48.79296" lon="1.90755">
        <ele>60.56</ele>
        <time>2018-01-07T11:37:52Z</time>
      </trkpt>
      <trkpt lat="48.7928" lon="1.90741">
        <ele>62.09</ele>
        <time>2018-01-07T11:38:07Z</time>
      </trkpt>
      <trkpt lat="48.79271" lon="1.90735">
        <ele>62.17</ele>
        <time>2018-01-07T11:38:16Z</time>
      </trkpt>
      <trkpt lat="48.79254" lon="1.90724">
        <ele>62.52</ele>
        <time>2018-01-07T11:38:32Z</time>
      </trkpt>
      <trkpt lat="48.7925" lon="1.90719">
        <ele>62.83</ele>
        <time>2018-01-07T11:38:38Z</time>
      </trkpt>
      <trkpt lat="48.79243" lon="1.90715">
        <ele>62.91</ele>
        <time>2018-01-07T11:38:44Z</time>
      </trkpt>
      <trkpt lat="48.79238" lon="1.9071">
        <ele>63.33</ele>
        <time>2018-01-07T11:38:49Z</time>
      </trkpt>
      <trkpt lat="48.79223" lon="1.90698">
        <ele>63.94</ele>
        <time>2018-01-07T11:39:03Z</time>
      </trkpt>
      <trkpt lat="48.79214" lon="1.9069">
        <ele>64.28</ele>
        <time>2018-01-07T11:39:12Z</time>
      </trkpt>
      <trkpt lat="48.79197" lon="1.90676">
        <ele>65.32</ele>
        <time>2018-01-07T11:39:29Z</time>
      </trkpt>
      <trkpt lat="48.79187" lon="1.90668">
        <ele>65.91</ele>
        <time>2018-01-07T11:39:40Z</time>
      </trkpt>
      <trkpt lat="48.79167" lon="1.90654">
        <ele>67</ele>
        <time>2018-01-07T11:39:59Z</time>
      </trkpt>
      <trkpt lat="48.7915" lon="1.90641">
        <ele>68.04</ele>
        <time>2018-01-07T11:40:16Z</time>
      </trkpt>
      <trkpt lat="48.79132" lon="1.90628">
        <ele>68.72</ele>
        <time>2018-01-07T11:40:32Z</time>
      </trkpt>
      <trkpt lat="48.79114" lon="1.90615">
        <ele>69.93</ele>
        <time>2018-01-07T11:40:50Z</time>
      </trkpt>
      <trkpt lat="48.79099" lon="1.90604">
        <ele>70.68</ele>
        <time>2018-01-07T11:41:05Z</time>
      </trkpt>
      <trkpt lat="48.7908" lon="1.90593">
        <ele>71.98</ele>
        <time>2018-01-07T11:41:22Z</time>
      </trkpt>
      <trkpt lat="48.79068" lon="1.90583">
        <ele>73.14</ele>
        <time>2018-01-07T11:41:35Z</time>
      </trkpt>
      <trkpt lat="48.79058" lon="1.90574">
        <ele>73.2</ele>
        <time>2018-01-07T11:41:46Z</time>
      </trkpt>
      <trkpt lat="48.7904" lon="1.9056">
        <ele>74.44</ele>
        <time>2018-01-07T11:42:04Z</time>
      </trkpt>
      <trkpt lat="48.79026" lon="1.9055">
        <ele>75.35</ele>
        <time>2018-01-07T11:42:19Z</time>
      </trkpt>
      <trkpt lat="48.79025" lon="1.90549">
        <ele>75.03</ele>
        <time>2018-01-07T11:42:20Z</time>
      </trkpt>
      <trkpt lat="48.79021" lon="1.90545">
        <ele>75.37</ele>
        <time>2018-01-07T11:42:24Z</time>
      </trkpt>
      <trkpt lat="48.79003" lon="1.90532">
        <ele>76.59</ele>
        <time>2018-01-07T11:42:41Z</time>
      </trkpt>
      <trkpt lat="48.78991" lon="1.90524">
        <ele>78.38</ele>
        <time>2018-01-07T11:42:54Z</time>
      </trkpt>
      <trkpt lat="48.78987" lon="1.90517">
        <ele>77.49</ele>
        <time>2018-01-07T11:43:12Z</time>
      </trkpt>
      <trkpt lat="48.78988" lon="1.90508">
        <ele>77.9</ele>
        <time>2018-01-07T11:43:19Z</time>
      </trkpt>
      <trkpt lat="48.78994" lon="1.90476">
        <ele>77.67</ele>
        <time>2018-01-07T11:43:39Z</time>
      </trkpt>
      <trkpt lat="48.78999" lon="1.90456">
        <ele>78.31</ele>
        <time>2018-01-07T11:43:55Z</time>
      </trkpt>
      <trkpt lat="48.79008" lon="1.9043">
        <ele>78.11</ele>
        <time>2018-01-07T11:44:12Z</time>
      </trkpt>
      <trkpt lat="48.79011" lon="1.90425">
        <ele>78.42</ele>
        <time>2018-01-07T11:44:16Z</time>
      </trkpt>
      <trkpt lat="48.79018" lon="1.90397">
        <ele>78.71</ele>
        <time>2018-01-07T11:44:35Z</time>
      </trkpt>
      <trkpt lat="48.7902" lon="1.90392">
        <ele>78.81</ele>
        <time>2018-01-07T11:44:51Z</time>
      </trkpt>
      <trkpt lat="48.79021" lon="1.90389">
        <ele>79.07</ele>
        <time>2018-01-07T11:44:54Z</time>
      </trkpt>
      <trkpt lat="48.79022" lon="1.90386">
        <ele>79.43</ele>
        <time>2018-01-07T11:44:56Z</time>
      </trkpt>
      <trkpt lat="48.79032" lon="1.90354">
        <ele>78.96</ele>
        <time>2018-01-07T11:45:16Z</time>
      </trkpt>
      <trkpt lat="48.79037" lon="1.90334">
        <ele>79.1</ele>
        <time>2018-01-07T11:45:29Z</time>
      </trkpt>
      <trkpt lat="48.79047" lon="1.90306">
        <ele>78.79</ele>
        <time>2018-01-07T11:45:48Z</time>
      </trkpt>
      <trkpt lat="48.79055" lon="1.90277">
        <ele>79.39</ele>
        <time>2018-01-07T11:46:06Z</time>
      </trkpt>
      <trkpt lat="48.79056" lon="1.90271">
        <ele>79.01</ele>
        <time>2018-01-07T11:46:10Z</time>
      </trkpt>
      <trkpt lat="48.79066" lon="1.90245">
        <ele>79.51</ele>
        <time>2018-01-07T11:46:26Z</time>
      </trkpt>
      <trkpt lat="48.79069" lon="1.9023">
        <ele>80.6</ele>
        <time>2018-01-07T11:46:37Z</time>
      </trkpt>
      <trkpt lat="48.7907" lon="1.90226">
        <ele>79.91</ele>
        <time>2018-01-07T11:46:41Z</time>
      </trkpt>
      <trkpt lat="48.79078" lon="1.90199">
        <ele>79.56</ele>
        <time>2018-01-07T11:46:58Z</time>
      </trkpt>
      <trkpt lat="48.79086" lon="1.90169">
        <ele>79.32</ele>
        <time>2018-01-07T11:47:16Z</time>
      </trkpt>
      <trkpt lat="48.79093" lon="1.90141">
        <ele>78.18</ele>
        <time>2018-01-07T11:47:32Z</time>
      </trkpt>
      <trkpt lat="48.79096" lon="1.90125">
        <ele>78.27</ele>
        <time>2018-01-07T11:47:46Z</time>
      </trkpt>
      <trkpt lat="48.79099" lon="1.90119">
        <ele>78.99</ele>
        <time>2018-01-07T11:47:59Z</time>
      </trkpt>
      <trkpt lat="48.791" lon="1.90113">
        <ele>78.37</ele>
        <time>2018-01-07T11:48:03Z</time>
      </trkpt>
      <trkpt lat="48.79101" lon="1.9011">
        <ele>78.28</ele>
        <time>2018-01-07T11:48:06Z</time>
      </trkpt>
      <trkpt lat="48.79103" lon="1.901">
        <ele>79.02</ele>
        <time>2018-01-07T11:48:12Z</time>
      </trkpt>
      <trkpt lat="48.79112" lon="1.90075">
        <ele>78.33</ele>
        <time>2018-01-07T11:48:27Z</time>
      </trkpt>
      <trkpt lat="48.79121" lon="1.90044">
        <ele>79.62</ele>
        <time>2018-01-07T11:48:46Z</time>
      </trkpt>
      <trkpt lat="48.79129" lon="1.90015">
        <ele>78.65</ele>
        <time>2018-01-07T11:49:03Z</time>
      </trkpt>
      <trkpt lat="48.79135" lon="1.89987">
        <ele>78.12</ele>
        <time>2018-01-07T11:49:22Z</time>
      </trkpt>
      <trkpt lat="48.79133" lon="1.89984">
        <ele>77.63</ele>
        <time>2018-01-07T11:49:41Z</time>
      </trkpt>
      <trkpt lat="48.79133" lon="1.89984">
        <ele>78.61</ele>
        <time>2018-01-07T11:50:04Z</time>
      </trkpt>
      <trkpt lat="48.79125" lon="1.89982">
        <ele>78.49</ele>
        <time>2018-01-07T11:50:22Z</time>
      </trkpt>
      <trkpt lat="48.7912" lon="1.89983">
        <ele>78.26</ele>
        <time>2018-01-07T11:50:28Z</time>
      </trkpt>
      <trkpt lat="48.79106" lon="1.89982">
        <ele>79.36</ele>
        <time>2018-01-07T11:50:40Z</time>
      </trkpt>
      <trkpt lat="48.791" lon="1.89983">
        <ele>79.97</ele>
        <time>2018-01-07T11:50:46Z</time>
      </trkpt>
      <trkpt lat="48.79084" lon="1.89983">
        <ele>80.85</ele>
        <time>2018-01-07T11:51:01Z</time>
      </trkpt>
      <trkpt lat="48.79081" lon="1.89983">
        <ele>81.61</ele>
        <time>2018-01-07T11:51:04Z</time>
      </trkpt>
      <trkpt lat="48.79076" lon="1.89983">
        <ele>81.8</ele>
        <time>2018-01-07T11:51:09Z</time>
      </trkpt>
      <trkpt lat="48.79073" lon="1.89983">
        <ele>81.11</ele>
        <time>2018-01-07T11:51:11Z</time>
      </trkpt>
      <trkpt lat="48.79053" lon="1.89984">
        <ele>82.16</ele>
        <time>2018-01-07T11:51:30Z</time>
      </trkpt>
      <trkpt lat="48.79048" lon="1.89983">
        <ele>82.48</ele>
        <time>2018-01-07T11:51:34Z</time>
      </trkpt>
      <trkpt lat="48.79041" lon="1.89984">
        <ele>83.1</ele>
        <time>2018-01-07T11:51:41Z</time>
      </trkpt>
      <trkpt lat="48.79034" lon="1.89984">
        <ele>83.29</ele>
        <time>2018-01-07T11:51:46Z</time>
      </trkpt>
      <trkpt lat="48.79017" lon="1.89984">
        <ele>83.79</ele>
        <time>2018-01-07T11:52:01Z</time>
      </trkpt>
      <trkpt lat="48.79007" lon="1.89984">
        <ele>84.44</ele>
        <time>2018-01-07T11:52:10Z</time>
      </trkpt>
      <trkpt lat="48.78988" lon="1.89986">
        <ele>85.35</ele>
        <time>2018-01-07T11:52:26Z</time>
      </trkpt>
      <trkpt lat="48.78974" lon="1.89988">
        <ele>85.69</ele>
        <time>2018-01-07T11:52:40Z</time>
      </trkpt>
      <trkpt lat="48.78972" lon="1.89987">
        <ele>85.04</ele>
        <time>2018-01-07T11:52:43Z</time>
      </trkpt>
      <trkpt lat="48.78966" lon="1.89987">
        <ele>84.99</ele>
        <time>2018-01-07T11:52:48Z</time>
      </trkpt>
      <trkpt lat="48.78947" lon="1.89987">
        <ele>86.01</ele>
        <time>2018-01-07T11:53:06Z</time>
      </trkpt>
      <trkpt lat="48.78934" lon="1.89993">
        <ele>87.13</ele>
        <time>2018-01-07T11:53:20Z</time>
      </trkpt>
      <trkpt lat="48.78932" lon="1.8999">
        <ele>87.31</ele>
        <time>2018-01-07T11:53:43Z</time>
      </trkpt>
      <trkpt lat="48.78931" lon="1.8999">
        <ele>86.4</ele>
        <time>2018-01-07T11:53:52Z</time>
      </trkpt>
      <trkpt lat="48.78928" lon="1.89991">
        <ele>87.76</ele>
        <time>2018-01-07T11:53:54Z</time>
      </trkpt>
      <trkpt lat="48.78921" lon="1.89996">
        <ele>86.94</ele>
        <time>2018-01-07T11:54:09Z</time>
      </trkpt>
      <trkpt lat="48.7892" lon="1.89995">
        <ele>87.41</ele>
        <time>2018-01-07T11:54:12Z</time>
      </trkpt>
      <trkpt lat="48.78917" lon="1.89995">
        <ele>87.23</ele>
        <time>2018-01-07T11:54:15Z</time>
      </trkpt>
      <trkpt lat="48.78904" lon="1.89991">
        <ele>88.82</ele>
        <time>2018-01-07T11:54:30Z</time>
      </trkpt>
      <trkpt lat="48.7889" lon="1.8998">
        <ele>88.63</ele>
        <time>2018-01-07T11:54:47Z</time>
      </trkpt>
      <trkpt lat="48.78886" lon="1.8998">
        <ele>88.08</ele>
        <time>2018-01-07T11:55:01Z</time>
      </trkpt>
      <trkpt lat="48.78886" lon="1.89977">
        <ele>88.13</ele>
        <time>2018-01-07T11:55:13Z</time>
      </trkpt>
      <trkpt lat="48.78886" lon="1.89972">
        <ele>88.19</ele>
        <time>2018-01-07T11:55:33Z</time>
      </trkpt>
      <trkpt lat="48.78902" lon="1.89961">
        <ele>90.55</ele>
        <time>2018-01-07T12:18:13Z</time>
      </trkpt>
      <trkpt lat="48.78894" lon="1.89973">
        <ele>90.01</ele>
        <time>2018-01-07T12:23:02Z</time>
      </trkpt>
      <trkpt lat="48.78897" lon="1.89981">
        <ele>89.93</ele>
        <time>2018-01-07T12:23:13Z</time>
      </trkpt>
      <trkpt lat="48.78899" lon="1.89984">
        <ele>90.15</ele>
        <time>2018-01-07T12:23:16Z</time>
      </trkpt>
      <trkpt lat="48.78913" lon="1.89995">
        <ele>89.13</ele>
        <time>2018-01-07T12:23:31Z</time>
      </trkpt>
      <trkpt lat="48.78921" lon="1.90002">
        <ele>89.44</ele>
        <time>2018-01-07T12:23:48Z</time>
      </trkpt>
      <trkpt lat="48.7892" lon="1.90007">
        <ele>87.86</ele>
        <time>2018-01-07T12:23:55Z</time>
      </trkpt>
      <trkpt lat="48.78916" lon="1.90032">
        <ele>88.77</ele>
        <time>2018-01-07T12:24:10Z</time>
      </trkpt>
      <trkpt lat="48.78914" lon="1.90047">
        <ele>87.88</ele>
        <time>2018-01-07T12:24:18Z</time>
      </trkpt>
      <trkpt lat="48.78914" lon="1.9005">
        <ele>89.23</ele>
        <time>2018-01-07T12:24:20Z</time>
      </trkpt>
      <trkpt lat="48.78907" lon="1.90076">
        <ele>90.52</ele>
        <time>2018-01-07T12:24:36Z</time>
      </trkpt>
      <trkpt lat="48.78906" lon="1.90081">
        <ele>89.01</ele>
        <time>2018-01-07T12:24:39Z</time>
      </trkpt>
      <trkpt lat="48.78904" lon="1.90088">
        <ele>88.98</ele>
        <time>2018-01-07T12:24:44Z</time>
      </trkpt>
      <trkpt lat="48.78897" lon="1.901">
        <ele>89.63</ele>
        <time>2018-01-07T12:24:57Z</time>
      </trkpt>
      <trkpt lat="48.78895" lon="1.90104">
        <ele>90.08</ele>
        <time>2018-01-07T12:25:00Z</time>
      </trkpt>
      <trkpt lat="48.78885" lon="1.90127">
        <ele>90.03</ele>
        <time>2018-01-07T12:25:15Z</time>
      </trkpt>
      <trkpt lat="48.78875" lon="1.90157">
        <ele>90.99</ele>
        <time>2018-01-07T12:25:33Z</time>
      </trkpt>
      <trkpt lat="48.78873" lon="1.90169">
        <ele>91.19</ele>
        <time>2018-01-07T12:25:40Z</time>
      </trkpt>
      <trkpt lat="48.78871" lon="1.90178">
        <ele>91.46</ele>
        <time>2018-01-07T12:25:46Z</time>
      </trkpt>
      <trkpt lat="48.78869" lon="1.90183">
        <ele>91.45</ele>
        <time>2018-01-07T12:25:49Z</time>
      </trkpt>
      <trkpt lat="48.78868" lon="1.90184">
        <ele>91.47</ele>
        <time>2018-01-07T12:25:51Z</time>
      </trkpt>
      <trkpt lat="48.78856" lon="1.90179">
        <ele>91.54</ele>
        <time>2018-01-07T12:26:07Z</time>
      </trkpt>
      <trkpt lat="48.78853" lon="1.90177">
        <ele>91.92</ele>
        <time>2018-01-07T12:26:11Z</time>
      </trkpt>
      <trkpt lat="48.78848" lon="1.90174">
        <ele>91.53</ele>
        <time>2018-01-07T12:26:17Z</time>
      </trkpt>
      <trkpt lat="48.78846" lon="1.90172">
        <ele>91.29</ele>
        <time>2018-01-07T12:26:19Z</time>
      </trkpt>
      <trkpt lat="48.78845" lon="1.90172">
        <ele>92.55</ele>
        <time>2018-01-07T12:26:21Z</time>
      </trkpt>
      <trkpt lat="48.7884" lon="1.90168">
        <ele>92.26</ele>
        <time>2018-01-07T12:26:26Z</time>
      </trkpt>
      <trkpt lat="48.78837" lon="1.90166">
        <ele>92.47</ele>
        <time>2018-01-07T12:26:29Z</time>
      </trkpt>
      <trkpt lat="48.78816" lon="1.90147">
        <ele>93.1</ele>
        <time>2018-01-07T12:26:50Z</time>
      </trkpt>
      <trkpt lat="48.78799" lon="1.90136">
        <ele>93.07</ele>
        <time>2018-01-07T12:27:06Z</time>
      </trkpt>
      <trkpt lat="48.7878" lon="1.90122">
        <ele>92.95</ele>
        <time>2018-01-07T12:27:24Z</time>
      </trkpt>
      <trkpt lat="48.78767" lon="1.90112">
        <ele>93.78</ele>
        <time>2018-01-07T12:27:40Z</time>
      </trkpt>
      <trkpt lat="48.78757" lon="1.90102">
        <ele>93.43</ele>
        <time>2018-01-07T12:27:55Z</time>
      </trkpt>
      <trkpt lat="48.78742" lon="1.90092">
        <ele>94.6</ele>
        <time>2018-01-07T12:28:11Z</time>
      </trkpt>
      <trkpt lat="48.78733" lon="1.90087">
        <ele>94.26</ele>
        <time>2018-01-07T12:28:21Z</time>
      </trkpt>
      <trkpt lat="48.78713" lon="1.90073">
        <ele>95.17</ele>
        <time>2018-01-07T12:28:39Z</time>
      </trkpt>
      <trkpt lat="48.78699" lon="1.9006">
        <ele>94.91</ele>
        <time>2018-01-07T12:28:54Z</time>
      </trkpt>
      <trkpt lat="48.78691" lon="1.90055">
        <ele>95.25</ele>
        <time>2018-01-07T12:29:01Z</time>
      </trkpt>
      <trkpt lat="48.78676" lon="1.90046">
        <ele>95.38</ele>
        <time>2018-01-07T12:29:15Z</time>
      </trkpt>
      <trkpt lat="48.78671" lon="1.90044">
        <ele>96.53</ele>
        <time>2018-01-07T12:29:20Z</time>
      </trkpt>
      <trkpt lat="48.78662" lon="1.90039">
        <ele>96.17</ele>
        <time>2018-01-07T12:29:30Z</time>
      </trkpt>
      <trkpt lat="48.7865" lon="1.90031">
        <ele>96.13</ele>
        <time>2018-01-07T12:29:43Z</time>
      </trkpt>
      <trkpt lat="48.78644" lon="1.90027">
        <ele>96.53</ele>
        <time>2018-01-07T12:29:49Z</time>
      </trkpt>
      <trkpt lat="48.78641" lon="1.90024">
        <ele>96.4</ele>
        <time>2018-01-07T12:29:53Z</time>
      </trkpt>
      <trkpt lat="48.78633" lon="1.90016">
        <ele>95.48</ele>
        <time>2018-01-07T12:30:01Z</time>
      </trkpt>
      <trkpt lat="48.78631" lon="1.90016">
        <ele>97.04</ele>
        <time>2018-01-07T12:30:04Z</time>
      </trkpt>
      <trkpt lat="48.78629" lon="1.90016">
        <ele>95.97</ele>
        <time>2018-01-07T12:30:07Z</time>
      </trkpt>
      <trkpt lat="48.78613" lon="1.90005">
        <ele>95.9</ele>
        <time>2018-01-07T12:30:23Z</time>
      </trkpt>
      <trkpt lat="48.78598" lon="1.89995">
        <ele>96.72</ele>
        <time>2018-01-07T12:30:38Z</time>
      </trkpt>
      <trkpt lat="48.78582" lon="1.89982">
        <ele>97.88</ele>
        <time>2018-01-07T12:30:55Z</time>
      </trkpt>
      <trkpt lat="48.78569" lon="1.89971">
        <ele>97.75</ele>
        <time>2018-01-07T12:31:10Z</time>
      </trkpt>
      <trkpt lat="48.7856" lon="1.8997">
        <ele>97.87</ele>
        <time>2018-01-07T12:31:20Z</time>
      </trkpt>
      <trkpt lat="48.78558" lon="1.89987">
        <ele>97.78</ele>
        <time>2018-01-07T12:31:33Z</time>
      </trkpt>
      <trkpt lat="48.78558" lon="1.90014">
        <ele>98.13</ele>
        <time>2018-01-07T12:31:49Z</time>
      </trkpt>
      <trkpt lat="48.78558" lon="1.90037">
        <ele>97.95</ele>
        <time>2018-01-07T12:32:03Z</time>
      </trkpt>
      <trkpt lat="48.78558" lon="1.90063">
        <ele>98.72</ele>
        <time>2018-01-07T12:32:19Z</time>
      </trkpt>
      <trkpt lat="48.7856" lon="1.90081">
        <ele>95.99</ele>
        <time>2018-01-07T12:32:30Z</time>
      </trkpt>
      <trkpt lat="48.78559" lon="1.90082">
        <ele>96.43</ele>
        <time>2018-01-07T12:32:31Z</time>
      </trkpt>
      <trkpt lat="48.78559" lon="1.90085">
        <ele>96.62</ele>
        <time>2018-01-07T12:32:33Z</time>
      </trkpt>
      <trkpt lat="48.78559" lon="1.90088">
        <ele>96.04</ele>
        <time>2018-01-07T12:32:35Z</time>
      </trkpt>
      <trkpt lat="48.78559" lon="1.90098">
        <ele>96.76</ele>
        <time>2018-01-07T12:32:40Z</time>
      </trkpt>
      <trkpt lat="48.78559" lon="1.90129">
        <ele>96.56</ele>
        <time>2018-01-07T12:32:56Z</time>
      </trkpt>
      <trkpt lat="48.7856" lon="1.90153">
        <ele>95.42</ele>
        <time>2018-01-07T12:33:10Z</time>
      </trkpt>
      <trkpt lat="48.7856" lon="1.90164">
        <ele>94.15</ele>
        <time>2018-01-07T12:33:16Z</time>
      </trkpt>
      <trkpt lat="48.7856" lon="1.90194">
        <ele>95.54</ele>
        <time>2018-01-07T12:33:33Z</time>
      </trkpt>
      <trkpt lat="48.7856" lon="1.90221">
        <ele>95.63</ele>
        <time>2018-01-07T12:33:48Z</time>
      </trkpt>
      <trkpt lat="48.78561" lon="1.90248">
        <ele>94.55</ele>
        <time>2018-01-07T12:34:04Z</time>
      </trkpt>
      <trkpt lat="48.7856" lon="1.90276">
        <ele>94.6</ele>
        <time>2018-01-07T12:34:19Z</time>
      </trkpt>
      <trkpt lat="48.7856" lon="1.90306">
        <ele>92.27</ele>
        <time>2018-01-07T12:34:36Z</time>
      </trkpt>
      <trkpt lat="48.7856" lon="1.9034">
        <ele>90.83</ele>
        <time>2018-01-07T12:34:56Z</time>
      </trkpt>
      <trkpt lat="48.78561" lon="1.90366">
        <ele>91.12</ele>
        <time>2018-01-07T12:35:13Z</time>
      </trkpt>
      <trkpt lat="48.78562" lon="1.90395">
        <ele>91.18</ele>
        <time>2018-01-07T12:35:29Z</time>
      </trkpt>
      <trkpt lat="48.78561" lon="1.90428">
        <ele>90.85</ele>
        <time>2018-01-07T12:35:46Z</time>
      </trkpt>
      <trkpt lat="48.78562" lon="1.90457">
        <ele>88.61</ele>
        <time>2018-01-07T12:36:02Z</time>
      </trkpt>
      <trkpt lat="48.78562" lon="1.90493">
        <ele>88.16</ele>
        <time>2018-01-07T12:36:22Z</time>
      </trkpt>
      <trkpt lat="48.78561" lon="1.90506">
        <ele>88.43</ele>
        <time>2018-01-07T12:36:31Z</time>
      </trkpt>
      <trkpt lat="48.78562" lon="1.90543">
        <ele>86.37</ele>
        <time>2018-01-07T12:36:51Z</time>
      </trkpt>
      <trkpt lat="48.78563" lon="1.90572">
        <ele>85.23</ele>
        <time>2018-01-07T12:37:07Z</time>
      </trkpt>
      <trkpt lat="48.78563" lon="1.90595">
        <ele>86.82</ele>
        <time>2018-01-07T12:37:19Z</time>
      </trkpt>
      <trkpt lat="48.78563" lon="1.90602">
        <ele>85.16</ele>
        <time>2018-01-07T12:37:23Z</time>
      </trkpt>
      <trkpt lat="48.78563" lon="1.90619">
        <ele>84.92</ele>
        <time>2018-01-07T12:37:32Z</time>
      </trkpt>
      <trkpt lat="48.78563" lon="1.90623">
        <ele>82.84</ele>
        <time>2018-01-07T12:37:35Z</time>
      </trkpt>
      <trkpt lat="48.78564" lon="1.90646">
        <ele>83.39</ele>
        <time>2018-01-07T12:37:50Z</time>
      </trkpt>
      <trkpt lat="48.78564" lon="1.90675">
        <ele>84.16</ele>
        <time>2018-01-07T12:38:05Z</time>
      </trkpt>
      <trkpt lat="48.78563" lon="1.90684">
        <ele>83.86</ele>
        <time>2018-01-07T12:38:10Z</time>
      </trkpt>
      <trkpt lat="48.78563" lon="1.90713">
        <ele>80.76</ele>
        <time>2018-01-07T12:38:25Z</time>
      </trkpt>
      <trkpt lat="48.78565" lon="1.90748">
        <ele>80.28</ele>
        <time>2018-01-07T12:38:44Z</time>
      </trkpt>
      <trkpt lat="48.78566" lon="1.90779">
        <ele>80.11</ele>
        <time>2018-01-07T12:39:00Z</time>
      </trkpt>
      <trkpt lat="48.78567" lon="1.90797">
        <ele>78.99</ele>
        <time>2018-01-07T12:39:10Z</time>
      </trkpt>
      <trkpt lat="48.78567" lon="1.90819">
        <ele>78.71</ele>
        <time>2018-01-07T12:39:25Z</time>
      </trkpt>
      <trkpt lat="48.78565" lon="1.90823">
        <ele>78.98</ele>
        <time>2018-01-07T12:39:36Z</time>
      </trkpt>
      <trkpt lat="48.78565" lon="1.90846">
        <ele>78.64</ele>
        <time>2018-01-07T12:39:51Z</time>
      </trkpt>
      <trkpt lat="48.78565" lon="1.90855">
        <ele>78.4</ele>
        <time>2018-01-07T12:39:56Z</time>
      </trkpt>
      <trkpt lat="48.78566" lon="1.90879">
        <ele>77.61</ele>
        <time>2018-01-07T12:40:11Z</time>
      </trkpt>
      <trkpt lat="48.78567" lon="1.90907">
        <ele>77</ele>
        <time>2018-01-07T12:40:28Z</time>
      </trkpt>
      <trkpt lat="48.78566" lon="1.90941">
        <ele>77.76</ele>
        <time>2018-01-07T12:40:48Z</time>
      </trkpt>
      <trkpt lat="48.78563" lon="1.90944">
        <ele>78.66</ele>
        <time>2018-01-07T12:41:04Z</time>
      </trkpt>
      <trkpt lat="48.78564" lon="1.90946">
        <ele>78.42</ele>
        <time>2018-01-07T12:41:37Z</time>
      </trkpt>
      <trkpt lat="48.78565" lon="1.90945">
        <ele>78.32</ele>
        <time>2018-01-07T12:42:05Z</time>
      </trkpt>
      <trkpt lat="48.78565" lon="1.90945">
        <ele>78.43</ele>
        <time>2018-01-07T12:42:43Z</time>
      </trkpt>
      <trkpt lat="48.78563" lon="1.90946">
        <ele>78.86</ele>
        <time>2018-01-07T12:43:16Z</time>
      </trkpt>
      <trkpt lat="48.78564" lon="1.90946">
        <ele>77.79</ele>
        <time>2018-01-07T12:43:40Z</time>
      </trkpt>
      <trkpt lat="48.78565" lon="1.90945">
        <ele>78.48</ele>
        <time>2018-01-07T12:44:15Z</time>
      </trkpt>
      <trkpt lat="48.78563" lon="1.90944">
        <ele>77.89</ele>
        <time>2018-01-07T12:44:24Z</time>
      </trkpt>
      <trkpt lat="48.78558" lon="1.90944">
        <ele>78.24</ele>
        <time>2018-01-07T12:44:28Z</time>
      </trkpt>
      <trkpt lat="48.78552" lon="1.90947">
        <ele>78.35</ele>
        <time>2018-01-07T12:44:34Z</time>
      </trkpt>
      <trkpt lat="48.78547" lon="1.90949">
        <ele>78.63</ele>
        <time>2018-01-07T12:44:49Z</time>
      </trkpt>
      <trkpt lat="48.78539" lon="1.90952">
        <ele>78.79</ele>
        <time>2018-01-07T12:44:56Z</time>
      </trkpt>
      <trkpt lat="48.78525" lon="1.90955">
        <ele>78.25</ele>
        <time>2018-01-07T12:45:09Z</time>
      </trkpt>
      <trkpt lat="48.78513" lon="1.90959">
        <ele>78.43</ele>
        <time>2018-01-07T12:45:21Z</time>
      </trkpt>
      <trkpt lat="48.785" lon="1.90964">
        <ele>79.14</ele>
        <time>2018-01-07T12:45:35Z</time>
      </trkpt>
      <trkpt lat="48.78494" lon="1.90967">
        <ele>78.88</ele>
        <time>2018-01-07T12:45:41Z</time>
      </trkpt>
      <trkpt lat="48.78491" lon="1.90968">
        <ele>79.34</ele>
        <time>2018-01-07T12:45:44Z</time>
      </trkpt>
      <trkpt lat="48.78488" lon="1.90969">
        <ele>79.06</ele>
        <time>2018-01-07T12:45:47Z</time>
      </trkpt>
      <trkpt lat="48.78468" lon="1.90978">
        <ele>79.73</ele>
        <time>2018-01-07T12:46:06Z</time>
      </trkpt>
      <trkpt lat="48.78465" lon="1.90979">
        <ele>79.69</ele>
        <time>2018-01-07T12:46:09Z</time>
      </trkpt>
      <trkpt lat="48.78452" lon="1.90986">
        <ele>79.19</ele>
        <time>2018-01-07T12:46:23Z</time>
      </trkpt>
      <trkpt lat="48.78438" lon="1.90991">
        <ele>79.59</ele>
        <time>2018-01-07T12:46:36Z</time>
      </trkpt>
      <trkpt lat="48.78423" lon="1.90996">
        <ele>79.86</ele>
        <time>2018-01-07T12:46:51Z</time>
      </trkpt>
      <trkpt lat="48.78408" lon="1.91004">
        <ele>80.25</ele>
        <time>2018-01-07T12:47:06Z</time>
      </trkpt>
      <trkpt lat="48.78405" lon="1.91006">
        <ele>80.67</ele>
        <time>2018-01-07T12:47:09Z</time>
      </trkpt>
      <trkpt lat="48.78389" lon="1.91012">
        <ele>80.71</ele>
        <time>2018-01-07T12:47:24Z</time>
      </trkpt>
      <trkpt lat="48.78374" lon="1.9102">
        <ele>80.5</ele>
        <time>2018-01-07T12:47:39Z</time>
      </trkpt>
      <trkpt lat="48.78369" lon="1.91022">
        <ele>81.01</ele>
        <time>2018-01-07T12:47:44Z</time>
      </trkpt>
      <trkpt lat="48.78352" lon="1.91027">
        <ele>80.38</ele>
        <time>2018-01-07T12:48:00Z</time>
      </trkpt>
      <trkpt lat="48.78346" lon="1.9103">
        <ele>80.84</ele>
        <time>2018-01-07T12:48:07Z</time>
      </trkpt>
      <trkpt lat="48.78339" lon="1.91033">
        <ele>80.52</ele>
        <time>2018-01-07T12:48:13Z</time>
      </trkpt>
      <trkpt lat="48.78322" lon="1.91041">
        <ele>80.98</ele>
        <time>2018-01-07T12:48:30Z</time>
      </trkpt>
      <trkpt lat="48.78305" lon="1.91049">
        <ele>82.06</ele>
        <time>2018-01-07T12:48:47Z</time>
      </trkpt>
      <trkpt lat="48.7829" lon="1.91054">
        <ele>83.08</ele>
        <time>2018-01-07T12:49:00Z</time>
      </trkpt>
      <trkpt lat="48.78276" lon="1.91062">
        <ele>82.6</ele>
        <time>2018-01-07T12:49:14Z</time>
      </trkpt>
      <trkpt lat="48.7826" lon="1.91068">
        <ele>82.75</ele>
        <time>2018-01-07T12:49:30Z</time>
      </trkpt>
      <trkpt lat="48.78249" lon="1.91073">
        <ele>82.85</ele>
        <time>2018-01-07T12:49:41Z</time>
      </trkpt>
      <trkpt lat="48.78234" lon="1.91076">
        <ele>82.94</ele>
        <time>2018-01-07T12:49:56Z</time>
      </trkpt>
      <trkpt lat="48.78222" lon="1.91082">
        <ele>83.46</ele>
        <time>2018-01-07T12:50:08Z</time>
      </trkpt>
      <trkpt lat="48.78208" lon="1.91087">
        <ele>83.46</ele>
        <time>2018-01-07T12:50:22Z</time>
      </trkpt>
      <trkpt lat="48.78195" lon="1.9109">
        <ele>83.79</ele>
        <time>2018-01-07T12:50:36Z</time>
      </trkpt>
      <trkpt lat="48.78194" lon="1.91091">
        <ele>84.15</ele>
        <time>2018-01-07T12:50:37Z</time>
      </trkpt>
      <trkpt lat="48.78192" lon="1.911">
        <ele>84.25</ele>
        <time>2018-01-07T12:50:46Z</time>
      </trkpt>
      <trkpt lat="48.78193" lon="1.91121">
        <ele>84.57</ele>
        <time>2018-01-07T12:51:04Z</time>
      </trkpt>
      <trkpt lat="48.78194" lon="1.9114">
        <ele>84.6</ele>
        <time>2018-01-07T12:51:20Z</time>
      </trkpt>
      <trkpt lat="48.78194" lon="1.91142">
        <ele>81.32</ele>
        <time>2018-01-07T12:51:22Z</time>
      </trkpt>
      <trkpt lat="48.78194" lon="1.91143">
        <ele>84.41</ele>
        <time>2018-01-07T12:51:23Z</time>
      </trkpt>
      <trkpt lat="48.78193" lon="1.91148">
        <ele>82.69</ele>
        <time>2018-01-07T12:51:27Z</time>
      </trkpt>
      <trkpt lat="48.78193" lon="1.91155">
        <ele>83.45</ele>
        <time>2018-01-07T12:51:32Z</time>
      </trkpt>
      <trkpt lat="48.78194" lon="1.91168">
        <ele>83.28</ele>
        <time>2018-01-07T12:51:42Z</time>
      </trkpt>
      <trkpt lat="48.78195" lon="1.91183">
        <ele>83.14</ele>
        <time>2018-01-07T12:51:50Z</time>
      </trkpt>
      <trkpt lat="48.78199" lon="1.91206">
        <ele>84.01</ele>
        <time>2018-01-07T12:52:07Z</time>
      </trkpt>
      <trkpt lat="48.78194" lon="1.91234">
        <ele>83.04</ele>
        <time>2018-01-07T12:52:27Z</time>
      </trkpt>
      <trkpt lat="48.78193" lon="1.91251">
        <ele>85.16</ele>
        <time>2018-01-07T12:52:43Z</time>
      </trkpt>
      <trkpt lat="48.78194" lon="1.91273">
        <ele>86.87</ele>
        <time>2018-01-07T12:53:02Z</time>
      </trkpt>
      <trkpt lat="48.78196" lon="1.91302">
        <ele>89.55</ele>
        <time>2018-01-07T12:53:24Z</time>
      </trkpt>
      <trkpt lat="48.78196" lon="1.91309">
        <ele>89.91</ele>
        <time>2018-01-07T12:53:36Z</time>
      </trkpt>
      <trkpt lat="48.78197" lon="1.91325">
        <ele>90.71</ele>
        <time>2018-01-07T12:53:53Z</time>
      </trkpt>
      <trkpt lat="48.78195" lon="1.91337">
        <ele>92.18</ele>
        <time>2018-01-07T12:54:09Z</time>
      </trkpt>
      <trkpt lat="48.78196" lon="1.91341">
        <ele>93.16</ele>
        <time>2018-01-07T12:54:12Z</time>
      </trkpt>
      <trkpt lat="48.78197" lon="1.91353">
        <ele>93.57</ele>
        <time>2018-01-07T12:54:22Z</time>
      </trkpt>
      <trkpt lat="48.78198" lon="1.91367">
        <ele>94.35</ele>
        <time>2018-01-07T12:54:38Z</time>
      </trkpt>
      <trkpt lat="48.78199" lon="1.91376">
        <ele>95.35</ele>
        <time>2018-01-07T12:54:44Z</time>
      </trkpt>
      <trkpt lat="48.78203" lon="1.91399">
        <ele>96.55</ele>
        <time>2018-01-07T12:54:59Z</time>
      </trkpt>
      <trkpt lat="48.78204" lon="1.914">
        <ele>96.35</ele>
        <time>2018-01-07T12:55:00Z</time>
      </trkpt>
      <trkpt lat="48.78204" lon="1.91407">
        <ele>97.04</ele>
        <time>2018-01-07T12:55:05Z</time>
      </trkpt>
      <trkpt lat="48.78205" lon="1.9141">
        <ele>98.12</ele>
        <time>2018-01-07T12:55:07Z</time>
      </trkpt>
      <trkpt lat="48.78205" lon="1.91413">
        <ele>98.01</ele>
        <time>2018-01-07T12:55:09Z</time>
      </trkpt>
      <trkpt lat="48.78206" lon="1.91419">
        <ele>98.54</ele>
        <time>2018-01-07T12:55:13Z</time>
      </trkpt>
      <trkpt lat="48.78207" lon="1.91424">
        <ele>99.62</ele>
        <time>2018-01-07T12:55:16Z</time>
      </trkpt>
      <trkpt lat="48.78209" lon="1.91444">
        <ele>99.89</ele>
        <time>2018-01-07T12:55:29Z</time>
      </trkpt>
      <trkpt lat="48.78212" lon="1.91465">
        <ele>100.19</ele>
        <time>2018-01-07T12:55:43Z</time>
      </trkpt>
      <trkpt lat="48.78215" lon="1.91484">
        <ele>99.4</ele>
        <time>2018-01-07T12:55:55Z</time>
      </trkpt>
      <trkpt lat="48.78215" lon="1.91488">
        <ele>100.66</ele>
        <time>2018-01-07T12:55:57Z</time>
      </trkpt>
      <trkpt lat="48.78219" lon="1.91512">
        <ele>101.05</ele>
        <time>2018-01-07T12:56:11Z</time>
      </trkpt>
      <trkpt lat="48.78222" lon="1.91537">
        <ele>102.57</ele>
        <time>2018-01-07T12:56:27Z</time>
      </trkpt>
      <trkpt lat="48.78224" lon="1.9155">
        <ele>103.12</ele>
        <time>2018-01-07T12:56:35Z</time>
      </trkpt>
      <trkpt lat="48.78225" lon="1.9156">
        <ele>103.89</ele>
        <time>2018-01-07T12:56:41Z</time>
      </trkpt>
      <trkpt lat="48.78227" lon="1.91573">
        <ele>105.62</ele>
        <time>2018-01-07T12:56:50Z</time>
      </trkpt>
      <trkpt lat="48.78227" lon="1.91582">
        <ele>104.88</ele>
        <time>2018-01-07T12:56:55Z</time>
      </trkpt>
      <trkpt lat="48.78229" lon="1.91594">
        <ele>105.06</ele>
        <time>2018-01-07T12:57:03Z</time>
      </trkpt>
      <trkpt lat="48.7823" lon="1.91597">
        <ele>106.06</ele>
        <time>2018-01-07T12:57:05Z</time>
      </trkpt>
      <trkpt lat="48.78233" lon="1.91618">
        <ele>105.95</ele>
        <time>2018-01-07T12:57:19Z</time>
      </trkpt>
      <trkpt lat="48.78238" lon="1.91636">
        <ele>106.55</ele>
        <time>2018-01-07T12:57:32Z</time>
      </trkpt>
      <trkpt lat="48.78239" lon="1.91641">
        <ele>107.94</ele>
        <time>2018-01-07T12:57:41Z</time>
      </trkpt>
      <trkpt lat="48.7824" lon="1.91648">
        <ele>105.43</ele>
        <time>2018-01-07T12:57:45Z</time>
      </trkpt>
      <trkpt lat="48.78242" lon="1.91661">
        <ele>106.33</ele>
        <time>2018-01-07T12:57:53Z</time>
      </trkpt>
      <trkpt lat="48.78243" lon="1.91664">
        <ele>106.15</ele>
        <time>2018-01-07T12:57:55Z</time>
      </trkpt>
      <trkpt lat="48.78249" lon="1.91694">
        <ele>105.32</ele>
        <time>2018-01-07T12:58:13Z</time>
      </trkpt>
      <trkpt lat="48.78251" lon="1.91705">
        <ele>107.12</ele>
        <time>2018-01-07T12:58:19Z</time>
      </trkpt>
      <trkpt lat="48.78253" lon="1.91712">
        <ele>106.13</ele>
        <time>2018-01-07T12:58:24Z</time>
      </trkpt>
      <trkpt lat="48.78257" lon="1.91739">
        <ele>105.65</ele>
        <time>2018-01-07T12:58:39Z</time>
      </trkpt>
      <trkpt lat="48.7826" lon="1.91752">
        <ele>107.08</ele>
        <time>2018-01-07T12:58:46Z</time>
      </trkpt>
      <trkpt lat="48.78259" lon="1.91757">
        <ele>108.35</ele>
        <time>2018-01-07T12:58:50Z</time>
      </trkpt>
      <trkpt lat="48.78259" lon="1.91759">
        <ele>107.63</ele>
        <time>2018-01-07T12:58:59Z</time>
      </trkpt>
      <trkpt lat="48.78258" lon="1.91763">
        <ele>107.33</ele>
        <time>2018-01-07T12:59:02Z</time>
      </trkpt>
      <trkpt lat="48.78255" lon="1.91768">
        <ele>109.29</ele>
        <time>2018-01-07T12:59:06Z</time>
      </trkpt>
      <trkpt lat="48.78253" lon="1.91771">
        <ele>108.07</ele>
        <time>2018-01-07T12:59:10Z</time>
      </trkpt>
      <trkpt lat="48.7825" lon="1.91775">
        <ele>109.16</ele>
        <time>2018-01-07T12:59:14Z</time>
      </trkpt>
      <trkpt lat="48.78245" lon="1.9178">
        <ele>107.81</ele>
        <time>2018-01-07T12:59:20Z</time>
      </trkpt>
      <trkpt lat="48.78241" lon="1.91785">
        <ele>108.49</ele>
        <time>2018-01-07T12:59:25Z</time>
      </trkpt>
      <trkpt lat="48.78224" lon="1.91802">
        <ele>109.29</ele>
        <time>2018-01-07T12:59:43Z</time>
      </trkpt>
      <trkpt lat="48.78213" lon="1.91813">
        <ele>108.19</ele>
        <time>2018-01-07T12:59:55Z</time>
      </trkpt>
      <trkpt lat="48.78198" lon="1.91826">
        <ele>108.18</ele>
        <time>2018-01-07T13:00:10Z</time>
      </trkpt>
      <trkpt lat="48.78195" lon="1.9183">
        <ele>108.29</ele>
        <time>2018-01-07T13:00:14Z</time>
      </trkpt>
      <trkpt lat="48.78188" lon="1.91839">
        <ele>108.17</ele>
        <time>2018-01-07T13:00:26Z</time>
      </trkpt>
      <trkpt lat="48.78184" lon="1.91841">
        <ele>107.85</ele>
        <time>2018-01-07T13:00:42Z</time>
      </trkpt>
      <trkpt lat="48.78178" lon="1.91845">
        <ele>107.77</ele>
        <time>2018-01-07T13:00:49Z</time>
      </trkpt>
      <trkpt lat="48.78168" lon="1.9186">
        <ele>106.78</ele>
        <time>2018-01-07T13:01:02Z</time>
      </trkpt>
      <trkpt lat="48.78163" lon="1.91868">
        <ele>106.78</ele>
        <time>2018-01-07T13:01:09Z</time>
      </trkpt>
      <trkpt lat="48.78153" lon="1.91884">
        <ele>105.95</ele>
        <time>2018-01-07T13:01:25Z</time>
      </trkpt>
      <trkpt lat="48.78144" lon="1.91907">
        <ele>105.12</ele>
        <time>2018-01-07T13:01:44Z</time>
      </trkpt>
      <trkpt lat="48.78137" lon="1.91931">
        <ele>103.52</ele>
        <time>2018-01-07T13:01:59Z</time>
      </trkpt>
      <trkpt lat="48.78134" lon="1.91939">
        <ele>103.26</ele>
        <time>2018-01-07T13:02:04Z</time>
      </trkpt>
      <trkpt lat="48.78129" lon="1.91956">
        <ele>103.23</ele>
        <time>2018-01-07T13:02:14Z</time>
      </trkpt>
      <trkpt lat="48.78116" lon="1.91987">
        <ele>103.11</ele>
        <time>2018-01-07T13:02:36Z</time>
      </trkpt>
      <trkpt lat="48.78103" lon="1.92007">
        <ele>102.06</ele>
        <time>2018-01-07T13:02:55Z</time>
      </trkpt>
      <trkpt lat="48.78084" lon="1.92021">
        <ele>101.89</ele>
        <time>2018-01-07T13:03:16Z</time>
      </trkpt>
      <trkpt lat="48.78067" lon="1.92035">
        <ele>101.73</ele>
        <time>2018-01-07T13:03:31Z</time>
      </trkpt>
      <trkpt lat="48.78051" lon="1.92051">
        <ele>102.9</ele>
        <time>2018-01-07T13:03:46Z</time>
      </trkpt>
      <trkpt lat="48.78028" lon="1.92068">
        <ele>104.09</ele>
        <time>2018-01-07T13:04:07Z</time>
      </trkpt>
      <trkpt lat="48.78006" lon="1.92085">
        <ele>104.43</ele>
        <time>2018-01-07T13:04:25Z</time>
      </trkpt>
      <trkpt lat="48.77993" lon="1.92098">
        <ele>104.04</ele>
        <time>2018-01-07T13:04:38Z</time>
      </trkpt>
      <trkpt lat="48.77979" lon="1.92116">
        <ele>104.2</ele>
        <time>2018-01-07T13:04:58Z</time>
      </trkpt>
      <trkpt lat="48.77955" lon="1.92127">
        <ele>104.08</ele>
        <time>2018-01-07T13:05:17Z</time>
      </trkpt>
      <trkpt lat="48.77933" lon="1.9214">
        <ele>102.59</ele>
        <time>2018-01-07T13:05:37Z</time>
      </trkpt>
      <trkpt lat="48.7791" lon="1.92157">
        <ele>100.8</ele>
        <time>2018-01-07T13:05:59Z</time>
      </trkpt>
      <trkpt lat="48.77904" lon="1.92161">
        <ele>100.39</ele>
        <time>2018-01-07T13:06:04Z</time>
      </trkpt>
      <trkpt lat="48.77896" lon="1.92163">
        <ele>100.67</ele>
        <time>2018-01-07T13:06:09Z</time>
      </trkpt>
      <trkpt lat="48.77871" lon="1.92171">
        <ele>99.18</ele>
        <time>2018-01-07T13:06:27Z</time>
      </trkpt>
      <trkpt lat="48.77857" lon="1.92168">
        <ele>98.34</ele>
        <time>2018-01-07T13:09:23Z</time>
      </trkpt>
      <trkpt lat="48.77857" lon="1.92168">
        <ele>98.63</ele>
        <time>2018-01-07T13:10:23Z</time>
      </trkpt>
      <trkpt lat="48.77855" lon="1.92167">
        <ele>98.92</ele>
        <time>2018-01-07T13:11:12Z</time>
      </trkpt>
      <trkpt lat="48.77831" lon="1.92159">
        <ele>97.56</ele>
        <time>2018-01-07T13:11:52Z</time>
      </trkpt>
      <trkpt lat="48.77816" lon="1.92148">
        <ele>95.76</ele>
        <time>2018-01-07T13:12:08Z</time>
      </trkpt>
      <trkpt lat="48.77813" lon="1.92144">
        <ele>95.92</ele>
        <time>2018-01-07T13:12:12Z</time>
      </trkpt>
      <trkpt lat="48.77795" lon="1.92125">
        <ele>94.58</ele>
        <time>2018-01-07T13:12:32Z</time>
      </trkpt>
      <trkpt lat="48.77779" lon="1.921">
        <ele>95.09</ele>
        <time>2018-01-07T13:12:51Z</time>
      </trkpt>
      <trkpt lat="48.77761" lon="1.92084">
        <ele>94.58</ele>
        <time>2018-01-07T13:13:08Z</time>
      </trkpt>
      <trkpt lat="48.77758" lon="1.92083">
        <ele>94.88</ele>
        <time>2018-01-07T13:13:13Z</time>
      </trkpt>
      <trkpt lat="48.77751" lon="1.92083">
        <ele>94.95</ele>
        <time>2018-01-07T13:13:17Z</time>
      </trkpt>
      <trkpt lat="48.77741" lon="1.92085">
        <ele>95.64</ele>
        <time>2018-01-07T13:13:26Z</time>
      </trkpt>
      <trkpt lat="48.77738" lon="1.92085">
        <ele>95.49</ele>
        <time>2018-01-07T13:13:28Z</time>
      </trkpt>
      <trkpt lat="48.77731" lon="1.92085">
        <ele>96.28</ele>
        <time>2018-01-07T13:13:35Z</time>
      </trkpt>
      <trkpt lat="48.77722" lon="1.92088">
        <ele>97.88</ele>
        <time>2018-01-07T13:13:50Z</time>
      </trkpt>
      <trkpt lat="48.77711" lon="1.92091">
        <ele>99.64</ele>
        <time>2018-01-07T13:14:02Z</time>
      </trkpt>
      <trkpt lat="48.77704" lon="1.92091">
        <ele>100.27</ele>
        <time>2018-01-07T13:14:08Z</time>
      </trkpt>
      <trkpt lat="48.77694" lon="1.92091">
        <ele>100.82</ele>
        <time>2018-01-07T13:14:17Z</time>
      </trkpt>
      <trkpt lat="48.77689" lon="1.92084">
        <ele>101.7</ele>
        <time>2018-01-07T13:14:22Z</time>
      </trkpt>
      <trkpt lat="48.77685" lon="1.92081">
        <ele>102.18</ele>
        <time>2018-01-07T13:14:31Z</time>
      </trkpt>
      <trkpt lat="48.77683" lon="1.9208">
        <ele>101.94</ele>
        <time>2018-01-07T13:14:33Z</time>
      </trkpt>
      <trkpt lat="48.77677" lon="1.9208">
        <ele>102.77</ele>
        <time>2018-01-07T13:14:39Z</time>
      </trkpt>
      <trkpt lat="48.7767" lon="1.92084">
        <ele>102.42</ele>
        <time>2018-01-07T13:14:46Z</time>
      </trkpt>
      <trkpt lat="48.77662" lon="1.92077">
        <ele>102.94</ele>
        <time>2018-01-07T13:15:00Z</time>
      </trkpt>
      <trkpt lat="48.77661" lon="1.92081">
        <ele>103.42</ele>
        <time>2018-01-07T13:15:23Z</time>
      </trkpt>
      <trkpt lat="48.77662" lon="1.9208">
        <ele>103.69</ele>
        <time>2018-01-07T13:15:42Z</time>
      </trkpt>
      <trkpt lat="48.77665" lon="1.92083">
        <ele>103.12</ele>
        <time>2018-01-07T13:15:52Z</time>
      </trkpt>
      <trkpt lat="48.77668" lon="1.92085">
        <ele>103.29</ele>
        <time>2018-01-07T13:16:06Z</time>
      </trkpt>
      <trkpt lat="48.77658" lon="1.9208">
        <ele>104.49</ele>
        <time>2018-01-07T13:16:19Z</time>
      </trkpt>
      <trkpt lat="48.77658" lon="1.9208">
        <ele>103.65</ele>
        <time>2018-01-07T13:16:24Z</time>
      </trkpt>
      <trkpt lat="48.77646" lon="1.92071">
        <ele>105.56</ele>
        <time>2018-01-07T13:16:37Z</time>
      </trkpt>
      <trkpt lat="48.77633" lon="1.92062">
        <ele>107.15</ele>
        <time>2018-01-07T13:16:52Z</time>
      </trkpt>
      <trkpt lat="48.7763" lon="1.92061">
        <ele>107.85</ele>
        <time>2018-01-07T13:16:56Z</time>
      </trkpt>
      <trkpt lat="48.77621" lon="1.92057">
        <ele>108.65</ele>
        <time>2018-01-07T13:17:05Z</time>
      </trkpt>
      <trkpt lat="48.77606" lon="1.92052">
        <ele>109.89</ele>
        <time>2018-01-07T13:17:19Z</time>
      </trkpt>
      <trkpt lat="48.77603" lon="1.92047">
        <ele>111.43</ele>
        <time>2018-01-07T13:17:24Z</time>
      </trkpt>
      <trkpt lat="48.77585" lon="1.92042">
        <ele>113.09</ele>
        <time>2018-01-07T13:17:39Z</time>
      </trkpt>
      <trkpt lat="48.77567" lon="1.92042">
        <ele>115.3</ele>
        <time>2018-01-07T13:17:56Z</time>
      </trkpt>
      <trkpt lat="48.77563" lon="1.92046">
        <ele>115.21</ele>
        <time>2018-01-07T13:18:12Z</time>
      </trkpt>
      <trkpt lat="48.77556" lon="1.92044">
        <ele>115.93</ele>
        <time>2018-01-07T13:18:26Z</time>
      </trkpt>
      <trkpt lat="48.77555" lon="1.92044">
        <ele>116.25</ele>
        <time>2018-01-07T13:18:28Z</time>
      </trkpt>
      <trkpt lat="48.77553" lon="1.92044">
        <ele>116.94</ele>
        <time>2018-01-07T13:18:30Z</time>
      </trkpt>
      <trkpt lat="48.77549" lon="1.92045">
        <ele>116.68</ele>
        <time>2018-01-07T13:18:34Z</time>
      </trkpt>
      <trkpt lat="48.77542" lon="1.92044">
        <ele>117.17</ele>
        <time>2018-01-07T13:18:40Z</time>
      </trkpt>
      <trkpt lat="48.77522" lon="1.92044">
        <ele>118.74</ele>
        <time>2018-01-07T13:18:56Z</time>
      </trkpt>
      <trkpt lat="48.77506" lon="1.92046">
        <ele>120.23</ele>
        <time>2018-01-07T13:19:11Z</time>
      </trkpt>
      <trkpt lat="48.77488" lon="1.92043">
        <ele>121.56</ele>
        <time>2018-01-07T13:19:27Z</time>
      </trkpt>
      <trkpt lat="48.77466" lon="1.92039">
        <ele>124.03</ele>
        <time>2018-01-07T13:19:45Z</time>
      </trkpt>
      <trkpt lat="48.77445" lon="1.92031">
        <ele>125.05</ele>
        <time>2018-01-07T13:20:03Z</time>
      </trkpt>
      <trkpt lat="48.77427" lon="1.92022">
        <ele>127.61</ele>
        <time>2018-01-07T13:20:19Z</time>
      </trkpt>
      <trkpt lat="48.77412" lon="1.92012">
        <ele>127.21</ele>
        <time>2018-01-07T13:20:37Z</time>
      </trkpt>
      <trkpt lat="48.77412" lon="1.92014">
        <ele>129.1</ele>
        <time>2018-01-07T13:20:41Z</time>
      </trkpt>
      <trkpt lat="48.77409" lon="1.92016">
        <ele>129.22</ele>
        <time>2018-01-07T13:20:44Z</time>
      </trkpt>
      <trkpt lat="48.77407" lon="1.92016">
        <ele>128.64</ele>
        <time>2018-01-07T13:20:46Z</time>
      </trkpt>
      <trkpt lat="48.77403" lon="1.92015">
        <ele>129.25</ele>
        <time>2018-01-07T13:20:51Z</time>
      </trkpt>
      <trkpt lat="48.77392" lon="1.92015">
        <ele>129.46</ele>
        <time>2018-01-07T13:21:01Z</time>
      </trkpt>
      <trkpt lat="48.77382" lon="1.92025">
        <ele>130.14</ele>
        <time>2018-01-07T13:21:18Z</time>
      </trkpt>
      <trkpt lat="48.7737" lon="1.92043">
        <ele>132.81</ele>
        <time>2018-01-07T13:21:37Z</time>
      </trkpt>
      <trkpt lat="48.77358" lon="1.92067">
        <ele>135.12</ele>
        <time>2018-01-07T13:21:57Z</time>
      </trkpt>
      <trkpt lat="48.77355" lon="1.92072">
        <ele>136.11</ele>
        <time>2018-01-07T13:22:03Z</time>
      </trkpt>
      <trkpt lat="48.77345" lon="1.92083">
        <ele>136.69</ele>
        <time>2018-01-07T13:22:16Z</time>
      </trkpt>
      <trkpt lat="48.77335" lon="1.92081">
        <ele>139.85</ele>
        <time>2018-01-07T13:22:27Z</time>
      </trkpt>
      <trkpt lat="48.77322" lon="1.92078">
        <ele>140.03</ele>
        <time>2018-01-07T13:22:46Z</time>
      </trkpt>
      <trkpt lat="48.77319" lon="1.92072">
        <ele>140.21</ele>
        <time>2018-01-07T13:23:05Z</time>
      </trkpt>
      <trkpt lat="48.77311" lon="1.92069">
        <ele>141.97</ele>
        <time>2018-01-07T13:23:26Z</time>
      </trkpt>
      <trkpt lat="48.77299" lon="1.92057">
        <ele>143.11</ele>
        <time>2018-01-07T13:23:46Z</time>
      </trkpt>
      <trkpt lat="48.77298" lon="1.9206">
        <ele>143.87</ele>
        <time>2018-01-07T13:24:02Z</time>
      </trkpt>
      <trkpt lat="48.77295" lon="1.92072">
        <ele>142.02</ele>
        <time>2018-01-07T13:24:17Z</time>
      </trkpt>
      <trkpt lat="48.77292" lon="1.92076">
        <ele>143.59</ele>
        <time>2018-01-07T13:24:21Z</time>
      </trkpt>
      <trkpt lat="48.77291" lon="1.92079">
        <ele>144.11</ele>
        <time>2018-01-07T13:24:23Z</time>
      </trkpt>
      <trkpt lat="48.7728" lon="1.92096">
        <ele>144.8</ele>
        <time>2018-01-07T13:24:41Z</time>
      </trkpt>
      <trkpt lat="48.77277" lon="1.92099">
        <ele>144.76</ele>
        <time>2018-01-07T13:24:44Z</time>
      </trkpt>
      <trkpt lat="48.77266" lon="1.92095">
        <ele>145.16</ele>
        <time>2018-01-07T13:25:00Z</time>
      </trkpt>
      <trkpt lat="48.77261" lon="1.92093">
        <ele>145.14</ele>
        <time>2018-01-07T13:25:19Z</time>
      </trkpt>
      <trkpt lat="48.77258" lon="1.92094">
        <ele>145.68</ele>
        <time>2018-01-07T13:25:35Z</time>
      </trkpt>
      <trkpt lat="48.77255" lon="1.92093">
        <ele>146.17</ele>
        <time>2018-01-07T13:25:38Z</time>
      </trkpt>
      <trkpt lat="48.77248" lon="1.92087">
        <ele>146.35</ele>
        <time>2018-01-07T13:25:46Z</time>
      </trkpt>
      <trkpt lat="48.77239" lon="1.92078">
        <ele>147.95</ele>
        <time>2018-01-07T13:26:01Z</time>
      </trkpt>
      <trkpt lat="48.77233" lon="1.92071">
        <ele>148.61</ele>
        <time>2018-01-07T13:26:18Z</time>
      </trkpt>
      <trkpt lat="48.77234" lon="1.92074">
        <ele>149.13</ele>
        <time>2018-01-07T13:26:28Z</time>
      </trkpt>
      <trkpt lat="48.77236" lon="1.92096">
        <ele>148.7</ele>
        <time>2018-01-07T13:26:43Z</time>
      </trkpt>
      <trkpt lat="48.77238" lon="1.92104">
        <ele>148.87</ele>
        <time>2018-01-07T13:26:53Z</time>
      </trkpt>
      <trkpt lat="48.77238" lon="1.92116">
        <ele>148.53</ele>
        <time>2018-01-07T13:27:05Z</time>
      </trkpt>
      <trkpt lat="48.77244" lon="1.92148">
        <ele>146.59</ele>
        <time>2018-01-07T13:27:26Z</time>
      </trkpt>
      <trkpt lat="48.77247" lon="1.92158">
        <ele>145.18</ele>
        <time>2018-01-07T13:27:33Z</time>
      </trkpt>
      <trkpt lat="48.77251" lon="1.92161">
        <ele>145.74</ele>
        <time>2018-01-07T13:27:39Z</time>
      </trkpt>
      <trkpt lat="48.77256" lon="1.92168">
        <ele>145.65</ele>
        <time>2018-01-07T13:27:45Z</time>
      </trkpt>
      <trkpt lat="48.77257" lon="1.92171">
        <ele>145.17</ele>
        <time>2018-01-07T13:27:47Z</time>
      </trkpt>
      <trkpt lat="48.77267" lon="1.922">
        <ele>143.9</ele>
        <time>2018-01-07T13:28:02Z</time>
      </trkpt>
      <trkpt lat="48.77275" lon="1.92208">
        <ele>143.27</ele>
        <time>2018-01-07T13:28:19Z</time>
      </trkpt>
      <trkpt lat="48.77278" lon="1.92206">
        <ele>142.05</ele>
        <time>2018-01-07T13:28:41Z</time>
      </trkpt>
      <trkpt lat="48.77281" lon="1.92209">
        <ele>141.73</ele>
        <time>2018-01-07T13:28:44Z</time>
      </trkpt>
      <trkpt lat="48.77289" lon="1.92216">
        <ele>141.19</ele>
        <time>2018-01-07T13:28:53Z</time>
      </trkpt>
      <trkpt lat="48.77299" lon="1.92197">
        <ele>140.05</ele>
        <time>2018-01-07T13:29:09Z</time>
      </trkpt>
      <trkpt lat="48.77307" lon="1.92179">
        <ele>139.54</ele>
        <time>2018-01-07T13:29:22Z</time>
      </trkpt>
      <trkpt lat="48.77312" lon="1.92168">
        <ele>139.13</ele>
        <time>2018-01-07T13:29:38Z</time>
      </trkpt>
      <trkpt lat="48.77316" lon="1.92163">
        <ele>138.1</ele>
        <time>2018-01-07T13:29:59Z</time>
      </trkpt>
      <trkpt lat="48.77318" lon="1.92161">
        <ele>137.98</ele>
        <time>2018-01-07T13:30:02Z</time>
      </trkpt>
      <trkpt lat="48.77319" lon="1.92158">
        <ele>138.08</ele>
        <time>2018-01-07T13:30:04Z</time>
      </trkpt>
      <trkpt lat="48.77328" lon="1.92134">
        <ele>137.97</ele>
        <time>2018-01-07T13:30:21Z</time>
      </trkpt>
      <trkpt lat="48.77331" lon="1.92121">
        <ele>137.56</ele>
        <time>2018-01-07T13:30:37Z</time>
      </trkpt>
      <trkpt lat="48.77338" lon="1.92104">
        <ele>136.23</ele>
        <time>2018-01-07T13:30:58Z</time>
      </trkpt>
      <trkpt lat="48.77344" lon="1.9209">
        <ele>136.78</ele>
        <time>2018-01-07T13:31:13Z</time>
      </trkpt>
      <trkpt lat="48.77357" lon="1.92067">
        <ele>134.31</ele>
        <time>2018-01-07T13:31:34Z</time>
      </trkpt>
      <trkpt lat="48.77373" lon="1.92045">
        <ele>131.54</ele>
        <time>2018-01-07T13:31:54Z</time>
      </trkpt>
      <trkpt lat="48.77377" lon="1.9204">
        <ele>130.83</ele>
        <time>2018-01-07T13:31:58Z</time>
      </trkpt>
      <trkpt lat="48.77385" lon="1.92023">
        <ele>129.67</ele>
        <time>2018-01-07T13:32:14Z</time>
      </trkpt>
      <trkpt lat="48.7739" lon="1.92016">
        <ele>128.91</ele>
        <time>2018-01-07T13:32:31Z</time>
      </trkpt>
      <trkpt lat="48.7739" lon="1.92016">
        <ele>131.55</ele>
        <time>2018-01-07T13:32:52Z</time>
      </trkpt>
      <trkpt lat="48.7739" lon="1.92016">
        <ele>130.58</ele>
        <time>2018-01-07T13:32:54Z</time>
      </trkpt>
      <trkpt lat="48.77394" lon="1.92016">
        <ele>127.32</ele>
        <time>2018-01-07T13:33:09Z</time>
      </trkpt>
      <trkpt lat="48.77394" lon="1.92016">
        <ele>127.1</ele>
        <time>2018-01-07T13:33:10Z</time>
      </trkpt>
      <trkpt lat="48.77399" lon="1.92017">
        <ele>126.84</ele>
        <time>2018-01-07T13:33:15Z</time>
      </trkpt>
      <trkpt lat="48.77404" lon="1.92019">
        <ele>127.1</ele>
        <time>2018-01-07T13:33:19Z</time>
      </trkpt>
      <trkpt lat="48.77422" lon="1.9202">
        <ele>126.35</ele>
        <time>2018-01-07T13:33:32Z</time>
      </trkpt>
      <trkpt lat="48.77433" lon="1.92027">
        <ele>125.45</ele>
        <time>2018-01-07T13:33:44Z</time>
      </trkpt>
      <trkpt lat="48.77435" lon="1.92028">
        <ele>125.71</ele>
        <time>2018-01-07T13:33:46Z</time>
      </trkpt>
      <trkpt lat="48.77448" lon="1.92034">
        <ele>124.88</ele>
        <time>2018-01-07T13:33:58Z</time>
      </trkpt>
      <trkpt lat="48.77455" lon="1.92037">
        <ele>124.34</ele>
        <time>2018-01-07T13:34:05Z</time>
      </trkpt>
      <trkpt lat="48.77474" lon="1.92043">
        <ele>123.23</ele>
        <time>2018-01-07T13:34:22Z</time>
      </trkpt>
      <trkpt lat="48.77492" lon="1.92046">
        <ele>122.49</ele>
        <time>2018-01-07T13:34:39Z</time>
      </trkpt>
      <trkpt lat="48.77509" lon="1.92048">
        <ele>119.33</ele>
        <time>2018-01-07T13:34:53Z</time>
      </trkpt>
      <trkpt lat="48.77514" lon="1.92048">
        <ele>119.03</ele>
        <time>2018-01-07T13:34:58Z</time>
      </trkpt>
      <trkpt lat="48.77519" lon="1.92049">
        <ele>119.49</ele>
        <time>2018-01-07T13:35:03Z</time>
      </trkpt>
      <trkpt lat="48.77522" lon="1.92049">
        <ele>118.17</ele>
        <time>2018-01-07T13:35:06Z</time>
      </trkpt>
      <trkpt lat="48.77524" lon="1.92049">
        <ele>118.01</ele>
        <time>2018-01-07T13:35:07Z</time>
      </trkpt>
      <trkpt lat="48.77544" lon="1.92046">
        <ele>117.81</ele>
        <time>2018-01-07T13:35:25Z</time>
      </trkpt>
      <trkpt lat="48.77564" lon="1.92045">
        <ele>115.65</ele>
        <time>2018-01-07T13:35:42Z</time>
      </trkpt>
      <trkpt lat="48.77581" lon="1.92045">
        <ele>112.5</ele>
        <time>2018-01-07T13:35:56Z</time>
      </trkpt>
      <trkpt lat="48.77603" lon="1.92047">
        <ele>111.7</ele>
        <time>2018-01-07T13:36:13Z</time>
      </trkpt>
      <trkpt lat="48.77614" lon="1.92048">
        <ele>109.58</ele>
        <time>2018-01-07T13:36:21Z</time>
      </trkpt>
      <trkpt lat="48.77618" lon="1.92051">
        <ele>109.94</ele>
        <time>2018-01-07T13:36:24Z</time>
      </trkpt>
      <trkpt lat="48.77615" lon="1.92067">
        <ele>110.52</ele>
        <time>2018-01-07T13:36:37Z</time>
      </trkpt>
      <trkpt lat="48.77613" lon="1.92071">
        <ele>110.81</ele>
        <time>2018-01-07T13:36:40Z</time>
      </trkpt>
      <trkpt lat="48.77599" lon="1.92079">
        <ele>113.48</ele>
        <time>2018-01-07T13:36:58Z</time>
      </trkpt>
      <trkpt lat="48.77601" lon="1.92084">
        <ele>112.49</ele>
        <time>2018-01-07T13:37:07Z</time>
      </trkpt>
      <trkpt lat="48.77604" lon="1.92098">
        <ele>111.66</ele>
        <time>2018-01-07T13:37:16Z</time>
      </trkpt>
      <trkpt lat="48.77601" lon="1.92125">
        <ele>112.2</ele>
        <time>2018-01-07T13:37:34Z</time>
      </trkpt>
      <trkpt lat="48.776" lon="1.92127">
        <ele>112.14</ele>
        <time>2018-01-07T13:37:37Z</time>
      </trkpt>
      <trkpt lat="48.776" lon="1.92135">
        <ele>112.17</ele>
        <time>2018-01-07T13:37:44Z</time>
      </trkpt>
      <trkpt lat="48.77598" lon="1.92141">
        <ele>112.08</ele>
        <time>2018-01-07T13:37:48Z</time>
      </trkpt>
      <trkpt lat="48.77592" lon="1.92154">
        <ele>111.46</ele>
        <time>2018-01-07T13:37:58Z</time>
      </trkpt>
      <trkpt lat="48.77587" lon="1.92163">
        <ele>111.38</ele>
        <time>2018-01-07T13:38:09Z</time>
      </trkpt>
      <trkpt lat="48.77582" lon="1.92169">
        <ele>112.13</ele>
        <time>2018-01-07T13:38:13Z</time>
      </trkpt>
      <trkpt lat="48.77577" lon="1.92177">
        <ele>112</ele>
        <time>2018-01-07T13:38:23Z</time>
      </trkpt>
      <trkpt lat="48.77573" lon="1.92182">
        <ele>112.24</ele>
        <time>2018-01-07T13:38:30Z</time>
      </trkpt>
      <trkpt lat="48.77569" lon="1.92189">
        <ele>111.8</ele>
        <time>2018-01-07T13:38:35Z</time>
      </trkpt>
      <trkpt lat="48.77559" lon="1.92203">
        <ele>112.57</ele>
        <time>2018-01-07T13:38:47Z</time>
      </trkpt>
      <trkpt lat="48.77553" lon="1.92211">
        <ele>112.39</ele>
        <time>2018-01-07T13:38:53Z</time>
      </trkpt>
      <trkpt lat="48.7754" lon="1.92229">
        <ele>112.95</ele>
        <time>2018-01-07T13:39:09Z</time>
      </trkpt>
      <trkpt lat="48.77535" lon="1.92238">
        <ele>113.66</ele>
        <time>2018-01-07T13:39:15Z</time>
      </trkpt>
      <trkpt lat="48.77525" lon="1.92254">
        <ele>113.38</ele>
        <time>2018-01-07T13:39:29Z</time>
      </trkpt>
      <trkpt lat="48.77521" lon="1.92262">
        <ele>113.35</ele>
        <time>2018-01-07T13:39:34Z</time>
      </trkpt>
      <trkpt lat="48.77514" lon="1.92273">
        <ele>113.67</ele>
        <time>2018-01-07T13:39:42Z</time>
      </trkpt>
      <trkpt lat="48.77502" lon="1.92291">
        <ele>113.43</ele>
        <time>2018-01-07T13:39:57Z</time>
      </trkpt>
      <trkpt lat="48.77498" lon="1.92297">
        <ele>113.62</ele>
        <time>2018-01-07T13:40:01Z</time>
      </trkpt>
      <trkpt lat="48.7749" lon="1.92321">
        <ele>112.52</ele>
        <time>2018-01-07T13:40:17Z</time>
      </trkpt>
      <trkpt lat="48.7749" lon="1.92324">
        <ele>112.04</ele>
        <time>2018-01-07T13:40:19Z</time>
      </trkpt>
      <trkpt lat="48.77492" lon="1.92349">
        <ele>113.02</ele>
        <time>2018-01-07T13:40:33Z</time>
      </trkpt>
      <trkpt lat="48.77493" lon="1.92375">
        <ele>114.3</ele>
        <time>2018-01-07T13:40:48Z</time>
      </trkpt>
      <trkpt lat="48.77491" lon="1.92408">
        <ele>113.41</ele>
        <time>2018-01-07T13:41:06Z</time>
      </trkpt>
      <trkpt lat="48.77488" lon="1.92421">
        <ele>112.91</ele>
        <time>2018-01-07T13:41:12Z</time>
      </trkpt>
      <trkpt lat="48.77484" lon="1.9244">
        <ele>112.04</ele>
        <time>2018-01-07T13:41:23Z</time>
      </trkpt>
      <trkpt lat="48.77481" lon="1.92451">
        <ele>110.67</ele>
        <time>2018-01-07T13:41:31Z</time>
      </trkpt>
      <trkpt lat="48.77479" lon="1.92463">
        <ele>111.38</ele>
        <time>2018-01-07T13:41:39Z</time>
      </trkpt>
      <trkpt lat="48.77474" lon="1.92475">
        <ele>111.16</ele>
        <time>2018-01-07T13:41:47Z</time>
      </trkpt>
      <trkpt lat="48.77472" lon="1.92484">
        <ele>111.23</ele>
        <time>2018-01-07T13:41:53Z</time>
      </trkpt>
      <trkpt lat="48.77464" lon="1.92504">
        <ele>111.25</ele>
        <time>2018-01-07T13:42:07Z</time>
      </trkpt>
      <trkpt lat="48.77461" lon="1.92511">
        <ele>111.61</ele>
        <time>2018-01-07T13:42:12Z</time>
      </trkpt>
      <trkpt lat="48.77453" lon="1.92531">
        <ele>112.49</ele>
        <time>2018-01-07T13:42:25Z</time>
      </trkpt>
      <trkpt lat="48.77444" lon="1.92559">
        <ele>112.98</ele>
        <time>2018-01-07T13:42:41Z</time>
      </trkpt>
      <trkpt lat="48.77434" lon="1.92583">
        <ele>113.42</ele>
        <time>2018-01-07T13:42:56Z</time>
      </trkpt>
      <trkpt lat="48.77424" lon="1.92608">
        <ele>113.22</ele>
        <time>2018-01-07T13:43:11Z</time>
      </trkpt>
      <trkpt lat="48.77421" lon="1.92621">
        <ele>113.71</ele>
        <time>2018-01-07T13:43:17Z</time>
      </trkpt>
      <trkpt lat="48.77411" lon="1.92642">
        <ele>113.9</ele>
        <time>2018-01-07T13:43:33Z</time>
      </trkpt>
      <trkpt lat="48.77406" lon="1.92664">
        <ele>113.19</ele>
        <time>2018-01-07T13:43:47Z</time>
      </trkpt>
      <trkpt lat="48.77403" lon="1.92671">
        <ele>113.27</ele>
        <time>2018-01-07T13:43:53Z</time>
      </trkpt>
      <trkpt lat="48.774" lon="1.92694">
        <ele>112.35</ele>
        <time>2018-01-07T13:44:10Z</time>
      </trkpt>
      <trkpt lat="48.77401" lon="1.92701">
        <ele>109.3</ele>
        <time>2018-01-07T13:44:19Z</time>
      </trkpt>
      <trkpt lat="48.7741" lon="1.92729">
        <ele>107.68</ele>
        <time>2018-01-07T13:44:35Z</time>
      </trkpt>
      <trkpt lat="48.77424" lon="1.92745">
        <ele>105.57</ele>
        <time>2018-01-07T13:44:51Z</time>
      </trkpt>
      <trkpt lat="48.77434" lon="1.9275">
        <ele>105.27</ele>
        <time>2018-01-07T13:45:10Z</time>
      </trkpt>
      <trkpt lat="48.77442" lon="1.92758">
        <ele>105.44</ele>
        <time>2018-01-07T13:45:32Z</time>
      </trkpt>
      <trkpt lat="48.77449" lon="1.92756">
        <ele>105.29</ele>
        <time>2018-01-07T13:45:53Z</time>
      </trkpt>
      <trkpt lat="48.77445" lon="1.92756">
        <ele>105.31</ele>
        <time>2018-01-07T13:46:16Z</time>
      </trkpt>
      <trkpt lat="48.77454" lon="1.92766">
        <ele>105.41</ele>
        <time>2018-01-07T13:46:35Z</time>
      </trkpt>
      <trkpt lat="48.77463" lon="1.92774">
        <ele>107.23</ele>
        <time>2018-01-07T13:46:57Z</time>
      </trkpt>
      <trkpt lat="48.77464" lon="1.92767">
        <ele>107.36</ele>
        <time>2018-01-07T13:47:16Z</time>
      </trkpt>
      <trkpt lat="48.77477" lon="1.92755">
        <ele>105.79</ele>
        <time>2018-01-07T13:47:30Z</time>
      </trkpt>
      <trkpt lat="48.77495" lon="1.92742">
        <ele>105.49</ele>
        <time>2018-01-07T13:47:48Z</time>
      </trkpt>
      <trkpt lat="48.77512" lon="1.92728">
        <ele>105.78</ele>
        <time>2018-01-07T13:48:06Z</time>
      </trkpt>
      <trkpt lat="48.77518" lon="1.92722">
        <ele>105.51</ele>
        <time>2018-01-07T13:48:12Z</time>
      </trkpt>
      <trkpt lat="48.7753" lon="1.92705">
        <ele>105.8</ele>
        <time>2018-01-07T13:48:28Z</time>
      </trkpt>
      <trkpt lat="48.77548" lon="1.92687">
        <ele>106.26</ele>
        <time>2018-01-07T13:48:47Z</time>
      </trkpt>
      <trkpt lat="48.77567" lon="1.92666">
        <ele>104.77</ele>
        <time>2018-01-07T13:49:07Z</time>
      </trkpt>
      <trkpt lat="48.77584" lon="1.92649">
        <ele>104.73</ele>
        <time>2018-01-07T13:49:25Z</time>
      </trkpt>
      <trkpt lat="48.77587" lon="1.92645">
        <ele>104.76</ele>
        <time>2018-01-07T13:49:28Z</time>
      </trkpt>
      <trkpt lat="48.77594" lon="1.92637">
        <ele>104.27</ele>
        <time>2018-01-07T13:49:35Z</time>
      </trkpt>
      <trkpt lat="48.77603" lon="1.92626">
        <ele>104</ele>
        <time>2018-01-07T13:49:45Z</time>
      </trkpt>
      <trkpt lat="48.7761" lon="1.92608">
        <ele>103.97</ele>
        <time>2018-01-07T13:49:54Z</time>
      </trkpt>
      <trkpt lat="48.77625" lon="1.92588">
        <ele>103.07</ele>
        <time>2018-01-07T13:50:10Z</time>
      </trkpt>
      <trkpt lat="48.77638" lon="1.92567">
        <ele>103.11</ele>
        <time>2018-01-07T13:50:26Z</time>
      </trkpt>
      <trkpt lat="48.77652" lon="1.9255">
        <ele>102.58</ele>
        <time>2018-01-07T13:50:45Z</time>
      </trkpt>
      <trkpt lat="48.77667" lon="1.92533">
        <ele>102.06</ele>
        <time>2018-01-07T13:51:03Z</time>
      </trkpt>
      <trkpt lat="48.77674" lon="1.92527">
        <ele>101.92</ele>
        <time>2018-01-07T13:51:09Z</time>
      </trkpt>
      <trkpt lat="48.77681" lon="1.92519">
        <ele>102.54</ele>
        <time>2018-01-07T13:51:14Z</time>
      </trkpt>
      <trkpt lat="48.77695" lon="1.92508">
        <ele>101.33</ele>
        <time>2018-01-07T13:51:28Z</time>
      </trkpt>
      <trkpt lat="48.77698" lon="1.92501">
        <ele>101.49</ele>
        <time>2018-01-07T13:51:34Z</time>
      </trkpt>
      <trkpt lat="48.77706" lon="1.92478">
        <ele>100.99</ele>
        <time>2018-01-07T13:51:50Z</time>
      </trkpt>
      <trkpt lat="48.77708" lon="1.92471">
        <ele>101.06</ele>
        <time>2018-01-07T13:52:13Z</time>
      </trkpt>
      <trkpt lat="48.77712" lon="1.92472">
        <ele>99.91</ele>
        <time>2018-01-07T13:52:36Z</time>
      </trkpt>
      <trkpt lat="48.77721" lon="1.92458">
        <ele>99.66</ele>
        <time>2018-01-07T13:52:55Z</time>
      </trkpt>
      <trkpt lat="48.77731" lon="1.92442">
        <ele>99.58</ele>
        <time>2018-01-07T13:53:12Z</time>
      </trkpt>
      <trkpt lat="48.77742" lon="1.92427">
        <ele>100.85</ele>
        <time>2018-01-07T13:53:30Z</time>
      </trkpt>
      <trkpt lat="48.77746" lon="1.92412">
        <ele>100</ele>
        <time>2018-01-07T13:54:05Z</time>
      </trkpt>
      <trkpt lat="48.77753" lon="1.92398">
        <ele>101.36</ele>
        <time>2018-01-07T13:54:16Z</time>
      </trkpt>
      <trkpt lat="48.77767" lon="1.92377">
        <ele>102.33</ele>
        <time>2018-01-07T13:54:31Z</time>
      </trkpt>
      <trkpt lat="48.77773" lon="1.92362">
        <ele>103.35</ele>
        <time>2018-01-07T13:54:44Z</time>
      </trkpt>
      <trkpt lat="48.77781" lon="1.92346">
        <ele>104.54</ele>
        <time>2018-01-07T13:54:58Z</time>
      </trkpt>
      <trkpt lat="48.77783" lon="1.92338">
        <ele>104.54</ele>
        <time>2018-01-07T13:55:03Z</time>
      </trkpt>
      <trkpt lat="48.77788" lon="1.92323">
        <ele>104.23</ele>
        <time>2018-01-07T13:55:13Z</time>
      </trkpt>
      <trkpt lat="48.77792" lon="1.92313">
        <ele>105.41</ele>
        <time>2018-01-07T13:55:32Z</time>
      </trkpt>
      <trkpt lat="48.77792" lon="1.92316">
        <ele>104.58</ele>
        <time>2018-01-07T13:55:57Z</time>
      </trkpt>
      <trkpt lat="48.77793" lon="1.92315">
        <ele>104.91</ele>
        <time>2018-01-07T13:56:23Z</time>
      </trkpt>
      <trkpt lat="48.778" lon="1.92303">
        <ele>104.42</ele>
        <time>2018-01-07T13:56:43Z</time>
      </trkpt>
      <trkpt lat="48.77803" lon="1.92307">
        <ele>106.27</ele>
        <time>2018-01-07T13:56:53Z</time>
      </trkpt>
      <trkpt lat="48.77809" lon="1.92316">
        <ele>109.64</ele>
        <time>2018-01-07T13:57:06Z</time>
      </trkpt>
      <trkpt lat="48.7781" lon="1.92329">
        <ele>111.27</ele>
        <time>2018-01-07T13:57:26Z</time>
      </trkpt>
      <trkpt lat="48.77807" lon="1.92339">
        <ele>112.94</ele>
        <time>2018-01-07T13:57:42Z</time>
      </trkpt>
      <trkpt lat="48.77812" lon="1.92342">
        <ele>115.96</ele>
        <time>2018-01-07T13:57:55Z</time>
      </trkpt>
      <trkpt lat="48.77817" lon="1.92351">
        <ele>119.29</ele>
        <time>2018-01-07T13:58:08Z</time>
      </trkpt>
      <trkpt lat="48.77827" lon="1.92363">
        <ele>120.86</ele>
        <time>2018-01-07T13:58:25Z</time>
      </trkpt>
      <trkpt lat="48.77837" lon="1.92382">
        <ele>122.92</ele>
        <time>2018-01-07T13:58:42Z</time>
      </trkpt>
      <trkpt lat="48.77838" lon="1.92385">
        <ele>124.2</ele>
        <time>2018-01-07T13:58:45Z</time>
      </trkpt>
      <trkpt lat="48.77842" lon="1.92401">
        <ele>124.15</ele>
        <time>2018-01-07T13:59:00Z</time>
      </trkpt>
      <trkpt lat="48.77844" lon="1.92407">
        <ele>127.46</ele>
        <time>2018-01-07T13:59:07Z</time>
      </trkpt>
      <trkpt lat="48.77844" lon="1.92408">
        <ele>127.08</ele>
        <time>2018-01-07T13:59:08Z</time>
      </trkpt>
      <trkpt lat="48.77848" lon="1.92419">
        <ele>128.99</ele>
        <time>2018-01-07T13:59:25Z</time>
      </trkpt>
      <trkpt lat="48.7785" lon="1.92436">
        <ele>132.07</ele>
        <time>2018-01-07T13:59:40Z</time>
      </trkpt>
      <trkpt lat="48.77855" lon="1.92447">
        <ele>135.17</ele>
        <time>2018-01-07T13:59:57Z</time>
      </trkpt>
      <trkpt lat="48.77851" lon="1.92458">
        <ele>137.23</ele>
        <time>2018-01-07T14:00:13Z</time>
      </trkpt>
      <trkpt lat="48.77856" lon="1.92456">
        <ele>138.64</ele>
        <time>2018-01-07T14:00:25Z</time>
      </trkpt>
      <trkpt lat="48.77863" lon="1.92444">
        <ele>140.1</ele>
        <time>2018-01-07T14:00:43Z</time>
      </trkpt>
      <trkpt lat="48.7787" lon="1.92438">
        <ele>141.64</ele>
        <time>2018-01-07T14:00:58Z</time>
      </trkpt>
      <trkpt lat="48.77874" lon="1.92433">
        <ele>142.18</ele>
        <time>2018-01-07T14:01:20Z</time>
      </trkpt>
      <trkpt lat="48.77876" lon="1.92437">
        <ele>142.37</ele>
        <time>2018-01-07T14:04:41Z</time>
      </trkpt>
      <trkpt lat="48.77888" lon="1.92439">
        <ele>143.16</ele>
        <time>2018-01-07T14:04:58Z</time>
      </trkpt>
      <trkpt lat="48.77903" lon="1.92445">
        <ele>142.63</ele>
        <time>2018-01-07T14:05:18Z</time>
      </trkpt>
      <trkpt lat="48.77916" lon="1.92453">
        <ele>143.24</ele>
        <time>2018-01-07T14:05:36Z</time>
      </trkpt>
      <trkpt lat="48.77924" lon="1.92459">
        <ele>141.39</ele>
        <time>2018-01-07T14:06:03Z</time>
      </trkpt>
      <trkpt lat="48.77937" lon="1.92455">
        <ele>139.92</ele>
        <time>2018-01-07T14:06:22Z</time>
      </trkpt>
      <trkpt lat="48.77951" lon="1.92451">
        <ele>139.64</ele>
        <time>2018-01-07T14:06:36Z</time>
      </trkpt>
      <trkpt lat="48.77959" lon="1.92447">
        <ele>137.43</ele>
        <time>2018-01-07T14:06:43Z</time>
      </trkpt>
      <trkpt lat="48.77966" lon="1.92441">
        <ele>135.57</ele>
        <time>2018-01-07T14:06:51Z</time>
      </trkpt>
      <trkpt lat="48.77974" lon="1.92436">
        <ele>132.42</ele>
        <time>2018-01-07T14:07:03Z</time>
      </trkpt>
      <trkpt lat="48.77982" lon="1.92434">
        <ele>130.42</ele>
        <time>2018-01-07T14:07:12Z</time>
      </trkpt>
      <trkpt lat="48.77993" lon="1.92435">
        <ele>130.41</ele>
        <time>2018-01-07T14:07:19Z</time>
      </trkpt>
      <trkpt lat="48.77996" lon="1.92436">
        <ele>129.1</ele>
        <time>2018-01-07T14:07:21Z</time>
      </trkpt>
      <trkpt lat="48.7801" lon="1.92442">
        <ele>125.82</ele>
        <time>2018-01-07T14:07:35Z</time>
      </trkpt>
      <trkpt lat="48.78025" lon="1.92449">
        <ele>125.05</ele>
        <time>2018-01-07T14:07:49Z</time>
      </trkpt>
      <trkpt lat="48.78036" lon="1.92452">
        <ele>123.73</ele>
        <time>2018-01-07T14:07:59Z</time>
      </trkpt>
      <trkpt lat="48.78054" lon="1.92458">
        <ele>121.26</ele>
        <time>2018-01-07T14:08:19Z</time>
      </trkpt>
      <trkpt lat="48.78055" lon="1.92459">
        <ele>121.03</ele>
        <time>2018-01-07T14:08:20Z</time>
      </trkpt>
      <trkpt lat="48.78077" lon="1.92465">
        <ele>119.65</ele>
        <time>2018-01-07T14:08:36Z</time>
      </trkpt>
      <trkpt lat="48.78088" lon="1.9247">
        <ele>117.62</ele>
        <time>2018-01-07T14:08:49Z</time>
      </trkpt>
      <trkpt lat="48.78106" lon="1.92477">
        <ele>115.44</ele>
        <time>2018-01-07T14:09:07Z</time>
      </trkpt>
      <trkpt lat="48.78124" lon="1.9248">
        <ele>113.84</ele>
        <time>2018-01-07T14:09:23Z</time>
      </trkpt>
      <trkpt lat="48.78134" lon="1.92483">
        <ele>112.39</ele>
        <time>2018-01-07T14:09:35Z</time>
      </trkpt>
      <trkpt lat="48.78147" lon="1.9249">
        <ele>110.46</ele>
        <time>2018-01-07T14:09:53Z</time>
      </trkpt>
      <trkpt lat="48.78169" lon="1.92495">
        <ele>109.3</ele>
        <time>2018-01-07T14:10:10Z</time>
      </trkpt>
      <trkpt lat="48.78176" lon="1.92498">
        <ele>109.1</ele>
        <time>2018-01-07T14:10:16Z</time>
      </trkpt>
      <trkpt lat="48.78181" lon="1.92506">
        <ele>109.52</ele>
        <time>2018-01-07T14:10:29Z</time>
      </trkpt>
      <trkpt lat="48.78181" lon="1.9251">
        <ele>108.96</ele>
        <time>2018-01-07T14:10:52Z</time>
      </trkpt>
      <trkpt lat="48.78183" lon="1.92525">
        <ele>108.98</ele>
        <time>2018-01-07T14:11:06Z</time>
      </trkpt>
      <trkpt lat="48.78189" lon="1.92548">
        <ele>107.27</ele>
        <time>2018-01-07T14:11:23Z</time>
      </trkpt>
      <trkpt lat="48.7819" lon="1.92574">
        <ele>105.19</ele>
        <time>2018-01-07T14:11:34Z</time>
      </trkpt>
      <trkpt lat="48.78184" lon="1.92595">
        <ele>103.78</ele>
        <time>2018-01-07T14:11:50Z</time>
      </trkpt>
      <trkpt lat="48.78179" lon="1.9261">
        <ele>103.31</ele>
        <time>2018-01-07T14:12:06Z</time>
      </trkpt>
      <trkpt lat="48.7818" lon="1.92614">
        <ele>101.92</ele>
        <time>2018-01-07T14:12:27Z</time>
      </trkpt>
      <trkpt lat="48.78183" lon="1.92597">
        <ele>102.12</ele>
        <time>2018-01-07T14:12:45Z</time>
      </trkpt>
      <trkpt lat="48.78183" lon="1.92598">
        <ele>101.06</ele>
        <time>2018-01-07T14:13:04Z</time>
      </trkpt>
      <trkpt lat="48.78187" lon="1.92632">
        <ele>100.73</ele>
        <time>2018-01-07T14:13:22Z</time>
      </trkpt>
      <trkpt lat="48.7819" lon="1.9265">
        <ele>99.22</ele>
        <time>2018-01-07T14:13:33Z</time>
      </trkpt>
      <trkpt lat="48.78193" lon="1.92667">
        <ele>96.93</ele>
        <time>2018-01-07T14:13:50Z</time>
      </trkpt>
      <trkpt lat="48.78197" lon="1.92704">
        <ele>96.53</ele>
        <time>2018-01-07T14:14:10Z</time>
      </trkpt>
      <trkpt lat="48.78205" lon="1.92729">
        <ele>96.84</ele>
        <time>2018-01-07T14:14:29Z</time>
      </trkpt>
      <trkpt lat="48.78216" lon="1.92756">
        <ele>96.21</ele>
        <time>2018-01-07T14:14:49Z</time>
      </trkpt>
      <trkpt lat="48.78223" lon="1.92776">
        <ele>96.47</ele>
        <time>2018-01-07T14:15:04Z</time>
      </trkpt>
      <trkpt lat="48.78236" lon="1.92797">
        <ele>96.89</ele>
        <time>2018-01-07T14:15:19Z</time>
      </trkpt>
      <trkpt lat="48.78242" lon="1.92808">
        <ele>99.38</ele>
        <time>2018-01-07T14:15:35Z</time>
      </trkpt>
      <trkpt lat="48.78243" lon="1.92812">
        <ele>100.24</ele>
        <time>2018-01-07T14:15:40Z</time>
      </trkpt>
      <trkpt lat="48.78249" lon="1.92834">
        <ele>103.36</ele>
        <time>2018-01-07T14:16:01Z</time>
      </trkpt>
      <trkpt lat="48.78257" lon="1.92859">
        <ele>106.02</ele>
        <time>2018-01-07T14:16:20Z</time>
      </trkpt>
      <trkpt lat="48.78262" lon="1.92881">
        <ele>108.37</ele>
        <time>2018-01-07T14:16:36Z</time>
      </trkpt>
      <trkpt lat="48.78272" lon="1.92901">
        <ele>110.22</ele>
        <time>2018-01-07T14:16:56Z</time>
      </trkpt>
      <trkpt lat="48.7828" lon="1.92929">
        <ele>110.52</ele>
        <time>2018-01-07T14:17:14Z</time>
      </trkpt>
      <trkpt lat="48.78289" lon="1.92944">
        <ele>110.04</ele>
        <time>2018-01-07T14:17:34Z</time>
      </trkpt>
      <trkpt lat="48.78294" lon="1.92976">
        <ele>109.83</ele>
        <time>2018-01-07T14:17:51Z</time>
      </trkpt>
      <trkpt lat="48.78299" lon="1.9299">
        <ele>109.29</ele>
        <time>2018-01-07T14:18:00Z</time>
      </trkpt>
      <trkpt lat="48.78305" lon="1.93001">
        <ele>109.82</ele>
        <time>2018-01-07T14:18:10Z</time>
      </trkpt>
      <trkpt lat="48.78309" lon="1.93028">
        <ele>111.36</ele>
        <time>2018-01-07T14:18:28Z</time>
      </trkpt>
      <trkpt lat="48.78305" lon="1.93034">
        <ele>111.97</ele>
        <time>2018-01-07T14:18:48Z</time>
      </trkpt>
      <trkpt lat="48.78303" lon="1.93022">
        <ele>112.07</ele>
        <time>2018-01-07T14:19:22Z</time>
      </trkpt>
      <trkpt lat="48.78298" lon="1.93024">
        <ele>113.86</ele>
        <time>2018-01-07T14:19:47Z</time>
      </trkpt>
      <trkpt lat="48.78294" lon="1.93031">
        <ele>114.56</ele>
        <time>2018-01-07T14:20:11Z</time>
      </trkpt>
      <trkpt lat="48.78303" lon="1.9303">
        <ele>112.64</ele>
        <time>2018-01-07T14:20:20Z</time>
      </trkpt>
      <trkpt lat="48.78318" lon="1.93043">
        <ele>111.86</ele>
        <time>2018-01-07T14:20:35Z</time>
      </trkpt>
      <trkpt lat="48.78321" lon="1.93054">
        <ele>111.01</ele>
        <time>2018-01-07T14:20:55Z</time>
      </trkpt>
      <trkpt lat="48.78322" lon="1.93081">
        <ele>112.12</ele>
        <time>2018-01-07T14:21:13Z</time>
      </trkpt>
      <trkpt lat="48.78319" lon="1.93116">
        <ele>110.65</ele>
        <time>2018-01-07T14:21:34Z</time>
      </trkpt>
      <trkpt lat="48.78318" lon="1.9314">
        <ele>110.25</ele>
        <time>2018-01-07T14:21:50Z</time>
      </trkpt>
      <trkpt lat="48.78319" lon="1.93162">
        <ele>109.92</ele>
        <time>2018-01-07T14:22:08Z</time>
      </trkpt>
      <trkpt lat="48.78312" lon="1.93182">
        <ele>110.13</ele>
        <time>2018-01-07T14:22:25Z</time>
      </trkpt>
      <trkpt lat="48.78307" lon="1.93189">
        <ele>111.13</ele>
        <time>2018-01-07T14:22:50Z</time>
      </trkpt>
      <trkpt lat="48.78307" lon="1.93202">
        <ele>112.83</ele>
        <time>2018-01-07T14:23:10Z</time>
      </trkpt>
      <trkpt lat="48.78302" lon="1.93228">
        <ele>114.08</ele>
        <time>2018-01-07T14:23:27Z</time>
      </trkpt>
      <trkpt lat="48.78294" lon="1.93256">
        <ele>114.74</ele>
        <time>2018-01-07T14:23:45Z</time>
      </trkpt>
      <trkpt lat="48.78283" lon="1.93278">
        <ele>116.73</ele>
        <time>2018-01-07T14:24:03Z</time>
      </trkpt>
      <trkpt lat="48.78282" lon="1.93279">
        <ele>116.75</ele>
        <time>2018-01-07T14:24:04Z</time>
      </trkpt>
      <trkpt lat="48.78272" lon="1.93302">
        <ele>117.68</ele>
        <time>2018-01-07T14:24:25Z</time>
      </trkpt>
      <trkpt lat="48.7826" lon="1.93318">
        <ele>118.36</ele>
        <time>2018-01-07T14:24:42Z</time>
      </trkpt>
      <trkpt lat="48.78255" lon="1.93335">
        <ele>118.71</ele>
        <time>2018-01-07T14:25:04Z</time>
      </trkpt>
      <trkpt lat="48.78247" lon="1.93359">
        <ele>118.98</ele>
        <time>2018-01-07T14:25:21Z</time>
      </trkpt>
      <trkpt lat="48.78247" lon="1.93364">
        <ele>120.18</ele>
        <time>2018-01-07T14:25:30Z</time>
      </trkpt>
      <trkpt lat="48.78242" lon="1.93382">
        <ele>121.1</ele>
        <time>2018-01-07T14:25:47Z</time>
      </trkpt>
      <trkpt lat="48.78238" lon="1.93394">
        <ele>121.04</ele>
        <time>2018-01-07T14:26:12Z</time>
      </trkpt>
      <trkpt lat="48.78229" lon="1.93425">
        <ele>120.86</ele>
        <time>2018-01-07T14:26:30Z</time>
      </trkpt>
      <trkpt lat="48.78227" lon="1.93434">
        <ele>123.26</ele>
        <time>2018-01-07T14:26:35Z</time>
      </trkpt>
      <trkpt lat="48.78225" lon="1.9344">
        <ele>123.23</ele>
        <time>2018-01-07T14:26:39Z</time>
      </trkpt>
      <trkpt lat="48.78222" lon="1.93456">
        <ele>125.09</ele>
        <time>2018-01-07T14:26:57Z</time>
      </trkpt>
      <trkpt lat="48.78224" lon="1.9347">
        <ele>128.09</ele>
        <time>2018-01-07T14:27:09Z</time>
      </trkpt>
      <trkpt lat="48.78224" lon="1.93472">
        <ele>128</ele>
        <time>2018-01-07T14:27:10Z</time>
      </trkpt>
      <trkpt lat="48.78223" lon="1.935">
        <ele>128.94</ele>
        <time>2018-01-07T14:27:28Z</time>
      </trkpt>
      <trkpt lat="48.78218" lon="1.93523">
        <ele>130.47</ele>
        <time>2018-01-07T14:27:44Z</time>
      </trkpt>
      <trkpt lat="48.78208" lon="1.93548">
        <ele>131.41</ele>
        <time>2018-01-07T14:28:04Z</time>
      </trkpt>
      <trkpt lat="48.78201" lon="1.93564">
        <ele>130.96</ele>
        <time>2018-01-07T14:28:18Z</time>
      </trkpt>
      <trkpt lat="48.78198" lon="1.9359">
        <ele>131.23</ele>
        <time>2018-01-07T14:28:32Z</time>
      </trkpt>
      <trkpt lat="48.78202" lon="1.93594">
        <ele>130.98</ele>
        <time>2018-01-07T14:28:56Z</time>
      </trkpt>
      <trkpt lat="48.78199" lon="1.9359">
        <ele>131.09</ele>
        <time>2018-01-07T14:29:25Z</time>
      </trkpt>
      <trkpt lat="48.78211" lon="1.936">
        <ele>130.33</ele>
        <time>2018-01-07T14:29:44Z</time>
      </trkpt>
      <trkpt lat="48.78223" lon="1.93606">
        <ele>127.73</ele>
        <time>2018-01-07T14:30:01Z</time>
      </trkpt>
      <trkpt lat="48.78239" lon="1.93612">
        <ele>126.95</ele>
        <time>2018-01-07T14:30:20Z</time>
      </trkpt>
      <trkpt lat="48.78252" lon="1.93615">
        <ele>126.37</ele>
        <time>2018-01-07T14:30:39Z</time>
      </trkpt>
      <trkpt lat="48.78264" lon="1.93623">
        <ele>125.82</ele>
        <time>2018-01-07T14:30:55Z</time>
      </trkpt>
      <trkpt lat="48.78274" lon="1.93646">
        <ele>126.5</ele>
        <time>2018-01-07T14:31:13Z</time>
      </trkpt>
      <trkpt lat="48.78278" lon="1.9367">
        <ele>127.83</ele>
        <time>2018-01-07T14:31:30Z</time>
      </trkpt>
      <trkpt lat="48.78281" lon="1.93697">
        <ele>127.29</ele>
        <time>2018-01-07T14:31:49Z</time>
      </trkpt>
      <trkpt lat="48.78276" lon="1.93725">
        <ele>127.76</ele>
        <time>2018-01-07T14:32:09Z</time>
      </trkpt>
      <trkpt lat="48.78275" lon="1.93744">
        <ele>127.63</ele>
        <time>2018-01-07T14:32:24Z</time>
      </trkpt>
      <trkpt lat="48.78278" lon="1.93766">
        <ele>127.52</ele>
        <time>2018-01-07T14:32:41Z</time>
      </trkpt>
      <trkpt lat="48.78278" lon="1.93768">
        <ele>127.5</ele>
        <time>2018-01-07T14:33:01Z</time>
      </trkpt>
      <trkpt lat="48.78276" lon="1.93771">
        <ele>127.57</ele>
        <time>2018-01-07T14:33:24Z</time>
      </trkpt>
      <trkpt lat="48.78281" lon="1.93772">
        <ele>127</ele>
        <time>2018-01-07T14:33:51Z</time>
      </trkpt>
      <trkpt lat="48.7829" lon="1.93787">
        <ele>126.16</ele>
        <time>2018-01-07T14:34:07Z</time>
      </trkpt>
      <trkpt lat="48.78297" lon="1.9381">
        <ele>125.18</ele>
        <time>2018-01-07T14:34:25Z</time>
      </trkpt>
      <trkpt lat="48.78305" lon="1.93833">
        <ele>122.94</ele>
        <time>2018-01-07T14:34:42Z</time>
      </trkpt>
      <trkpt lat="48.78307" lon="1.93856">
        <ele>123.44</ele>
        <time>2018-01-07T14:34:58Z</time>
      </trkpt>
      <trkpt lat="48.7831" lon="1.93862">
        <ele>122.19</ele>
        <time>2018-01-07T14:35:14Z</time>
      </trkpt>
      <trkpt lat="48.78309" lon="1.93862">
        <ele>121.26</ele>
        <time>2018-01-07T14:35:16Z</time>
      </trkpt>
      <trkpt lat="48.78312" lon="1.93863">
        <ele>121.11</ele>
        <time>2018-01-07T14:35:35Z</time>
      </trkpt>
      <trkpt lat="48.78309" lon="1.93864">
        <ele>121.69</ele>
        <time>2018-01-07T14:36:02Z</time>
      </trkpt>
      <trkpt lat="48.78306" lon="1.93869">
        <ele>120.61</ele>
        <time>2018-01-07T14:36:23Z</time>
      </trkpt>
      <trkpt lat="48.78303" lon="1.93871">
        <ele>120.74</ele>
        <time>2018-01-07T14:36:51Z</time>
      </trkpt>
      <trkpt lat="48.78305" lon="1.93881">
        <ele>119.76</ele>
        <time>2018-01-07T14:37:11Z</time>
      </trkpt>
      <trkpt lat="48.78307" lon="1.93884">
        <ele>116.8</ele>
        <time>2018-01-07T14:37:14Z</time>
      </trkpt>
      <trkpt lat="48.78309" lon="1.93884">
        <ele>119.7</ele>
        <time>2018-01-07T14:37:33Z</time>
      </trkpt>
      <trkpt lat="48.78314" lon="1.93882">
        <ele>120.39</ele>
        <time>2018-01-07T14:37:45Z</time>
      </trkpt>
      <trkpt lat="48.78324" lon="1.93875">
        <ele>119.85</ele>
        <time>2018-01-07T14:37:59Z</time>
      </trkpt>
      <trkpt lat="48.78339" lon="1.93864">
        <ele>118.31</ele>
        <time>2018-01-07T14:38:15Z</time>
      </trkpt>
      <trkpt lat="48.78352" lon="1.93851">
        <ele>118.05</ele>
        <time>2018-01-07T14:38:31Z</time>
      </trkpt>
      <trkpt lat="48.78366" lon="1.93844">
        <ele>118.1</ele>
        <time>2018-01-07T14:38:44Z</time>
      </trkpt>
      <trkpt lat="48.78373" lon="1.93843">
        <ele>116.36</ele>
        <time>2018-01-07T14:38:49Z</time>
      </trkpt>
      <trkpt lat="48.78387" lon="1.93838">
        <ele>114.66</ele>
        <time>2018-01-07T14:39:01Z</time>
      </trkpt>
      <trkpt lat="48.78388" lon="1.93837">
        <ele>114.2</ele>
        <time>2018-01-07T14:39:02Z</time>
      </trkpt>
      <trkpt lat="48.784" lon="1.93829">
        <ele>114.03</ele>
        <time>2018-01-07T14:39:18Z</time>
      </trkpt>
      <trkpt lat="48.78401" lon="1.9383">
        <ele>113.97</ele>
        <time>2018-01-07T14:39:21Z</time>
      </trkpt>
      <trkpt lat="48.78403" lon="1.93831">
        <ele>113.6</ele>
        <time>2018-01-07T14:39:23Z</time>
      </trkpt>
      <trkpt lat="48.78408" lon="1.93833">
        <ele>113.38</ele>
        <time>2018-01-07T14:39:40Z</time>
      </trkpt>
      <trkpt lat="48.78412" lon="1.93828">
        <ele>113.04</ele>
        <time>2018-01-07T14:39:49Z</time>
      </trkpt>
      <trkpt lat="48.78424" lon="1.93825">
        <ele>112.36</ele>
        <time>2018-01-07T14:40:00Z</time>
      </trkpt>
      <trkpt lat="48.7843" lon="1.93823">
        <ele>111.7</ele>
        <time>2018-01-07T14:40:06Z</time>
      </trkpt>
      <trkpt lat="48.78452" lon="1.93821">
        <ele>109.22</ele>
        <time>2018-01-07T14:40:23Z</time>
      </trkpt>
      <trkpt lat="48.78468" lon="1.93818">
        <ele>107.77</ele>
        <time>2018-01-07T14:40:40Z</time>
      </trkpt>
      <trkpt lat="48.7847" lon="1.93818">
        <ele>106.86</ele>
        <time>2018-01-07T14:40:42Z</time>
      </trkpt>
      <trkpt lat="48.78472" lon="1.93822">
        <ele>107.75</ele>
        <time>2018-01-07T14:40:46Z</time>
      </trkpt>
      <trkpt lat="48.78472" lon="1.93824">
        <ele>106.72</ele>
        <time>2018-01-07T14:40:47Z</time>
      </trkpt>
      <trkpt lat="48.7847" lon="1.93852">
        <ele>106.61</ele>
        <time>2018-01-07T14:41:07Z</time>
      </trkpt>
      <trkpt lat="48.78469" lon="1.93853">
        <ele>106.56</ele>
        <time>2018-01-07T14:41:08Z</time>
      </trkpt>
      <trkpt lat="48.78467" lon="1.93862">
        <ele>106.83</ele>
        <time>2018-01-07T14:41:14Z</time>
      </trkpt>
      <trkpt lat="48.78459" lon="1.93898">
        <ele>106.45</ele>
        <time>2018-01-07T14:41:36Z</time>
      </trkpt>
      <trkpt lat="48.78454" lon="1.93933">
        <ele>106.14</ele>
        <time>2018-01-07T14:41:55Z</time>
      </trkpt>
      <trkpt lat="48.78449" lon="1.93963">
        <ele>104.52</ele>
        <time>2018-01-07T14:42:12Z</time>
      </trkpt>
      <trkpt lat="48.78442" lon="1.9399">
        <ele>102.82</ele>
        <time>2018-01-07T14:42:28Z</time>
      </trkpt>
      <trkpt lat="48.78438" lon="1.94019">
        <ele>100.82</ele>
        <time>2018-01-07T14:42:45Z</time>
      </trkpt>
      <trkpt lat="48.78436" lon="1.94052">
        <ele>99.45</ele>
        <time>2018-01-07T14:43:04Z</time>
      </trkpt>
      <trkpt lat="48.78434" lon="1.94068">
        <ele>99.11</ele>
        <time>2018-01-07T14:43:20Z</time>
      </trkpt>
      <trkpt lat="48.78435" lon="1.94073">
        <ele>99.81</ele>
        <time>2018-01-07T14:43:29Z</time>
      </trkpt>
      <trkpt lat="48.78435" lon="1.94078">
        <ele>98.58</ele>
        <time>2018-01-07T14:43:32Z</time>
      </trkpt>
      <trkpt lat="48.78434" lon="1.94079">
        <ele>98.61</ele>
        <time>2018-01-07T14:43:33Z</time>
      </trkpt>
      <trkpt lat="48.78434" lon="1.94086">
        <ele>97.87</ele>
        <time>2018-01-07T14:43:38Z</time>
      </trkpt>
      <trkpt lat="48.78434" lon="1.94093">
        <ele>98.02</ele>
        <time>2018-01-07T14:43:42Z</time>
      </trkpt>
      <trkpt lat="48.78431" lon="1.94117">
        <ele>96.85</ele>
        <time>2018-01-07T14:43:56Z</time>
      </trkpt>
      <trkpt lat="48.78429" lon="1.94141">
        <ele>97.33</ele>
        <time>2018-01-07T14:44:11Z</time>
      </trkpt>
      <trkpt lat="48.78426" lon="1.94169">
        <ele>96.23</ele>
        <time>2018-01-07T14:44:29Z</time>
      </trkpt>
      <trkpt lat="48.78424" lon="1.94191">
        <ele>95.63</ele>
        <time>2018-01-07T14:44:45Z</time>
      </trkpt>
      <trkpt lat="48.78421" lon="1.94208">
        <ele>95.54</ele>
        <time>2018-01-07T14:44:58Z</time>
      </trkpt>
      <trkpt lat="48.7842" lon="1.94228">
        <ele>95.73</ele>
        <time>2018-01-07T14:45:16Z</time>
      </trkpt>
      <trkpt lat="48.78421" lon="1.94248">
        <ele>96.13</ele>
        <time>2018-01-07T14:45:36Z</time>
      </trkpt>
      <trkpt lat="48.78424" lon="1.94262">
        <ele>94.93</ele>
        <time>2018-01-07T14:45:45Z</time>
      </trkpt>
      <trkpt lat="48.78429" lon="1.94292">
        <ele>94.21</ele>
        <time>2018-01-07T14:46:02Z</time>
      </trkpt>
      <trkpt lat="48.78429" lon="1.9432">
        <ele>94.92</ele>
        <time>2018-01-07T14:46:17Z</time>
      </trkpt>
      <trkpt lat="48.78428" lon="1.94333">
        <ele>94.71</ele>
        <time>2018-01-07T14:46:23Z</time>
      </trkpt>
      <trkpt lat="48.78431" lon="1.94355">
        <ele>95.23</ele>
        <time>2018-01-07T14:46:38Z</time>
      </trkpt>
      <trkpt lat="48.78433" lon="1.94354">
        <ele>95.22</ele>
        <time>2018-01-07T14:46:53Z</time>
      </trkpt>
      <trkpt lat="48.7843" lon="1.94358">
        <ele>95.48</ele>
        <time>2018-01-07T14:47:06Z</time>
      </trkpt>
      <trkpt lat="48.78434" lon="1.94365">
        <ele>95.38</ele>
        <time>2018-01-07T14:47:28Z</time>
      </trkpt>
      <trkpt lat="48.78431" lon="1.94367">
        <ele>95.22</ele>
        <time>2018-01-07T14:47:52Z</time>
      </trkpt>
      <trkpt lat="48.78432" lon="1.94372">
        <ele>95.92</ele>
        <time>2018-01-07T14:48:09Z</time>
      </trkpt>
      <trkpt lat="48.78433" lon="1.94375">
        <ele>96.17</ele>
        <time>2018-01-07T14:48:11Z</time>
      </trkpt>
      <trkpt lat="48.78435" lon="1.94382">
        <ele>95.89</ele>
        <time>2018-01-07T14:48:15Z</time>
      </trkpt>
      <trkpt lat="48.78436" lon="1.94389">
        <ele>96.17</ele>
        <time>2018-01-07T14:48:20Z</time>
      </trkpt>
      <trkpt lat="48.78436" lon="1.94393">
        <ele>96.39</ele>
        <time>2018-01-07T14:48:22Z</time>
      </trkpt>
      <trkpt lat="48.78438" lon="1.94408">
        <ele>96.5</ele>
        <time>2018-01-07T14:48:32Z</time>
      </trkpt>
      <trkpt lat="48.78441" lon="1.9443">
        <ele>96.92</ele>
        <time>2018-01-07T14:48:46Z</time>
      </trkpt>
      <trkpt lat="48.78441" lon="1.94435">
        <ele>96.98</ele>
        <time>2018-01-07T14:48:50Z</time>
      </trkpt>
      <trkpt lat="48.78441" lon="1.94452">
        <ele>98.34</ele>
        <time>2018-01-07T14:49:05Z</time>
      </trkpt>
      <trkpt lat="48.78444" lon="1.94473">
        <ele>100.1</ele>
        <time>2018-01-07T14:49:21Z</time>
      </trkpt>
      <trkpt lat="48.78444" lon="1.94501">
        <ele>101.81</ele>
        <time>2018-01-07T14:49:37Z</time>
      </trkpt>
      <trkpt lat="48.78444" lon="1.94505">
        <ele>101.55</ele>
        <time>2018-01-07T14:49:40Z</time>
      </trkpt>
      <trkpt lat="48.78443" lon="1.94515">
        <ele>102.79</ele>
        <time>2018-01-07T14:49:47Z</time>
      </trkpt>
      <trkpt lat="48.78442" lon="1.94522">
        <ele>102.94</ele>
        <time>2018-01-07T14:49:51Z</time>
      </trkpt>
      <trkpt lat="48.78439" lon="1.94554">
        <ele>104.44</ele>
        <time>2018-01-07T14:50:08Z</time>
      </trkpt>
      <trkpt lat="48.78438" lon="1.94574">
        <ele>106.24</ele>
        <time>2018-01-07T14:50:21Z</time>
      </trkpt>
      <trkpt lat="48.78438" lon="1.94577">
        <ele>105.99</ele>
        <time>2018-01-07T14:50:23Z</time>
      </trkpt>
      <trkpt lat="48.78436" lon="1.94606">
        <ele>107.26</ele>
        <time>2018-01-07T14:50:39Z</time>
      </trkpt>
      <trkpt lat="48.78432" lon="1.94637">
        <ele>109.53</ele>
        <time>2018-01-07T14:50:55Z</time>
      </trkpt>
      <trkpt lat="48.78429" lon="1.94662">
        <ele>111.44</ele>
        <time>2018-01-07T14:51:10Z</time>
      </trkpt>
      <trkpt lat="48.78428" lon="1.94677">
        <ele>111.82</ele>
        <time>2018-01-07T14:51:19Z</time>
      </trkpt>
      <trkpt lat="48.78427" lon="1.94682">
        <ele>113.13</ele>
        <time>2018-01-07T14:51:22Z</time>
      </trkpt>
      <trkpt lat="48.78426" lon="1.94702">
        <ele>113.05</ele>
        <time>2018-01-07T14:51:34Z</time>
      </trkpt>
      <trkpt lat="48.78425" lon="1.94719">
        <ele>114.62</ele>
        <time>2018-01-07T14:51:44Z</time>
      </trkpt>
      <trkpt lat="48.78422" lon="1.94741">
        <ele>114.76</ele>
        <time>2018-01-07T14:51:59Z</time>
      </trkpt>
      <trkpt lat="48.78422" lon="1.94742">
        <ele>115.08</ele>
        <time>2018-01-07T14:52:14Z</time>
      </trkpt>
      <trkpt lat="48.78421" lon="1.94747">
        <ele>115.04</ele>
        <time>2018-01-07T14:52:28Z</time>
      </trkpt>
      <trkpt lat="48.7842" lon="1.94771">
        <ele>116.3</ele>
        <time>2018-01-07T14:52:43Z</time>
      </trkpt>
      <trkpt lat="48.78417" lon="1.94781">
        <ele>117.25</ele>
        <time>2018-01-07T14:52:51Z</time>
      </trkpt>
      <trkpt lat="48.78416" lon="1.94803">
        <ele>119.47</ele>
        <time>2018-01-07T14:53:08Z</time>
      </trkpt>
      <trkpt lat="48.78419" lon="1.94833">
        <ele>121.1</ele>
        <time>2018-01-07T14:53:28Z</time>
      </trkpt>
      <trkpt lat="48.78417" lon="1.94864">
        <ele>121.65</ele>
        <time>2018-01-07T14:53:43Z</time>
      </trkpt>
      <trkpt lat="48.78411" lon="1.94906">
        <ele>121.3</ele>
        <time>2018-01-07T14:54:03Z</time>
      </trkpt>
      <trkpt lat="48.78412" lon="1.94932">
        <ele>120.17</ele>
        <time>2018-01-07T14:54:19Z</time>
      </trkpt>
      <trkpt lat="48.78413" lon="1.94939">
        <ele>120.07</ele>
        <time>2018-01-07T14:54:25Z</time>
      </trkpt>
      <trkpt lat="48.78415" lon="1.94947">
        <ele>119.29</ele>
        <time>2018-01-07T14:54:31Z</time>
      </trkpt>
      <trkpt lat="48.78417" lon="1.94969">
        <ele>118.38</ele>
        <time>2018-01-07T14:54:44Z</time>
      </trkpt>
      <trkpt lat="48.78414" lon="1.95017">
        <ele>117.58</ele>
        <time>2018-01-07T14:55:06Z</time>
      </trkpt>
      <trkpt lat="48.78414" lon="1.9503">
        <ele>115.54</ele>
        <time>2018-01-07T14:55:13Z</time>
      </trkpt>
      <trkpt lat="48.78416" lon="1.95062">
        <ele>114.39</ele>
        <time>2018-01-07T14:55:31Z</time>
      </trkpt>
      <trkpt lat="48.78416" lon="1.95075">
        <ele>112.86</ele>
        <time>2018-01-07T14:55:38Z</time>
      </trkpt>
      <trkpt lat="48.78418" lon="1.95098">
        <ele>110.96</ele>
        <time>2018-01-07T14:55:53Z</time>
      </trkpt>
      <trkpt lat="48.7842" lon="1.95106">
        <ele>111.32</ele>
        <time>2018-01-07T14:55:58Z</time>
      </trkpt>
      <trkpt lat="48.78421" lon="1.95113">
        <ele>111.29</ele>
        <time>2018-01-07T14:56:02Z</time>
      </trkpt>
      <trkpt lat="48.78424" lon="1.95131">
        <ele>109.75</ele>
        <time>2018-01-07T14:56:11Z</time>
      </trkpt>
      <trkpt lat="48.78426" lon="1.95168">
        <ele>107.94</ele>
        <time>2018-01-07T14:56:30Z</time>
      </trkpt>
      <trkpt lat="48.78429" lon="1.95201">
        <ele>107.06</ele>
        <time>2018-01-07T14:56:48Z</time>
      </trkpt>
      <trkpt lat="48.78432" lon="1.95236">
        <ele>107.18</ele>
        <time>2018-01-07T14:57:07Z</time>
      </trkpt>
      <trkpt lat="48.78434" lon="1.95268">
        <ele>106.57</ele>
        <time>2018-01-07T14:57:24Z</time>
      </trkpt>
      <trkpt lat="48.78434" lon="1.95278">
        <ele>106.71</ele>
        <time>2018-01-07T14:57:29Z</time>
      </trkpt>
      <trkpt lat="48.78435" lon="1.9529">
        <ele>107.09</ele>
        <time>2018-01-07T14:57:36Z</time>
      </trkpt>
      <trkpt lat="48.78436" lon="1.95316">
        <ele>106.92</ele>
        <time>2018-01-07T14:57:50Z</time>
      </trkpt>
      <trkpt lat="48.78436" lon="1.95337">
        <ele>106.61</ele>
        <time>2018-01-07T14:57:59Z</time>
      </trkpt>
      <trkpt lat="48.78439" lon="1.95367">
        <ele>106.6</ele>
        <time>2018-01-07T14:58:16Z</time>
      </trkpt>
      <trkpt lat="48.78442" lon="1.95393">
        <ele>107.82</ele>
        <time>2018-01-07T14:58:31Z</time>
      </trkpt>
      <trkpt lat="48.78445" lon="1.95427">
        <ele>109.24</ele>
        <time>2018-01-07T14:58:49Z</time>
      </trkpt>
      <trkpt lat="48.78447" lon="1.95438">
        <ele>109.28</ele>
        <time>2018-01-07T14:58:55Z</time>
      </trkpt>
      <trkpt lat="48.78447" lon="1.95443">
        <ele>110.17</ele>
        <time>2018-01-07T14:58:58Z</time>
      </trkpt>
      <trkpt lat="48.7845" lon="1.95468">
        <ele>109.92</ele>
        <time>2018-01-07T14:59:14Z</time>
      </trkpt>
      <trkpt lat="48.78451" lon="1.95477">
        <ele>109.42</ele>
        <time>2018-01-07T14:59:19Z</time>
      </trkpt>
      <trkpt lat="48.78452" lon="1.95506">
        <ele>109.68</ele>
        <time>2018-01-07T14:59:36Z</time>
      </trkpt>
      <trkpt lat="48.78451" lon="1.95534">
        <ele>109.79</ele>
        <time>2018-01-07T14:59:52Z</time>
      </trkpt>
      <trkpt lat="48.78443" lon="1.9557">
        <ele>110.11</ele>
        <time>2018-01-07T15:00:13Z</time>
      </trkpt>
      <trkpt lat="48.78442" lon="1.95568">
        <ele>110.62</ele>
        <time>2018-01-07T15:00:35Z</time>
      </trkpt>
      <trkpt lat="48.78444" lon="1.95569">
        <ele>110.41</ele>
        <time>2018-01-07T15:01:09Z</time>
      </trkpt>
      <trkpt lat="48.78445" lon="1.95569">
        <ele>111.48</ele>
        <time>2018-01-07T15:01:39Z</time>
      </trkpt>
      <trkpt lat="48.78445" lon="1.95571">
        <ele>111.28</ele>
        <time>2018-01-07T15:02:09Z</time>
      </trkpt>
      <trkpt lat="48.78438" lon="1.95584">
        <ele>110.57</ele>
        <time>2018-01-07T15:02:25Z</time>
      </trkpt>
      <trkpt lat="48.7844" lon="1.95595">
        <ele>110.88</ele>
        <time>2018-01-07T15:02:33Z</time>
      </trkpt>
      <trkpt lat="48.78434" lon="1.95625">
        <ele>109.26</ele>
        <time>2018-01-07T15:02:51Z</time>
      </trkpt>
      <trkpt lat="48.7843" lon="1.95651">
        <ele>110.17</ele>
        <time>2018-01-07T15:03:08Z</time>
      </trkpt>
      <trkpt lat="48.78424" lon="1.9568">
        <ele>109.77</ele>
        <time>2018-01-07T15:03:23Z</time>
      </trkpt>
      <trkpt lat="48.7842" lon="1.95697">
        <ele>110.62</ele>
        <time>2018-01-07T15:03:39Z</time>
      </trkpt>
      <trkpt lat="48.78416" lon="1.95741">
        <ele>110.23</ele>
        <time>2018-01-07T15:04:02Z</time>
      </trkpt>
      <trkpt lat="48.78415" lon="1.95753">
        <ele>110.22</ele>
        <time>2018-01-07T15:04:09Z</time>
      </trkpt>
      <trkpt lat="48.78406" lon="1.95773">
        <ele>109.7</ele>
        <time>2018-01-07T15:04:23Z</time>
      </trkpt>
      <trkpt lat="48.78404" lon="1.95787">
        <ele>109.53</ele>
        <time>2018-01-07T15:04:32Z</time>
      </trkpt>
      <trkpt lat="48.78394" lon="1.95808">
        <ele>109.92</ele>
        <time>2018-01-07T15:04:40Z</time>
      </trkpt>
      <trkpt lat="48.78397" lon="1.95835">
        <ele>109.83</ele>
        <time>2018-01-07T15:04:54Z</time>
      </trkpt>
      <trkpt lat="48.78396" lon="1.95843">
        <ele>109.02</ele>
        <time>2018-01-07T15:05:02Z</time>
      </trkpt>
      <trkpt lat="48.78388" lon="1.95872">
        <ele>110.19</ele>
        <time>2018-01-07T15:05:26Z</time>
      </trkpt>
      <trkpt lat="48.78383" lon="1.95897">
        <ele>109.54</ele>
        <time>2018-01-07T15:05:41Z</time>
      </trkpt>
      <trkpt lat="48.7837" lon="1.95931">
        <ele>108.96</ele>
        <time>2018-01-07T15:05:56Z</time>
      </trkpt>
      <trkpt lat="48.78359" lon="1.95965">
        <ele>108.45</ele>
        <time>2018-01-07T15:06:14Z</time>
      </trkpt>
    </trkseg>
  </trk>
</gpx>